<?xml version="1.0" encoding="UTF-8" standalone="no" ?>
<gpx xmlns="http://www.topografix.com/GPX/1/1" xmlns:xsi="http://www.w3.org/2001/XMLSchema-instance" xsi:schemaLocation="http://www.topografix.com/GPX/1/1 http://www.topografix.com/GPX/1/1/gpx.xsd" version="1.1" creator="VisuGPX - https://www.visugpx.com">
  <metadata>
    <name>65 - PEDESTRE - Saint Lary - Boucle par le GR 10</name>
    <desc><![CDATA[Pas de neige - Soleil - BALISAGE GR ABSENT EFFACE...]]></desc>
  </metadata>
  <wpt lat="42.83817" lon="0.29882">
    <ele>1616.810547</ele>
    <name><![CDATA[002]]></name>
    <desc><![CDATA[31-DEC-12 1:46:36]]></desc>
  </wpt>
  <trk>
    <name><![CDATA[ACTIVE LOG 001]]></name>
    <trkseg>
      <trkpt lat="42.82498" lon="0.31742">
        <ele>822.545166</ele>
        <time>2012-12-31T09:48:51Z</time>
      </trkpt>
      <trkpt lat="42.82499" lon="0.31742">
        <ele>822.545166</ele>
        <time>2012-12-31T09:48:52Z</time>
      </trkpt>
      <trkpt lat="42.82501" lon="0.31742">
        <ele>823.987061</ele>
        <time>2012-12-31T09:48:57Z</time>
      </trkpt>
      <trkpt lat="42.82509" lon="0.31748">
        <ele>822.545166</ele>
        <time>2012-12-31T09:49:11Z</time>
      </trkpt>
      <trkpt lat="42.8251" lon="0.31748">
        <ele>826.871094</ele>
        <time>2012-12-31T09:49:12Z</time>
      </trkpt>
      <trkpt lat="42.8251" lon="0.31749">
        <ele>825.428955</ele>
        <time>2012-12-31T09:49:13Z</time>
      </trkpt>
      <trkpt lat="42.82511" lon="0.31751">
        <ele>821.103271</ele>
        <time>2012-12-31T09:49:15Z</time>
      </trkpt>
      <trkpt lat="42.82513" lon="0.31752">
        <ele>824.467773</ele>
        <time>2012-12-31T09:49:17Z</time>
      </trkpt>
      <trkpt lat="42.82513" lon="0.31753">
        <ele>825.428955</ele>
        <time>2012-12-31T09:49:18Z</time>
      </trkpt>
      <trkpt lat="42.82516" lon="0.31756">
        <ele>823.025879</ele>
        <time>2012-12-31T09:49:22Z</time>
      </trkpt>
      <trkpt lat="42.82518" lon="0.31757">
        <ele>823.506592</ele>
        <time>2012-12-31T09:49:24Z</time>
      </trkpt>
      <trkpt lat="42.82543" lon="0.31768">
        <ele>824.467773</ele>
        <time>2012-12-31T09:49:46Z</time>
      </trkpt>
      <trkpt lat="42.8256" lon="0.31781">
        <ele>824.948486</ele>
        <time>2012-12-31T09:50:04Z</time>
      </trkpt>
      <trkpt lat="42.82568" lon="0.31785">
        <ele>824.948486</ele>
        <time>2012-12-31T09:50:14Z</time>
      </trkpt>
      <trkpt lat="42.82575" lon="0.31779">
        <ele>824.948486</ele>
        <time>2012-12-31T09:50:22Z</time>
      </trkpt>
      <trkpt lat="42.82582" lon="0.31781">
        <ele>824.948486</ele>
        <time>2012-12-31T09:50:27Z</time>
      </trkpt>
      <trkpt lat="42.82594" lon="0.31784">
        <ele>821.103271</ele>
        <time>2012-12-31T09:50:37Z</time>
      </trkpt>
      <trkpt lat="42.82595" lon="0.31784">
        <ele>824.467773</ele>
        <time>2012-12-31T09:50:38Z</time>
      </trkpt>
      <trkpt lat="42.82605" lon="0.31784">
        <ele>823.987061</ele>
        <time>2012-12-31T09:50:45Z</time>
      </trkpt>
      <trkpt lat="42.82616" lon="0.31784">
        <ele>823.987061</ele>
        <time>2012-12-31T09:50:56Z</time>
      </trkpt>
      <trkpt lat="42.82631" lon="0.31787">
        <ele>824.467773</ele>
        <time>2012-12-31T09:51:09Z</time>
      </trkpt>
      <trkpt lat="42.82665" lon="0.31793">
        <ele>826.871094</ele>
        <time>2012-12-31T09:51:35Z</time>
      </trkpt>
      <trkpt lat="42.82683" lon="0.31796">
        <ele>827.832275</ele>
        <time>2012-12-31T09:51:51Z</time>
      </trkpt>
      <trkpt lat="42.82701" lon="0.31806">
        <ele>829.755127</ele>
        <time>2012-12-31T09:52:08Z</time>
      </trkpt>
      <trkpt lat="42.8272" lon="0.3182">
        <ele>829.755127</ele>
        <time>2012-12-31T09:52:27Z</time>
      </trkpt>
      <trkpt lat="42.82724" lon="0.31824">
        <ele>830.23584</ele>
        <time>2012-12-31T09:52:31Z</time>
      </trkpt>
      <trkpt lat="42.82739" lon="0.31836">
        <ele>831.677734</ele>
        <time>2012-12-31T09:52:44Z</time>
      </trkpt>
      <trkpt lat="42.82759" lon="0.31845">
        <ele>834.561768</ele>
        <time>2012-12-31T09:53:02Z</time>
      </trkpt>
      <trkpt lat="42.82769" lon="0.31848">
        <ele>835.522949</ele>
        <time>2012-12-31T09:53:11Z</time>
      </trkpt>
      <trkpt lat="42.82772" lon="0.3185">
        <ele>836.484375</ele>
        <time>2012-12-31T09:53:14Z</time>
      </trkpt>
      <trkpt lat="42.82776" lon="0.31853">
        <ele>836.964844</ele>
        <time>2012-12-31T09:53:18Z</time>
      </trkpt>
      <trkpt lat="42.82777" lon="0.31855">
        <ele>837.92627</ele>
        <time>2012-12-31T09:53:20Z</time>
      </trkpt>
      <trkpt lat="42.82787" lon="0.31858">
        <ele>837.92627</ele>
        <time>2012-12-31T09:53:28Z</time>
      </trkpt>
      <trkpt lat="42.82798" lon="0.31861">
        <ele>838.887695</ele>
        <time>2012-12-31T09:53:38Z</time>
      </trkpt>
      <trkpt lat="42.82803" lon="0.31863">
        <ele>839.368164</ele>
        <time>2012-12-31T09:53:42Z</time>
      </trkpt>
      <trkpt lat="42.82826" lon="0.31871">
        <ele>840.810059</ele>
        <time>2012-12-31T09:54:03Z</time>
      </trkpt>
      <trkpt lat="42.82832" lon="0.31873">
        <ele>840.810059</ele>
        <time>2012-12-31T09:54:08Z</time>
      </trkpt>
      <trkpt lat="42.82846" lon="0.31877">
        <ele>841.290771</ele>
        <time>2012-12-31T09:54:20Z</time>
      </trkpt>
      <trkpt lat="42.82865" lon="0.31882">
        <ele>841.290771</ele>
        <time>2012-12-31T09:54:35Z</time>
      </trkpt>
      <trkpt lat="42.82878" lon="0.31885">
        <ele>841.771484</ele>
        <time>2012-12-31T09:54:47Z</time>
      </trkpt>
      <trkpt lat="42.82899" lon="0.31889">
        <ele>842.252197</ele>
        <time>2012-12-31T09:55:05Z</time>
      </trkpt>
      <trkpt lat="42.82915" lon="0.31896">
        <ele>843.213379</ele>
        <time>2012-12-31T09:55:18Z</time>
      </trkpt>
      <trkpt lat="42.8292" lon="0.31898">
        <ele>843.694092</ele>
        <time>2012-12-31T09:55:22Z</time>
      </trkpt>
      <trkpt lat="42.82923" lon="0.31899">
        <ele>844.175049</ele>
        <time>2012-12-31T09:55:25Z</time>
      </trkpt>
      <trkpt lat="42.82928" lon="0.31904">
        <ele>844.175049</ele>
        <time>2012-12-31T09:55:30Z</time>
      </trkpt>
      <trkpt lat="42.8293" lon="0.31906">
        <ele>844.655518</ele>
        <time>2012-12-31T09:55:33Z</time>
      </trkpt>
      <trkpt lat="42.82945" lon="0.31917">
        <ele>846.578369</ele>
        <time>2012-12-31T09:55:47Z</time>
      </trkpt>
      <trkpt lat="42.82953" lon="0.31925">
        <ele>848.020264</ele>
        <time>2012-12-31T09:55:56Z</time>
      </trkpt>
      <trkpt lat="42.82962" lon="0.31934">
        <ele>849.942871</ele>
        <time>2012-12-31T09:56:05Z</time>
      </trkpt>
      <trkpt lat="42.82965" lon="0.31936">
        <ele>849.462158</ele>
        <time>2012-12-31T09:56:08Z</time>
      </trkpt>
      <trkpt lat="42.82967" lon="0.31938">
        <ele>849.462158</ele>
        <time>2012-12-31T09:56:10Z</time>
      </trkpt>
      <trkpt lat="42.82973" lon="0.31945">
        <ele>850.423584</ele>
        <time>2012-12-31T09:56:17Z</time>
      </trkpt>
      <trkpt lat="42.82979" lon="0.31949">
        <ele>851.865479</ele>
        <time>2012-12-31T09:56:23Z</time>
      </trkpt>
      <trkpt lat="42.82986" lon="0.31955">
        <ele>852.82666</ele>
        <time>2012-12-31T09:56:31Z</time>
      </trkpt>
      <trkpt lat="42.82987" lon="0.31957">
        <ele>853.307373</ele>
        <time>2012-12-31T09:56:33Z</time>
      </trkpt>
      <trkpt lat="42.82997" lon="0.31964">
        <ele>853.307373</ele>
        <time>2012-12-31T09:56:43Z</time>
      </trkpt>
      <trkpt lat="42.83002" lon="0.31969">
        <ele>854.749268</ele>
        <time>2012-12-31T09:56:48Z</time>
      </trkpt>
      <trkpt lat="42.83017" lon="0.31983">
        <ele>856.671875</ele>
        <time>2012-12-31T09:57:03Z</time>
      </trkpt>
      <trkpt lat="42.83032" lon="0.31996">
        <ele>858.594482</ele>
        <time>2012-12-31T09:57:19Z</time>
      </trkpt>
      <trkpt lat="42.83042" lon="0.32006">
        <ele>860.998047</ele>
        <time>2012-12-31T09:57:29Z</time>
      </trkpt>
      <trkpt lat="42.83057" lon="0.32022">
        <ele>861.959473</ele>
        <time>2012-12-31T09:57:45Z</time>
      </trkpt>
      <trkpt lat="42.83069" lon="0.32032">
        <ele>863.401367</ele>
        <time>2012-12-31T09:57:58Z</time>
      </trkpt>
      <trkpt lat="42.83087" lon="0.32044">
        <ele>866.285156</ele>
        <time>2012-12-31T09:58:15Z</time>
      </trkpt>
      <trkpt lat="42.83101" lon="0.32056">
        <ele>866.765869</ele>
        <time>2012-12-31T09:58:29Z</time>
      </trkpt>
      <trkpt lat="42.83107" lon="0.3206">
        <ele>867.727051</ele>
        <time>2012-12-31T09:58:36Z</time>
      </trkpt>
      <trkpt lat="42.83109" lon="0.32061">
        <ele>867.727051</ele>
        <time>2012-12-31T09:58:38Z</time>
      </trkpt>
      <trkpt lat="42.8311" lon="0.32068">
        <ele>867.727051</ele>
        <time>2012-12-31T09:58:42Z</time>
      </trkpt>
      <trkpt lat="42.83117" lon="0.32077">
        <ele>869.169189</ele>
        <time>2012-12-31T09:58:50Z</time>
      </trkpt>
      <trkpt lat="42.83121" lon="0.32081">
        <ele>870.130371</ele>
        <time>2012-12-31T09:58:54Z</time>
      </trkpt>
      <trkpt lat="42.8313" lon="0.32089">
        <ele>871.572266</ele>
        <time>2012-12-31T09:59:04Z</time>
      </trkpt>
      <trkpt lat="42.83132" lon="0.32089">
        <ele>871.572266</ele>
        <time>2012-12-31T09:59:08Z</time>
      </trkpt>
      <trkpt lat="42.83143" lon="0.32098">
        <ele>872.052979</ele>
        <time>2012-12-31T09:59:18Z</time>
      </trkpt>
      <trkpt lat="42.83151" lon="0.32105">
        <ele>873.975586</ele>
        <time>2012-12-31T09:59:27Z</time>
      </trkpt>
      <trkpt lat="42.83157" lon="0.3211">
        <ele>874.456299</ele>
        <time>2012-12-31T09:59:33Z</time>
      </trkpt>
      <trkpt lat="42.83175" lon="0.32119">
        <ele>876.37915</ele>
        <time>2012-12-31T09:59:49Z</time>
      </trkpt>
      <trkpt lat="42.83178" lon="0.32121">
        <ele>876.859863</ele>
        <time>2012-12-31T09:59:52Z</time>
      </trkpt>
      <trkpt lat="42.83186" lon="0.32121">
        <ele>877.340576</ele>
        <time>2012-12-31T09:59:59Z</time>
      </trkpt>
      <trkpt lat="42.83197" lon="0.3213">
        <ele>878.782471</ele>
        <time>2012-12-31T10:00:09Z</time>
      </trkpt>
      <trkpt lat="42.832" lon="0.32134">
        <ele>879.262939</ele>
        <time>2012-12-31T10:00:12Z</time>
      </trkpt>
      <trkpt lat="42.83206" lon="0.32144">
        <ele>880.705078</ele>
        <time>2012-12-31T10:00:20Z</time>
      </trkpt>
      <trkpt lat="42.8321" lon="0.3215">
        <ele>879.743652</ele>
        <time>2012-12-31T10:00:25Z</time>
      </trkpt>
      <trkpt lat="42.83222" lon="0.32159">
        <ele>881.66626</ele>
        <time>2012-12-31T10:00:36Z</time>
      </trkpt>
      <trkpt lat="42.83241" lon="0.32171">
        <ele>882.627686</ele>
        <time>2012-12-31T10:00:55Z</time>
      </trkpt>
      <trkpt lat="42.83255" lon="0.32178">
        <ele>883.108154</ele>
        <time>2012-12-31T10:01:07Z</time>
      </trkpt>
      <trkpt lat="42.83256" lon="0.32176">
        <ele>883.588867</ele>
        <time>2012-12-31T10:01:10Z</time>
      </trkpt>
      <trkpt lat="42.83265" lon="0.32179">
        <ele>884.550293</ele>
        <time>2012-12-31T10:01:17Z</time>
      </trkpt>
      <trkpt lat="42.83269" lon="0.3218">
        <ele>885.511475</ele>
        <time>2012-12-31T10:01:21Z</time>
      </trkpt>
      <trkpt lat="42.83281" lon="0.32182">
        <ele>886.953369</ele>
        <time>2012-12-31T10:01:32Z</time>
      </trkpt>
      <trkpt lat="42.83282" lon="0.32183">
        <ele>886.953369</ele>
        <time>2012-12-31T10:01:33Z</time>
      </trkpt>
      <trkpt lat="42.83298" lon="0.32186">
        <ele>888.395508</ele>
        <time>2012-12-31T10:01:47Z</time>
      </trkpt>
      <trkpt lat="42.83303" lon="0.32189">
        <ele>890.318115</ele>
        <time>2012-12-31T10:01:52Z</time>
      </trkpt>
      <trkpt lat="42.83312" lon="0.32195">
        <ele>890.318115</ele>
        <time>2012-12-31T10:02:04Z</time>
      </trkpt>
      <trkpt lat="42.83311" lon="0.32194">
        <ele>890.318115</ele>
        <time>2012-12-31T10:02:26Z</time>
      </trkpt>
      <trkpt lat="42.8331" lon="0.32193">
        <ele>890.318115</ele>
        <time>2012-12-31T10:02:35Z</time>
      </trkpt>
      <trkpt lat="42.8331" lon="0.32192">
        <ele>890.798584</ele>
        <time>2012-12-31T10:02:36Z</time>
      </trkpt>
      <trkpt lat="42.83306" lon="0.32177">
        <ele>889.837402</ele>
        <time>2012-12-31T10:02:48Z</time>
      </trkpt>
      <trkpt lat="42.83299" lon="0.32177">
        <ele>890.798584</ele>
        <time>2012-12-31T10:02:58Z</time>
      </trkpt>
      <trkpt lat="42.83298" lon="0.32177">
        <ele>890.798584</ele>
        <time>2012-12-31T10:03:17Z</time>
      </trkpt>
      <trkpt lat="42.83293" lon="0.32179">
        <ele>889.837402</ele>
        <time>2012-12-31T10:04:13Z</time>
      </trkpt>
      <trkpt lat="42.83282" lon="0.32174">
        <ele>889.837402</ele>
        <time>2012-12-31T10:04:26Z</time>
      </trkpt>
      <trkpt lat="42.83275" lon="0.32166">
        <ele>890.318115</ele>
        <time>2012-12-31T10:04:40Z</time>
      </trkpt>
      <trkpt lat="42.83268" lon="0.3216">
        <ele>894.163574</ele>
        <time>2012-12-31T10:04:55Z</time>
      </trkpt>
      <trkpt lat="42.83264" lon="0.3215">
        <ele>896.086182</ele>
        <time>2012-12-31T10:05:08Z</time>
      </trkpt>
      <trkpt lat="42.83265" lon="0.32141">
        <ele>898.489258</ele>
        <time>2012-12-31T10:05:20Z</time>
      </trkpt>
      <trkpt lat="42.8327" lon="0.32142">
        <ele>901.373291</ele>
        <time>2012-12-31T10:05:31Z</time>
      </trkpt>
      <trkpt lat="42.83278" lon="0.32145">
        <ele>903.295898</ele>
        <time>2012-12-31T10:05:46Z</time>
      </trkpt>
      <trkpt lat="42.83285" lon="0.32147">
        <ele>906.6604</ele>
        <time>2012-12-31T10:05:57Z</time>
      </trkpt>
      <trkpt lat="42.83293" lon="0.32148">
        <ele>907.621826</ele>
        <time>2012-12-31T10:06:10Z</time>
      </trkpt>
      <trkpt lat="42.83297" lon="0.32145">
        <ele>909.544678</ele>
        <time>2012-12-31T10:06:22Z</time>
      </trkpt>
      <trkpt lat="42.83295" lon="0.32138">
        <ele>909.544678</ele>
        <time>2012-12-31T10:06:36Z</time>
      </trkpt>
      <trkpt lat="42.83293" lon="0.32135">
        <ele>911.467285</ele>
        <time>2012-12-31T10:07:54Z</time>
      </trkpt>
      <trkpt lat="42.83287" lon="0.32126">
        <ele>915.3125</ele>
        <time>2012-12-31T10:08:06Z</time>
      </trkpt>
      <trkpt lat="42.83276" lon="0.32113">
        <ele>917.235107</ele>
        <time>2012-12-31T10:08:24Z</time>
      </trkpt>
      <trkpt lat="42.83272" lon="0.32107">
        <ele>917.715576</ele>
        <time>2012-12-31T10:08:38Z</time>
      </trkpt>
      <trkpt lat="42.83263" lon="0.32094">
        <ele>920.118896</ele>
        <time>2012-12-31T10:08:57Z</time>
      </trkpt>
      <trkpt lat="42.83258" lon="0.32087">
        <ele>923.00293</ele>
        <time>2012-12-31T10:09:09Z</time>
      </trkpt>
      <trkpt lat="42.8325" lon="0.32079">
        <ele>925.40625</ele>
        <time>2012-12-31T10:09:23Z</time>
      </trkpt>
      <trkpt lat="42.83248" lon="0.32069">
        <ele>928.770996</ele>
        <time>2012-12-31T10:09:37Z</time>
      </trkpt>
      <trkpt lat="42.83244" lon="0.32056">
        <ele>932.616211</ele>
        <time>2012-12-31T10:09:56Z</time>
      </trkpt>
      <trkpt lat="42.83244" lon="0.32055">
        <ele>932.616211</ele>
        <time>2012-12-31T10:09:57Z</time>
      </trkpt>
      <trkpt lat="42.83241" lon="0.32043">
        <ele>935.980713</ele>
        <time>2012-12-31T10:10:13Z</time>
      </trkpt>
      <trkpt lat="42.83237" lon="0.32033">
        <ele>939.345215</ele>
        <time>2012-12-31T10:10:26Z</time>
      </trkpt>
      <trkpt lat="42.83228" lon="0.32021">
        <ele>941.268066</ele>
        <time>2012-12-31T10:10:42Z</time>
      </trkpt>
      <trkpt lat="42.83224" lon="0.32015">
        <ele>944.632568</ele>
        <time>2012-12-31T10:10:55Z</time>
      </trkpt>
      <trkpt lat="42.83221" lon="0.32006">
        <ele>947.997314</ele>
        <time>2012-12-31T10:11:11Z</time>
      </trkpt>
      <trkpt lat="42.83222" lon="0.31996">
        <ele>950.881104</ele>
        <time>2012-12-31T10:11:27Z</time>
      </trkpt>
      <trkpt lat="42.8323" lon="0.31997">
        <ele>953.765137</ele>
        <time>2012-12-31T10:11:44Z</time>
      </trkpt>
      <trkpt lat="42.83234" lon="0.31999">
        <ele>955.687744</ele>
        <time>2012-12-31T10:11:53Z</time>
      </trkpt>
      <trkpt lat="42.83241" lon="0.32001">
        <ele>959.05249</ele>
        <time>2012-12-31T10:12:07Z</time>
      </trkpt>
      <trkpt lat="42.83253" lon="0.32006">
        <ele>961.936523</ele>
        <time>2012-12-31T10:12:29Z</time>
      </trkpt>
      <trkpt lat="42.83265" lon="0.32013">
        <ele>963.378418</ele>
        <time>2012-12-31T10:12:49Z</time>
      </trkpt>
      <trkpt lat="42.83274" lon="0.32016">
        <ele>965.781738</ele>
        <time>2012-12-31T10:13:05Z</time>
      </trkpt>
      <trkpt lat="42.83281" lon="0.32018">
        <ele>967.704102</ele>
        <time>2012-12-31T10:13:17Z</time>
      </trkpt>
      <trkpt lat="42.8329" lon="0.32025">
        <ele>970.588135</ele>
        <time>2012-12-31T10:13:33Z</time>
      </trkpt>
      <trkpt lat="42.833" lon="0.3203">
        <ele>973.952881</ele>
        <time>2012-12-31T10:13:52Z</time>
      </trkpt>
      <trkpt lat="42.83307" lon="0.32037">
        <ele>976.356201</ele>
        <time>2012-12-31T10:14:10Z</time>
      </trkpt>
      <trkpt lat="42.83314" lon="0.32041">
        <ele>979.720703</ele>
        <time>2012-12-31T10:14:22Z</time>
      </trkpt>
      <trkpt lat="42.83324" lon="0.32045">
        <ele>981.162842</ele>
        <time>2012-12-31T10:14:40Z</time>
      </trkpt>
      <trkpt lat="42.83335" lon="0.32049">
        <ele>984.527344</ele>
        <time>2012-12-31T10:14:59Z</time>
      </trkpt>
      <trkpt lat="42.8334" lon="0.3205">
        <ele>985.969238</ele>
        <time>2012-12-31T10:15:16Z</time>
      </trkpt>
      <trkpt lat="42.83348" lon="0.32044">
        <ele>987.891846</ele>
        <time>2012-12-31T10:15:38Z</time>
      </trkpt>
      <trkpt lat="42.83351" lon="0.32042">
        <ele>989.814697</ele>
        <time>2012-12-31T10:15:44Z</time>
      </trkpt>
      <trkpt lat="42.83354" lon="0.32037">
        <ele>993.179199</ele>
        <time>2012-12-31T10:15:56Z</time>
      </trkpt>
      <trkpt lat="42.8335" lon="0.32032">
        <ele>994.621094</ele>
        <time>2012-12-31T10:16:13Z</time>
      </trkpt>
      <trkpt lat="42.83346" lon="0.32026">
        <ele>997.98584</ele>
        <time>2012-12-31T10:16:29Z</time>
      </trkpt>
      <trkpt lat="42.83343" lon="0.3202">
        <ele>1001.350342</ele>
        <time>2012-12-31T10:16:42Z</time>
      </trkpt>
      <trkpt lat="42.8334" lon="0.32012">
        <ele>1002.792236</ele>
        <time>2012-12-31T10:16:58Z</time>
      </trkpt>
      <trkpt lat="42.83336" lon="0.32004">
        <ele>1006.156982</ele>
        <time>2012-12-31T10:17:14Z</time>
      </trkpt>
      <trkpt lat="42.83334" lon="0.31994">
        <ele>1009.041016</ele>
        <time>2012-12-31T10:17:30Z</time>
      </trkpt>
      <trkpt lat="42.83331" lon="0.3199">
        <ele>1010.963623</ele>
        <time>2012-12-31T10:17:38Z</time>
      </trkpt>
      <trkpt lat="42.8333" lon="0.31983">
        <ele>1013.366943</ele>
        <time>2012-12-31T10:17:54Z</time>
      </trkpt>
      <trkpt lat="42.83335" lon="0.31985">
        <ele>1016.250732</ele>
        <time>2012-12-31T10:18:13Z</time>
      </trkpt>
      <trkpt lat="42.83341" lon="0.31985">
        <ele>1019.134766</ele>
        <time>2012-12-31T10:18:28Z</time>
      </trkpt>
      <trkpt lat="42.83347" lon="0.31987">
        <ele>1021.538086</ele>
        <time>2012-12-31T10:18:46Z</time>
      </trkpt>
      <trkpt lat="42.8335" lon="0.31989">
        <ele>1023.941406</ele>
        <time>2012-12-31T10:18:56Z</time>
      </trkpt>
      <trkpt lat="42.8336" lon="0.31996">
        <ele>1026.825439</ele>
        <time>2012-12-31T10:19:16Z</time>
      </trkpt>
      <trkpt lat="42.83358" lon="0.31992">
        <ele>1027.786621</ele>
        <time>2012-12-31T10:19:31Z</time>
      </trkpt>
      <trkpt lat="42.83359" lon="0.31991">
        <ele>1028.748047</ele>
        <time>2012-12-31T10:19:43Z</time>
      </trkpt>
      <trkpt lat="42.83357" lon="0.31993">
        <ele>1029.228516</ele>
        <time>2012-12-31T10:19:54Z</time>
      </trkpt>
      <trkpt lat="42.83358" lon="0.31991">
        <ele>1029.228516</ele>
        <time>2012-12-31T10:20:10Z</time>
      </trkpt>
      <trkpt lat="42.83359" lon="0.31992">
        <ele>1028.748047</ele>
        <time>2012-12-31T10:20:29Z</time>
      </trkpt>
      <trkpt lat="42.83358" lon="0.3199">
        <ele>1027.786621</ele>
        <time>2012-12-31T10:20:45Z</time>
      </trkpt>
      <trkpt lat="42.83361" lon="0.3199">
        <ele>1030.189941</ele>
        <time>2012-12-31T10:26:43Z</time>
      </trkpt>
      <trkpt lat="42.83362" lon="0.3199">
        <ele>1029.709229</ele>
        <time>2012-12-31T10:26:44Z</time>
      </trkpt>
      <trkpt lat="42.8337" lon="0.31987">
        <ele>1029.228516</ele>
        <time>2012-12-31T10:27:05Z</time>
      </trkpt>
      <trkpt lat="42.83371" lon="0.31987">
        <ele>1029.709229</ele>
        <time>2012-12-31T10:27:15Z</time>
      </trkpt>
      <trkpt lat="42.83376" lon="0.31981">
        <ele>1032.112549</ele>
        <time>2012-12-31T10:27:30Z</time>
      </trkpt>
      <trkpt lat="42.83385" lon="0.31981">
        <ele>1033.554443</ele>
        <time>2012-12-31T10:27:47Z</time>
      </trkpt>
      <trkpt lat="42.83395" lon="0.31982">
        <ele>1035.477051</ele>
        <time>2012-12-31T10:28:03Z</time>
      </trkpt>
      <trkpt lat="42.83404" lon="0.31986">
        <ele>1037.399902</ele>
        <time>2012-12-31T10:28:20Z</time>
      </trkpt>
      <trkpt lat="42.83412" lon="0.31992">
        <ele>1038.842041</ele>
        <time>2012-12-31T10:28:37Z</time>
      </trkpt>
      <trkpt lat="42.8342" lon="0.32">
        <ele>1040.764404</ele>
        <time>2012-12-31T10:28:53Z</time>
      </trkpt>
      <trkpt lat="42.83428" lon="0.32007">
        <ele>1044.12915</ele>
        <time>2012-12-31T10:29:11Z</time>
      </trkpt>
      <trkpt lat="42.83435" lon="0.32013">
        <ele>1045.571045</ele>
        <time>2012-12-31T10:29:28Z</time>
      </trkpt>
      <trkpt lat="42.83439" lon="0.32009">
        <ele>1048.454834</ele>
        <time>2012-12-31T10:29:39Z</time>
      </trkpt>
      <trkpt lat="42.8344" lon="0.32004">
        <ele>1049.896973</ele>
        <time>2012-12-31T10:29:58Z</time>
      </trkpt>
      <trkpt lat="42.83438" lon="0.31995">
        <ele>1052.781006</ele>
        <time>2012-12-31T10:30:16Z</time>
      </trkpt>
      <trkpt lat="42.83435" lon="0.31987">
        <ele>1055.665039</ele>
        <time>2012-12-31T10:30:30Z</time>
      </trkpt>
      <trkpt lat="42.83432" lon="0.31984">
        <ele>1056.626221</ele>
        <time>2012-12-31T10:30:34Z</time>
      </trkpt>
      <trkpt lat="42.83428" lon="0.31974">
        <ele>1058.548828</ele>
        <time>2012-12-31T10:30:48Z</time>
      </trkpt>
      <trkpt lat="42.83433" lon="0.31974">
        <ele>1061.432861</ele>
        <time>2012-12-31T10:31:05Z</time>
      </trkpt>
      <trkpt lat="42.8344" lon="0.31973">
        <ele>1064.31665</ele>
        <time>2012-12-31T10:31:21Z</time>
      </trkpt>
      <trkpt lat="42.83452" lon="0.31976">
        <ele>1067.200684</ele>
        <time>2012-12-31T10:31:39Z</time>
      </trkpt>
      <trkpt lat="42.83462" lon="0.31972">
        <ele>1069.123535</ele>
        <time>2012-12-31T10:31:56Z</time>
      </trkpt>
      <trkpt lat="42.83471" lon="0.31973">
        <ele>1070.56543</ele>
        <time>2012-12-31T10:32:11Z</time>
      </trkpt>
      <trkpt lat="42.8348" lon="0.31976">
        <ele>1072.007324</ele>
        <time>2012-12-31T10:32:25Z</time>
      </trkpt>
      <trkpt lat="42.83488" lon="0.31976">
        <ele>1073.449463</ele>
        <time>2012-12-31T10:32:38Z</time>
      </trkpt>
      <trkpt lat="42.835" lon="0.31977">
        <ele>1074.891357</ele>
        <time>2012-12-31T10:32:52Z</time>
      </trkpt>
      <trkpt lat="42.83508" lon="0.31982">
        <ele>1075.852539</ele>
        <time>2012-12-31T10:33:04Z</time>
      </trkpt>
      <trkpt lat="42.83513" lon="0.31983">
        <ele>1076.333252</ele>
        <time>2012-12-31T10:33:19Z</time>
      </trkpt>
      <trkpt lat="42.83513" lon="0.31985">
        <ele>1076.333252</ele>
        <time>2012-12-31T10:33:38Z</time>
      </trkpt>
      <trkpt lat="42.83514" lon="0.31985">
        <ele>1075.852539</ele>
        <time>2012-12-31T10:34:17Z</time>
      </trkpt>
      <trkpt lat="42.83514" lon="0.3198">
        <ele>1076.333252</ele>
        <time>2012-12-31T10:35:01Z</time>
      </trkpt>
      <trkpt lat="42.83514" lon="0.3198">
        <ele>1077.294678</ele>
        <time>2012-12-31T10:35:03Z</time>
      </trkpt>
      <trkpt lat="42.83517" lon="0.31983">
        <ele>1076.813965</ele>
        <time>2012-12-31T10:35:31Z</time>
      </trkpt>
      <trkpt lat="42.83523" lon="0.31981">
        <ele>1079.217041</ele>
        <time>2012-12-31T10:36:03Z</time>
      </trkpt>
      <trkpt lat="42.83528" lon="0.31979">
        <ele>1082.101074</ele>
        <time>2012-12-31T10:36:21Z</time>
      </trkpt>
      <trkpt lat="42.83526" lon="0.31971">
        <ele>1085.46582</ele>
        <time>2012-12-31T10:36:36Z</time>
      </trkpt>
      <trkpt lat="42.83531" lon="0.31971">
        <ele>1086.907715</ele>
        <time>2012-12-31T10:36:54Z</time>
      </trkpt>
      <trkpt lat="42.83536" lon="0.3197">
        <ele>1090.272461</ele>
        <time>2012-12-31T10:37:05Z</time>
      </trkpt>
      <trkpt lat="42.83545" lon="0.31969">
        <ele>1092.675781</ele>
        <time>2012-12-31T10:37:22Z</time>
      </trkpt>
      <trkpt lat="42.83551" lon="0.31974">
        <ele>1095.55957</ele>
        <time>2012-12-31T10:37:38Z</time>
      </trkpt>
      <trkpt lat="42.83556" lon="0.31981">
        <ele>1097.001465</ele>
        <time>2012-12-31T10:37:53Z</time>
      </trkpt>
      <trkpt lat="42.83562" lon="0.31985">
        <ele>1099.885498</ele>
        <time>2012-12-31T10:38:15Z</time>
      </trkpt>
      <trkpt lat="42.83567" lon="0.31997">
        <ele>1102.288818</ele>
        <time>2012-12-31T10:38:31Z</time>
      </trkpt>
      <trkpt lat="42.83571" lon="0.32004">
        <ele>1100.846924</ele>
        <time>2012-12-31T10:38:45Z</time>
      </trkpt>
      <trkpt lat="42.83578" lon="0.32018">
        <ele>1103.730957</ele>
        <time>2012-12-31T10:39:00Z</time>
      </trkpt>
      <trkpt lat="42.83577" lon="0.32014">
        <ele>1102.288818</ele>
        <time>2012-12-31T10:39:05Z</time>
      </trkpt>
      <trkpt lat="42.83571" lon="0.32003">
        <ele>1100.846924</ele>
        <time>2012-12-31T10:39:15Z</time>
      </trkpt>
      <trkpt lat="42.83566" lon="0.31991">
        <ele>1101.80835</ele>
        <time>2012-12-31T10:39:29Z</time>
      </trkpt>
      <trkpt lat="42.83565" lon="0.31986">
        <ele>1098.443359</ele>
        <time>2012-12-31T10:39:40Z</time>
      </trkpt>
      <trkpt lat="42.83567" lon="0.31984">
        <ele>1099.885498</ele>
        <time>2012-12-31T10:39:43Z</time>
      </trkpt>
      <trkpt lat="42.8357" lon="0.31977">
        <ele>1101.80835</ele>
        <time>2012-12-31T10:39:56Z</time>
      </trkpt>
      <trkpt lat="42.83571" lon="0.31966">
        <ele>1104.692139</ele>
        <time>2012-12-31T10:40:13Z</time>
      </trkpt>
      <trkpt lat="42.83573" lon="0.31962">
        <ele>1107.576172</ele>
        <time>2012-12-31T10:40:29Z</time>
      </trkpt>
      <trkpt lat="42.83575" lon="0.31967">
        <ele>1109.498779</ele>
        <time>2012-12-31T10:40:43Z</time>
      </trkpt>
      <trkpt lat="42.83577" lon="0.31973">
        <ele>1111.421387</ele>
        <time>2012-12-31T10:40:55Z</time>
      </trkpt>
      <trkpt lat="42.83582" lon="0.31983">
        <ele>1114.305176</ele>
        <time>2012-12-31T10:41:14Z</time>
      </trkpt>
      <trkpt lat="42.83587" lon="0.31976">
        <ele>1116.70874</ele>
        <time>2012-12-31T10:41:32Z</time>
      </trkpt>
      <trkpt lat="42.8359" lon="0.31965">
        <ele>1119.112061</ele>
        <time>2012-12-31T10:41:51Z</time>
      </trkpt>
      <trkpt lat="42.83591" lon="0.31963">
        <ele>1121.515137</ele>
        <time>2012-12-31T10:41:57Z</time>
      </trkpt>
      <trkpt lat="42.83596" lon="0.3196">
        <ele>1123.918457</ele>
        <time>2012-12-31T10:42:13Z</time>
      </trkpt>
      <trkpt lat="42.83598" lon="0.3195">
        <ele>1125.360352</ele>
        <time>2012-12-31T10:42:32Z</time>
      </trkpt>
      <trkpt lat="42.83597" lon="0.31941">
        <ele>1128.725098</ele>
        <time>2012-12-31T10:42:47Z</time>
      </trkpt>
      <trkpt lat="42.836" lon="0.31936">
        <ele>1130.166992</ele>
        <time>2012-12-31T10:43:04Z</time>
      </trkpt>
      <trkpt lat="42.83602" lon="0.31925">
        <ele>1131.608887</ele>
        <time>2012-12-31T10:43:22Z</time>
      </trkpt>
      <trkpt lat="42.83603" lon="0.31911">
        <ele>1133.051025</ele>
        <time>2012-12-31T10:43:43Z</time>
      </trkpt>
      <trkpt lat="42.83597" lon="0.319">
        <ele>1134.493164</ele>
        <time>2012-12-31T10:44:03Z</time>
      </trkpt>
      <trkpt lat="42.83592" lon="0.31892">
        <ele>1135.935059</ele>
        <time>2012-12-31T10:44:18Z</time>
      </trkpt>
      <trkpt lat="42.83586" lon="0.31885">
        <ele>1137.857666</ele>
        <time>2012-12-31T10:44:37Z</time>
      </trkpt>
      <trkpt lat="42.8358" lon="0.31884">
        <ele>1141.222168</ele>
        <time>2012-12-31T10:44:54Z</time>
      </trkpt>
      <trkpt lat="42.83581" lon="0.31877">
        <ele>1144.106201</ele>
        <time>2012-12-31T10:45:09Z</time>
      </trkpt>
      <trkpt lat="42.83585" lon="0.31872">
        <ele>1144.58667</ele>
        <time>2012-12-31T10:45:22Z</time>
      </trkpt>
      <trkpt lat="42.8358" lon="0.31864">
        <ele>1146.98999</ele>
        <time>2012-12-31T10:45:41Z</time>
      </trkpt>
      <trkpt lat="42.83577" lon="0.31864">
        <ele>1148.912842</ele>
        <time>2012-12-31T10:46:00Z</time>
      </trkpt>
      <trkpt lat="42.83572" lon="0.31861">
        <ele>1152.277344</ele>
        <time>2012-12-31T10:46:17Z</time>
      </trkpt>
      <trkpt lat="42.83571" lon="0.31856">
        <ele>1154.680664</ele>
        <time>2012-12-31T10:46:33Z</time>
      </trkpt>
      <trkpt lat="42.83569" lon="0.31852">
        <ele>1157.083984</ele>
        <time>2012-12-31T10:46:49Z</time>
      </trkpt>
      <trkpt lat="42.83561" lon="0.31851">
        <ele>1158.525879</ele>
        <time>2012-12-31T10:47:06Z</time>
      </trkpt>
      <trkpt lat="42.83554" lon="0.31849">
        <ele>1159.967773</ele>
        <time>2012-12-31T10:47:23Z</time>
      </trkpt>
      <trkpt lat="42.83546" lon="0.31845">
        <ele>1162.371094</ele>
        <time>2012-12-31T10:47:41Z</time>
      </trkpt>
      <trkpt lat="42.83539" lon="0.31842">
        <ele>1164.293945</ele>
        <time>2012-12-31T10:47:59Z</time>
      </trkpt>
      <trkpt lat="42.83531" lon="0.31838">
        <ele>1166.216553</ele>
        <time>2012-12-31T10:48:16Z</time>
      </trkpt>
      <trkpt lat="42.8352" lon="0.31839">
        <ele>1168.619873</ele>
        <time>2012-12-31T10:48:37Z</time>
      </trkpt>
      <trkpt lat="42.83512" lon="0.31836">
        <ele>1170.54248</ele>
        <time>2012-12-31T10:48:54Z</time>
      </trkpt>
      <trkpt lat="42.83505" lon="0.31831">
        <ele>1173.906982</ele>
        <time>2012-12-31T10:49:10Z</time>
      </trkpt>
      <trkpt lat="42.83497" lon="0.31827">
        <ele>1176.310303</ele>
        <time>2012-12-31T10:49:28Z</time>
      </trkpt>
      <trkpt lat="42.83488" lon="0.31825">
        <ele>1179.674805</ele>
        <time>2012-12-31T10:49:46Z</time>
      </trkpt>
      <trkpt lat="42.83486" lon="0.31825">
        <ele>1178.713623</ele>
        <time>2012-12-31T10:50:39Z</time>
      </trkpt>
      <trkpt lat="42.83488" lon="0.31824">
        <ele>1179.674805</ele>
        <time>2012-12-31T10:52:55Z</time>
      </trkpt>
      <trkpt lat="42.83487" lon="0.31824">
        <ele>1175.82959</ele>
        <time>2012-12-31T10:53:14Z</time>
      </trkpt>
      <trkpt lat="42.83487" lon="0.31824">
        <ele>1179.194092</ele>
        <time>2012-12-31T10:53:15Z</time>
      </trkpt>
      <trkpt lat="42.83487" lon="0.31824">
        <ele>1178.713623</ele>
        <time>2012-12-31T10:53:20Z</time>
      </trkpt>
      <trkpt lat="42.83487" lon="0.31824">
        <ele>1174.387695</ele>
        <time>2012-12-31T10:53:25Z</time>
      </trkpt>
      <trkpt lat="42.83487" lon="0.31824">
        <ele>1178.23291</ele>
        <time>2012-12-31T10:53:26Z</time>
      </trkpt>
      <trkpt lat="42.83487" lon="0.31823">
        <ele>1179.674805</ele>
        <time>2012-12-31T10:53:38Z</time>
      </trkpt>
      <trkpt lat="42.83487" lon="0.31823">
        <ele>1176.310303</ele>
        <time>2012-12-31T10:53:41Z</time>
      </trkpt>
      <trkpt lat="42.83487" lon="0.31823">
        <ele>1181.597656</ele>
        <time>2012-12-31T10:53:42Z</time>
      </trkpt>
      <trkpt lat="42.83487" lon="0.31823">
        <ele>1178.713623</ele>
        <time>2012-12-31T10:53:45Z</time>
      </trkpt>
      <trkpt lat="42.83489" lon="0.31819">
        <ele>1180.636475</ele>
        <time>2012-12-31T10:54:07Z</time>
      </trkpt>
      <trkpt lat="42.83494" lon="0.31813">
        <ele>1182.559082</ele>
        <time>2012-12-31T10:54:22Z</time>
      </trkpt>
      <trkpt lat="42.83497" lon="0.3181">
        <ele>1184.962402</ele>
        <time>2012-12-31T10:54:31Z</time>
      </trkpt>
      <trkpt lat="42.83506" lon="0.31805">
        <ele>1187.365479</ele>
        <time>2012-12-31T10:54:52Z</time>
      </trkpt>
      <trkpt lat="42.83513" lon="0.31798">
        <ele>1190.249512</ele>
        <time>2012-12-31T10:55:11Z</time>
      </trkpt>
      <trkpt lat="42.8352" lon="0.31794">
        <ele>1191.691406</ele>
        <time>2012-12-31T10:55:27Z</time>
      </trkpt>
      <trkpt lat="42.83524" lon="0.31791">
        <ele>1195.055908</ele>
        <time>2012-12-31T10:55:38Z</time>
      </trkpt>
      <trkpt lat="42.83531" lon="0.3179">
        <ele>1196.97876</ele>
        <time>2012-12-31T10:55:59Z</time>
      </trkpt>
      <trkpt lat="42.8354" lon="0.31784">
        <ele>1198.901367</ele>
        <time>2012-12-31T10:56:19Z</time>
      </trkpt>
      <trkpt lat="42.83549" lon="0.31781">
        <ele>1200.823975</ele>
        <time>2012-12-31T10:56:37Z</time>
      </trkpt>
      <trkpt lat="42.83554" lon="0.31776">
        <ele>1203.708008</ele>
        <time>2012-12-31T10:56:55Z</time>
      </trkpt>
      <trkpt lat="42.83553" lon="0.3177">
        <ele>1206.111084</ele>
        <time>2012-12-31T10:57:13Z</time>
      </trkpt>
      <trkpt lat="42.83549" lon="0.31766">
        <ele>1208.033936</ele>
        <time>2012-12-31T10:57:30Z</time>
      </trkpt>
      <trkpt lat="42.8355" lon="0.3176">
        <ele>1211.398438</ele>
        <time>2012-12-31T10:57:48Z</time>
      </trkpt>
      <trkpt lat="42.83559" lon="0.3176">
        <ele>1212.840576</ele>
        <time>2012-12-31T10:58:09Z</time>
      </trkpt>
      <trkpt lat="42.83562" lon="0.31754">
        <ele>1215.724609</ele>
        <time>2012-12-31T10:58:22Z</time>
      </trkpt>
      <trkpt lat="42.83568" lon="0.31752">
        <ele>1218.127686</ele>
        <time>2012-12-31T10:58:39Z</time>
      </trkpt>
      <trkpt lat="42.83577" lon="0.3175">
        <ele>1220.531006</ele>
        <time>2012-12-31T10:59:00Z</time>
      </trkpt>
      <trkpt lat="42.83583" lon="0.31746">
        <ele>1223.415039</ele>
        <time>2012-12-31T10:59:18Z</time>
      </trkpt>
      <trkpt lat="42.8359" lon="0.31741">
        <ele>1225.818115</ele>
        <time>2012-12-31T10:59:34Z</time>
      </trkpt>
      <trkpt lat="42.83595" lon="0.31735">
        <ele>1227.740723</ele>
        <time>2012-12-31T10:59:51Z</time>
      </trkpt>
      <trkpt lat="42.836" lon="0.31739">
        <ele>1230.144287</ele>
        <time>2012-12-31T11:00:09Z</time>
      </trkpt>
      <trkpt lat="42.83609" lon="0.31728">
        <ele>1233.028076</ele>
        <time>2012-12-31T11:00:27Z</time>
      </trkpt>
      <trkpt lat="42.83613" lon="0.31723">
        <ele>1234.470215</ele>
        <time>2012-12-31T11:00:43Z</time>
      </trkpt>
      <trkpt lat="42.8362" lon="0.31714">
        <ele>1237.834717</ele>
        <time>2012-12-31T11:01:01Z</time>
      </trkpt>
      <trkpt lat="42.83625" lon="0.31711">
        <ele>1240.238037</ele>
        <time>2012-12-31T11:01:19Z</time>
      </trkpt>
      <trkpt lat="42.83634" lon="0.31708">
        <ele>1243.602539</ele>
        <time>2012-12-31T11:01:42Z</time>
      </trkpt>
      <trkpt lat="42.83643" lon="0.31701">
        <ele>1245.525391</ele>
        <time>2012-12-31T11:02:02Z</time>
      </trkpt>
      <trkpt lat="42.83647" lon="0.31697">
        <ele>1248.889893</ele>
        <time>2012-12-31T11:02:21Z</time>
      </trkpt>
      <trkpt lat="42.83653" lon="0.31692">
        <ele>1251.293213</ele>
        <time>2012-12-31T11:02:39Z</time>
      </trkpt>
      <trkpt lat="42.83657" lon="0.31683">
        <ele>1252.735107</ele>
        <time>2012-12-31T11:03:02Z</time>
      </trkpt>
      <trkpt lat="42.83663" lon="0.31677">
        <ele>1256.580322</ele>
        <time>2012-12-31T11:03:18Z</time>
      </trkpt>
      <trkpt lat="42.83673" lon="0.31674">
        <ele>1260.425781</ele>
        <time>2012-12-31T11:03:40Z</time>
      </trkpt>
      <trkpt lat="42.83672" lon="0.31674">
        <ele>1258.50293</ele>
        <time>2012-12-31T11:03:43Z</time>
      </trkpt>
      <trkpt lat="42.83666" lon="0.31679">
        <ele>1256.580322</ele>
        <time>2012-12-31T11:03:59Z</time>
      </trkpt>
      <trkpt lat="42.83659" lon="0.31684">
        <ele>1253.696533</ele>
        <time>2012-12-31T11:04:16Z</time>
      </trkpt>
      <trkpt lat="42.83657" lon="0.31685">
        <ele>1252.254395</ele>
        <time>2012-12-31T11:04:22Z</time>
      </trkpt>
      <trkpt lat="42.83652" lon="0.31684">
        <ele>1253.696533</ele>
        <time>2012-12-31T11:04:40Z</time>
      </trkpt>
      <trkpt lat="42.83651" lon="0.31686">
        <ele>1255.138428</ele>
        <time>2012-12-31T11:04:54Z</time>
      </trkpt>
      <trkpt lat="42.83657" lon="0.31685">
        <ele>1252.735107</ele>
        <time>2012-12-31T11:05:11Z</time>
      </trkpt>
      <trkpt lat="42.83664" lon="0.31682">
        <ele>1256.099609</ele>
        <time>2012-12-31T11:05:29Z</time>
      </trkpt>
      <trkpt lat="42.8367" lon="0.31678">
        <ele>1259.464355</ele>
        <time>2012-12-31T11:05:49Z</time>
      </trkpt>
      <trkpt lat="42.83675" lon="0.3167">
        <ele>1262.829102</ele>
        <time>2012-12-31T11:06:03Z</time>
      </trkpt>
      <trkpt lat="42.83686" lon="0.3166">
        <ele>1265.232422</ele>
        <time>2012-12-31T11:06:22Z</time>
      </trkpt>
      <trkpt lat="42.83693" lon="0.31656">
        <ele>1267.155029</ele>
        <time>2012-12-31T11:06:35Z</time>
      </trkpt>
      <trkpt lat="42.83701" lon="0.31653">
        <ele>1268.596924</ele>
        <time>2012-12-31T11:06:51Z</time>
      </trkpt>
      <trkpt lat="42.83706" lon="0.31652">
        <ele>1270.038818</ele>
        <time>2012-12-31T11:07:09Z</time>
      </trkpt>
      <trkpt lat="42.83711" lon="0.31651">
        <ele>1259.944824</ele>
        <time>2012-12-31T11:07:21Z</time>
      </trkpt>
      <trkpt lat="42.83711" lon="0.31651">
        <ele>1261.387207</ele>
        <time>2012-12-31T11:07:22Z</time>
      </trkpt>
      <trkpt lat="42.83712" lon="0.31652">
        <ele>1268.116211</ele>
        <time>2012-12-31T11:07:23Z</time>
      </trkpt>
      <trkpt lat="42.83712" lon="0.31652">
        <ele>1273.403564</ele>
        <time>2012-12-31T11:07:24Z</time>
      </trkpt>
      <trkpt lat="42.83713" lon="0.31652">
        <ele>1269.55835</ele>
        <time>2012-12-31T11:07:25Z</time>
      </trkpt>
      <trkpt lat="42.83716" lon="0.31651">
        <ele>1270.038818</ele>
        <time>2012-12-31T11:07:41Z</time>
      </trkpt>
      <trkpt lat="42.83719" lon="0.31647">
        <ele>1272.442139</ele>
        <time>2012-12-31T11:07:49Z</time>
      </trkpt>
      <trkpt lat="42.83724" lon="0.31652">
        <ele>1276.287598</ele>
        <time>2012-12-31T11:08:07Z</time>
      </trkpt>
      <trkpt lat="42.83725" lon="0.31649">
        <ele>1275.325928</ele>
        <time>2012-12-31T11:08:27Z</time>
      </trkpt>
      <trkpt lat="42.83721" lon="0.31647">
        <ele>1274.364746</ele>
        <time>2012-12-31T11:08:48Z</time>
      </trkpt>
      <trkpt lat="42.83718" lon="0.31645">
        <ele>1273.884033</ele>
        <time>2012-12-31T11:09:02Z</time>
      </trkpt>
      <trkpt lat="42.83709" lon="0.31648">
        <ele>1271.000244</ele>
        <time>2012-12-31T11:09:18Z</time>
      </trkpt>
      <trkpt lat="42.83703" lon="0.3165">
        <ele>1269.55835</ele>
        <time>2012-12-31T11:09:33Z</time>
      </trkpt>
      <trkpt lat="42.83698" lon="0.31645">
        <ele>1272.922852</ele>
        <time>2012-12-31T11:09:43Z</time>
      </trkpt>
      <trkpt lat="42.83691" lon="0.3164">
        <ele>1274.364746</ele>
        <time>2012-12-31T11:09:57Z</time>
      </trkpt>
      <trkpt lat="42.83682" lon="0.31638">
        <ele>1278.210205</ele>
        <time>2012-12-31T11:10:15Z</time>
      </trkpt>
      <trkpt lat="42.83675" lon="0.31637">
        <ele>1281.574707</ele>
        <time>2012-12-31T11:10:26Z</time>
      </trkpt>
      <trkpt lat="42.83667" lon="0.31632">
        <ele>1283.497314</ele>
        <time>2012-12-31T11:10:40Z</time>
      </trkpt>
      <trkpt lat="42.83658" lon="0.3163">
        <ele>1285.900635</ele>
        <time>2012-12-31T11:10:55Z</time>
      </trkpt>
      <trkpt lat="42.83651" lon="0.31629">
        <ele>1286.381348</ele>
        <time>2012-12-31T11:11:06Z</time>
      </trkpt>
      <trkpt lat="42.8364" lon="0.31624">
        <ele>1289.265137</ele>
        <time>2012-12-31T11:11:25Z</time>
      </trkpt>
      <trkpt lat="42.83636" lon="0.3162">
        <ele>1291.668457</ele>
        <time>2012-12-31T11:11:40Z</time>
      </trkpt>
      <trkpt lat="42.83644" lon="0.31613">
        <ele>1295.033203</ele>
        <time>2012-12-31T11:11:57Z</time>
      </trkpt>
      <trkpt lat="42.83651" lon="0.31609">
        <ele>1296.955811</ele>
        <time>2012-12-31T11:12:14Z</time>
      </trkpt>
      <trkpt lat="42.83657" lon="0.31606">
        <ele>1299.839844</ele>
        <time>2012-12-31T11:12:32Z</time>
      </trkpt>
      <trkpt lat="42.83668" lon="0.31599">
        <ele>1303.204346</ele>
        <time>2012-12-31T11:12:58Z</time>
      </trkpt>
      <trkpt lat="42.83677" lon="0.31592">
        <ele>1305.126953</ele>
        <time>2012-12-31T11:13:16Z</time>
      </trkpt>
      <trkpt lat="42.83687" lon="0.31586">
        <ele>1308.491699</ele>
        <time>2012-12-31T11:13:41Z</time>
      </trkpt>
      <trkpt lat="42.83693" lon="0.31583">
        <ele>1309.933594</ele>
        <time>2012-12-31T11:13:58Z</time>
      </trkpt>
      <trkpt lat="42.83702" lon="0.31575">
        <ele>1312.817627</ele>
        <time>2012-12-31T11:14:20Z</time>
      </trkpt>
      <trkpt lat="42.83707" lon="0.31571">
        <ele>1314.740234</ele>
        <time>2012-12-31T11:14:33Z</time>
      </trkpt>
      <trkpt lat="42.8371" lon="0.3157">
        <ele>1316.182129</ele>
        <time>2012-12-31T11:14:49Z</time>
      </trkpt>
      <trkpt lat="42.83717" lon="0.31568">
        <ele>1319.066162</ele>
        <time>2012-12-31T11:15:08Z</time>
      </trkpt>
      <trkpt lat="42.83726" lon="0.31558">
        <ele>1321.949951</ele>
        <time>2012-12-31T11:15:36Z</time>
      </trkpt>
      <trkpt lat="42.83734" lon="0.31554">
        <ele>1324.834229</ele>
        <time>2012-12-31T11:15:52Z</time>
      </trkpt>
      <trkpt lat="42.83741" lon="0.31555">
        <ele>1328.679443</ele>
        <time>2012-12-31T11:16:08Z</time>
      </trkpt>
      <trkpt lat="42.83748" lon="0.31557">
        <ele>1331.082764</ele>
        <time>2012-12-31T11:16:24Z</time>
      </trkpt>
      <trkpt lat="42.83754" lon="0.31556">
        <ele>1333.005127</ele>
        <time>2012-12-31T11:16:39Z</time>
      </trkpt>
      <trkpt lat="42.83761" lon="0.3156">
        <ele>1334.927979</ele>
        <time>2012-12-31T11:16:53Z</time>
      </trkpt>
      <trkpt lat="42.83767" lon="0.31563">
        <ele>1335.408447</ele>
        <time>2012-12-31T11:17:06Z</time>
      </trkpt>
      <trkpt lat="42.83773" lon="0.31565">
        <ele>1338.29248</ele>
        <time>2012-12-31T11:17:22Z</time>
      </trkpt>
      <trkpt lat="42.8378" lon="0.31569">
        <ele>1340.215332</ele>
        <time>2012-12-31T11:17:41Z</time>
      </trkpt>
      <trkpt lat="42.83787" lon="0.31568">
        <ele>1343.579834</ele>
        <time>2012-12-31T11:17:54Z</time>
      </trkpt>
      <trkpt lat="42.83794" lon="0.31568">
        <ele>1344.541016</ele>
        <time>2012-12-31T11:18:08Z</time>
      </trkpt>
      <trkpt lat="42.83799" lon="0.3157">
        <ele>1347.905762</ele>
        <time>2012-12-31T11:18:18Z</time>
      </trkpt>
      <trkpt lat="42.83807" lon="0.31573">
        <ele>1349.828369</ele>
        <time>2012-12-31T11:18:33Z</time>
      </trkpt>
      <trkpt lat="42.83815" lon="0.31576">
        <ele>1352.231445</ele>
        <time>2012-12-31T11:18:50Z</time>
      </trkpt>
      <trkpt lat="42.83818" lon="0.31578">
        <ele>1353.673584</ele>
        <time>2012-12-31T11:19:09Z</time>
      </trkpt>
      <trkpt lat="42.83821" lon="0.31584">
        <ele>1354.154297</ele>
        <time>2012-12-31T11:19:20Z</time>
      </trkpt>
      <trkpt lat="42.83828" lon="0.3159">
        <ele>1357.519043</ele>
        <time>2012-12-31T11:19:34Z</time>
      </trkpt>
      <trkpt lat="42.83832" lon="0.31602">
        <ele>1358.960938</ele>
        <time>2012-12-31T11:19:48Z</time>
      </trkpt>
      <trkpt lat="42.83834" lon="0.31612">
        <ele>1360.402832</ele>
        <time>2012-12-31T11:20:01Z</time>
      </trkpt>
      <trkpt lat="42.83834" lon="0.31624">
        <ele>1363.767334</ele>
        <time>2012-12-31T11:20:14Z</time>
      </trkpt>
      <trkpt lat="42.83832" lon="0.31628">
        <ele>1364.248047</ele>
        <time>2012-12-31T11:20:30Z</time>
      </trkpt>
      <trkpt lat="42.83831" lon="0.31635">
        <ele>1364.72876</ele>
        <time>2012-12-31T11:20:50Z</time>
      </trkpt>
      <trkpt lat="42.83832" lon="0.31631">
        <ele>1365.209473</ele>
        <time>2012-12-31T11:21:03Z</time>
      </trkpt>
      <trkpt lat="42.83833" lon="0.31627">
        <ele>1364.248047</ele>
        <time>2012-12-31T11:21:07Z</time>
      </trkpt>
      <trkpt lat="42.83835" lon="0.31617">
        <ele>1363.286865</ele>
        <time>2012-12-31T11:21:17Z</time>
      </trkpt>
      <trkpt lat="42.83833" lon="0.31606">
        <ele>1359.922119</ele>
        <time>2012-12-31T11:21:30Z</time>
      </trkpt>
      <trkpt lat="42.8383" lon="0.31597">
        <ele>1357.519043</ele>
        <time>2012-12-31T11:21:39Z</time>
      </trkpt>
      <trkpt lat="42.83829" lon="0.31596">
        <ele>1357.03833</ele>
        <time>2012-12-31T11:21:40Z</time>
      </trkpt>
      <trkpt lat="42.83823" lon="0.31581">
        <ele>1355.596191</ele>
        <time>2012-12-31T11:21:56Z</time>
      </trkpt>
      <trkpt lat="42.83821" lon="0.31572">
        <ele>1355.115479</ele>
        <time>2012-12-31T11:22:07Z</time>
      </trkpt>
      <trkpt lat="42.8382" lon="0.31566">
        <ele>1356.076904</ele>
        <time>2012-12-31T11:22:15Z</time>
      </trkpt>
      <trkpt lat="42.83819" lon="0.31559">
        <ele>1357.999756</ele>
        <time>2012-12-31T11:22:27Z</time>
      </trkpt>
      <trkpt lat="42.83815" lon="0.31552">
        <ele>1354.634766</ele>
        <time>2012-12-31T11:22:36Z</time>
      </trkpt>
      <trkpt lat="42.83815" lon="0.31551">
        <ele>1360.883545</ele>
        <time>2012-12-31T11:22:37Z</time>
      </trkpt>
      <trkpt lat="42.83814" lon="0.31549">
        <ele>1359.922119</ele>
        <time>2012-12-31T11:22:40Z</time>
      </trkpt>
      <trkpt lat="42.8381" lon="0.31543">
        <ele>1361.364258</ele>
        <time>2012-12-31T11:22:49Z</time>
      </trkpt>
      <trkpt lat="42.83803" lon="0.31538">
        <ele>1363.286865</ele>
        <time>2012-12-31T11:23:03Z</time>
      </trkpt>
      <trkpt lat="42.83794" lon="0.31529">
        <ele>1364.248047</ele>
        <time>2012-12-31T11:23:19Z</time>
      </trkpt>
      <trkpt lat="42.8379" lon="0.3152">
        <ele>1363.286865</ele>
        <time>2012-12-31T11:23:33Z</time>
      </trkpt>
      <trkpt lat="42.83787" lon="0.31517">
        <ele>1364.72876</ele>
        <time>2012-12-31T11:23:37Z</time>
      </trkpt>
      <trkpt lat="42.83784" lon="0.31508">
        <ele>1367.612549</ele>
        <time>2012-12-31T11:23:49Z</time>
      </trkpt>
      <trkpt lat="42.83777" lon="0.31503">
        <ele>1367.612549</ele>
        <time>2012-12-31T11:24:02Z</time>
      </trkpt>
      <trkpt lat="42.83775" lon="0.31498">
        <ele>1370.015869</ele>
        <time>2012-12-31T11:24:10Z</time>
      </trkpt>
      <trkpt lat="42.83768" lon="0.3149">
        <ele>1370.496582</ele>
        <time>2012-12-31T11:24:25Z</time>
      </trkpt>
      <trkpt lat="42.83765" lon="0.31489">
        <ele>1369.5354</ele>
        <time>2012-12-31T11:24:31Z</time>
      </trkpt>
      <trkpt lat="42.83749" lon="0.31485">
        <ele>1369.054688</ele>
        <time>2012-12-31T11:24:46Z</time>
      </trkpt>
      <trkpt lat="42.83742" lon="0.31499">
        <ele>1370.496582</ele>
        <time>2012-12-31T11:25:14Z</time>
      </trkpt>
      <trkpt lat="42.83741" lon="0.31492">
        <ele>1370.977295</ele>
        <time>2012-12-31T11:26:05Z</time>
      </trkpt>
      <trkpt lat="42.83744" lon="0.31482">
        <ele>1370.496582</ele>
        <time>2012-12-31T11:27:24Z</time>
      </trkpt>
      <trkpt lat="42.83745" lon="0.3148">
        <ele>1370.496582</ele>
        <time>2012-12-31T11:28:01Z</time>
      </trkpt>
      <trkpt lat="42.83743" lon="0.31494">
        <ele>1370.496582</ele>
        <time>2012-12-31T11:28:39Z</time>
      </trkpt>
      <trkpt lat="42.83744" lon="0.31491">
        <ele>1372.419434</ele>
        <time>2012-12-31T11:29:07Z</time>
      </trkpt>
      <trkpt lat="42.83745" lon="0.3149">
        <ele>1370.977295</ele>
        <time>2012-12-31T11:29:10Z</time>
      </trkpt>
      <trkpt lat="42.83743" lon="0.31493">
        <ele>1370.496582</ele>
        <time>2012-12-31T11:29:53Z</time>
      </trkpt>
      <trkpt lat="42.83744" lon="0.31488">
        <ele>1373.380859</ele>
        <time>2012-12-31T11:30:10Z</time>
      </trkpt>
      <trkpt lat="42.83743" lon="0.31486">
        <ele>1371.938477</ele>
        <time>2012-12-31T11:31:13Z</time>
      </trkpt>
      <trkpt lat="42.83734" lon="0.31486">
        <ele>1371.938477</ele>
        <time>2012-12-31T11:31:34Z</time>
      </trkpt>
      <trkpt lat="42.83728" lon="0.31482">
        <ele>1372.419434</ele>
        <time>2012-12-31T11:31:48Z</time>
      </trkpt>
      <trkpt lat="42.83719" lon="0.31482">
        <ele>1372.419434</ele>
        <time>2012-12-31T11:32:02Z</time>
      </trkpt>
      <trkpt lat="42.83704" lon="0.31482">
        <ele>1370.977295</ele>
        <time>2012-12-31T11:32:18Z</time>
      </trkpt>
      <trkpt lat="42.83686" lon="0.31477">
        <ele>1370.977295</ele>
        <time>2012-12-31T11:32:36Z</time>
      </trkpt>
      <trkpt lat="42.8368" lon="0.31475">
        <ele>1372.419434</ele>
        <time>2012-12-31T11:32:43Z</time>
      </trkpt>
      <trkpt lat="42.83667" lon="0.31474">
        <ele>1372.419434</ele>
        <time>2012-12-31T11:32:55Z</time>
      </trkpt>
      <trkpt lat="42.83666" lon="0.31476">
        <ele>1373.380859</ele>
        <time>2012-12-31T11:33:12Z</time>
      </trkpt>
      <trkpt lat="42.83665" lon="0.31477">
        <ele>1372.900146</ele>
        <time>2012-12-31T11:33:16Z</time>
      </trkpt>
      <trkpt lat="42.83665" lon="0.31478">
        <ele>1372.419434</ele>
        <time>2012-12-31T11:33:27Z</time>
      </trkpt>
      <trkpt lat="42.8366" lon="0.3147">
        <ele>1372.419434</ele>
        <time>2012-12-31T11:33:50Z</time>
      </trkpt>
      <trkpt lat="42.83653" lon="0.31465">
        <ele>1372.900146</ele>
        <time>2012-12-31T11:34:01Z</time>
      </trkpt>
      <trkpt lat="42.83653" lon="0.31464">
        <ele>1372.900146</ele>
        <time>2012-12-31T11:34:02Z</time>
      </trkpt>
      <trkpt lat="42.83644" lon="0.31459">
        <ele>1373.380859</ele>
        <time>2012-12-31T11:34:12Z</time>
      </trkpt>
      <trkpt lat="42.83643" lon="0.31458">
        <ele>1373.380859</ele>
        <time>2012-12-31T11:34:13Z</time>
      </trkpt>
      <trkpt lat="42.83635" lon="0.31455">
        <ele>1373.861328</ele>
        <time>2012-12-31T11:34:22Z</time>
      </trkpt>
      <trkpt lat="42.83625" lon="0.31446">
        <ele>1375.783936</ele>
        <time>2012-12-31T11:34:35Z</time>
      </trkpt>
      <trkpt lat="42.83616" lon="0.31432">
        <ele>1376.264648</ele>
        <time>2012-12-31T11:34:50Z</time>
      </trkpt>
      <trkpt lat="42.83613" lon="0.31425">
        <ele>1376.264648</ele>
        <time>2012-12-31T11:34:57Z</time>
      </trkpt>
      <trkpt lat="42.83612" lon="0.31421">
        <ele>1376.264648</ele>
        <time>2012-12-31T11:35:00Z</time>
      </trkpt>
      <trkpt lat="42.83606" lon="0.31407">
        <ele>1377.706543</ele>
        <time>2012-12-31T11:35:14Z</time>
      </trkpt>
      <trkpt lat="42.83606" lon="0.31403">
        <ele>1377.706543</ele>
        <time>2012-12-31T11:35:17Z</time>
      </trkpt>
      <trkpt lat="42.83604" lon="0.31386">
        <ele>1380.109863</ele>
        <time>2012-12-31T11:35:30Z</time>
      </trkpt>
      <trkpt lat="42.83602" lon="0.31373">
        <ele>1381.551758</ele>
        <time>2012-12-31T11:35:41Z</time>
      </trkpt>
      <trkpt lat="42.83601" lon="0.31372">
        <ele>1381.551758</ele>
        <time>2012-12-31T11:35:52Z</time>
      </trkpt>
      <trkpt lat="42.83601" lon="0.31363">
        <ele>1382.032471</ele>
        <time>2012-12-31T11:36:01Z</time>
      </trkpt>
      <trkpt lat="42.83601" lon="0.31362">
        <ele>1382.032471</ele>
        <time>2012-12-31T11:36:02Z</time>
      </trkpt>
      <trkpt lat="42.83605" lon="0.31343">
        <ele>1383.474365</ele>
        <time>2012-12-31T11:36:20Z</time>
      </trkpt>
      <trkpt lat="42.8361" lon="0.31324">
        <ele>1385.396973</ele>
        <time>2012-12-31T11:36:39Z</time>
      </trkpt>
      <trkpt lat="42.83616" lon="0.31306">
        <ele>1387.31958</ele>
        <time>2012-12-31T11:36:57Z</time>
      </trkpt>
      <trkpt lat="42.83619" lon="0.31294">
        <ele>1388.28125</ele>
        <time>2012-12-31T11:37:12Z</time>
      </trkpt>
      <trkpt lat="42.8362" lon="0.31291">
        <ele>1388.761963</ele>
        <time>2012-12-31T11:37:16Z</time>
      </trkpt>
      <trkpt lat="42.83623" lon="0.31279">
        <ele>1390.203857</ele>
        <time>2012-12-31T11:37:28Z</time>
      </trkpt>
      <trkpt lat="42.83625" lon="0.3127">
        <ele>1391.165039</ele>
        <time>2012-12-31T11:37:39Z</time>
      </trkpt>
      <trkpt lat="42.83629" lon="0.31259">
        <ele>1391.645752</ele>
        <time>2012-12-31T11:37:48Z</time>
      </trkpt>
      <trkpt lat="42.83634" lon="0.31252">
        <ele>1392.607178</ele>
        <time>2012-12-31T11:37:57Z</time>
      </trkpt>
      <trkpt lat="42.83637" lon="0.31246">
        <ele>1392.607178</ele>
        <time>2012-12-31T11:38:04Z</time>
      </trkpt>
      <trkpt lat="42.83642" lon="0.31233">
        <ele>1393.568359</ele>
        <time>2012-12-31T11:38:17Z</time>
      </trkpt>
      <trkpt lat="42.83644" lon="0.31228">
        <ele>1394.049072</ele>
        <time>2012-12-31T11:38:23Z</time>
      </trkpt>
      <trkpt lat="42.83647" lon="0.31217">
        <ele>1395.490967</ele>
        <time>2012-12-31T11:38:34Z</time>
      </trkpt>
      <trkpt lat="42.83654" lon="0.31207">
        <ele>1396.452393</ele>
        <time>2012-12-31T11:38:46Z</time>
      </trkpt>
      <trkpt lat="42.83655" lon="0.31195">
        <ele>1397.413574</ele>
        <time>2012-12-31T11:38:56Z</time>
      </trkpt>
      <trkpt lat="42.83656" lon="0.31182">
        <ele>1399.336182</ele>
        <time>2012-12-31T11:39:08Z</time>
      </trkpt>
      <trkpt lat="42.83656" lon="0.31181">
        <ele>1399.336182</ele>
        <time>2012-12-31T11:39:09Z</time>
      </trkpt>
      <trkpt lat="42.83658" lon="0.31168">
        <ele>1400.778076</ele>
        <time>2012-12-31T11:39:21Z</time>
      </trkpt>
      <trkpt lat="42.83661" lon="0.31157">
        <ele>1401.739502</ele>
        <time>2012-12-31T11:39:32Z</time>
      </trkpt>
      <trkpt lat="42.83663" lon="0.31142">
        <ele>1402.700684</ele>
        <time>2012-12-31T11:39:46Z</time>
      </trkpt>
      <trkpt lat="42.83663" lon="0.3114">
        <ele>1402.700684</ele>
        <time>2012-12-31T11:39:49Z</time>
      </trkpt>
      <trkpt lat="42.83666" lon="0.31135">
        <ele>1403.181396</ele>
        <time>2012-12-31T11:40:00Z</time>
      </trkpt>
      <trkpt lat="42.83668" lon="0.31126">
        <ele>1403.181396</ele>
        <time>2012-12-31T11:40:11Z</time>
      </trkpt>
      <trkpt lat="42.83671" lon="0.31116">
        <ele>1403.181396</ele>
        <time>2012-12-31T11:40:21Z</time>
      </trkpt>
      <trkpt lat="42.83676" lon="0.31105">
        <ele>1403.181396</ele>
        <time>2012-12-31T11:40:30Z</time>
      </trkpt>
      <trkpt lat="42.83677" lon="0.31094">
        <ele>1403.181396</ele>
        <time>2012-12-31T11:40:38Z</time>
      </trkpt>
      <trkpt lat="42.83678" lon="0.31092">
        <ele>1403.662109</ele>
        <time>2012-12-31T11:40:47Z</time>
      </trkpt>
      <trkpt lat="42.83679" lon="0.31085">
        <ele>1403.662109</ele>
        <time>2012-12-31T11:41:10Z</time>
      </trkpt>
      <trkpt lat="42.83679" lon="0.31088">
        <ele>1403.181396</ele>
        <time>2012-12-31T11:41:26Z</time>
      </trkpt>
      <trkpt lat="42.83677" lon="0.31082">
        <ele>1404.623535</ele>
        <time>2012-12-31T11:41:44Z</time>
      </trkpt>
      <trkpt lat="42.83674" lon="0.31083">
        <ele>1405.104248</ele>
        <time>2012-12-31T12:14:10Z</time>
      </trkpt>
      <trkpt lat="42.83676" lon="0.31076">
        <ele>1406.06543</ele>
        <time>2012-12-31T12:14:26Z</time>
      </trkpt>
      <trkpt lat="42.83673" lon="0.31071">
        <ele>1407.026855</ele>
        <time>2012-12-31T12:14:44Z</time>
      </trkpt>
      <trkpt lat="42.83667" lon="0.31067">
        <ele>1407.507568</ele>
        <time>2012-12-31T12:15:06Z</time>
      </trkpt>
      <trkpt lat="42.83665" lon="0.31066">
        <ele>1407.507568</ele>
        <time>2012-12-31T12:15:09Z</time>
      </trkpt>
      <trkpt lat="42.83659" lon="0.31068">
        <ele>1407.026855</ele>
        <time>2012-12-31T12:15:19Z</time>
      </trkpt>
      <trkpt lat="42.83652" lon="0.31065">
        <ele>1408.46875</ele>
        <time>2012-12-31T12:15:31Z</time>
      </trkpt>
      <trkpt lat="42.83646" lon="0.31055">
        <ele>1411.833496</ele>
        <time>2012-12-31T12:15:45Z</time>
      </trkpt>
      <trkpt lat="42.8364" lon="0.3105">
        <ele>1413.275391</ele>
        <time>2012-12-31T12:15:58Z</time>
      </trkpt>
      <trkpt lat="42.83633" lon="0.31042">
        <ele>1416.15918</ele>
        <time>2012-12-31T12:16:09Z</time>
      </trkpt>
      <trkpt lat="42.83632" lon="0.3104">
        <ele>1416.639893</ele>
        <time>2012-12-31T12:16:11Z</time>
      </trkpt>
      <trkpt lat="42.83629" lon="0.31032">
        <ele>1419.043213</ele>
        <time>2012-12-31T12:16:23Z</time>
      </trkpt>
      <trkpt lat="42.83624" lon="0.31027">
        <ele>1420.966064</ele>
        <time>2012-12-31T12:16:35Z</time>
      </trkpt>
      <trkpt lat="42.83621" lon="0.31022">
        <ele>1421.446533</ele>
        <time>2012-12-31T12:16:45Z</time>
      </trkpt>
      <trkpt lat="42.83612" lon="0.31021">
        <ele>1423.849854</ele>
        <time>2012-12-31T12:17:06Z</time>
      </trkpt>
      <trkpt lat="42.83604" lon="0.31015">
        <ele>1426.733887</ele>
        <time>2012-12-31T12:17:20Z</time>
      </trkpt>
      <trkpt lat="42.83601" lon="0.31001">
        <ele>1429.136963</ele>
        <time>2012-12-31T12:17:36Z</time>
      </trkpt>
      <trkpt lat="42.836" lon="0.30994">
        <ele>1431.059814</ele>
        <time>2012-12-31T12:17:45Z</time>
      </trkpt>
      <trkpt lat="42.836" lon="0.30982">
        <ele>1433.943604</ele>
        <time>2012-12-31T12:18:00Z</time>
      </trkpt>
      <trkpt lat="42.83601" lon="0.30974">
        <ele>1436.827637</ele>
        <time>2012-12-31T12:18:11Z</time>
      </trkpt>
      <trkpt lat="42.836" lon="0.30964">
        <ele>1439.230957</ele>
        <time>2012-12-31T12:18:23Z</time>
      </trkpt>
      <trkpt lat="42.83603" lon="0.30947">
        <ele>1442.11499</ele>
        <time>2012-12-31T12:18:40Z</time>
      </trkpt>
      <trkpt lat="42.83602" lon="0.30933">
        <ele>1445.479492</ele>
        <time>2012-12-31T12:18:56Z</time>
      </trkpt>
      <trkpt lat="42.83604" lon="0.30923">
        <ele>1447.4021</ele>
        <time>2012-12-31T12:19:09Z</time>
      </trkpt>
      <trkpt lat="42.83605" lon="0.30912">
        <ele>1449.324707</ele>
        <time>2012-12-31T12:19:25Z</time>
      </trkpt>
      <trkpt lat="42.83607" lon="0.309">
        <ele>1451.728027</ele>
        <time>2012-12-31T12:19:40Z</time>
      </trkpt>
      <trkpt lat="42.83607" lon="0.30899">
        <ele>1451.728027</ele>
        <time>2012-12-31T12:19:41Z</time>
      </trkpt>
      <trkpt lat="42.83607" lon="0.30885">
        <ele>1454.612061</ele>
        <time>2012-12-31T12:19:56Z</time>
      </trkpt>
      <trkpt lat="42.83607" lon="0.30885">
        <ele>1454.612061</ele>
        <time>2012-12-31T12:19:57Z</time>
      </trkpt>
      <trkpt lat="42.83608" lon="0.30888">
        <ele>1454.612061</ele>
        <time>2012-12-31T12:20:00Z</time>
      </trkpt>
      <trkpt lat="42.83607" lon="0.30886">
        <ele>1456.534668</ele>
        <time>2012-12-31T12:20:06Z</time>
      </trkpt>
      <trkpt lat="42.83608" lon="0.30887">
        <ele>1456.053955</ele>
        <time>2012-12-31T12:20:07Z</time>
      </trkpt>
      <trkpt lat="42.83607" lon="0.30889">
        <ele>1454.131592</ele>
        <time>2012-12-31T12:20:11Z</time>
      </trkpt>
      <trkpt lat="42.83607" lon="0.30887">
        <ele>1454.612061</ele>
        <time>2012-12-31T12:20:14Z</time>
      </trkpt>
      <trkpt lat="42.83609" lon="0.30875">
        <ele>1457.496094</ele>
        <time>2012-12-31T12:20:26Z</time>
      </trkpt>
      <trkpt lat="42.83611" lon="0.30863">
        <ele>1460.379883</ele>
        <time>2012-12-31T12:20:39Z</time>
      </trkpt>
      <trkpt lat="42.83614" lon="0.3085">
        <ele>1462.783203</ele>
        <time>2012-12-31T12:20:56Z</time>
      </trkpt>
      <trkpt lat="42.83618" lon="0.30837">
        <ele>1465.667236</ele>
        <time>2012-12-31T12:21:10Z</time>
      </trkpt>
      <trkpt lat="42.83622" lon="0.30824">
        <ele>1468.070557</ele>
        <time>2012-12-31T12:21:26Z</time>
      </trkpt>
      <trkpt lat="42.83625" lon="0.30812">
        <ele>1470.95459</ele>
        <time>2012-12-31T12:21:42Z</time>
      </trkpt>
      <trkpt lat="42.83626" lon="0.30801">
        <ele>1473.838379</ele>
        <time>2012-12-31T12:21:57Z</time>
      </trkpt>
      <trkpt lat="42.83626" lon="0.30795">
        <ele>1475.280273</ele>
        <time>2012-12-31T12:22:05Z</time>
      </trkpt>
      <trkpt lat="42.83627" lon="0.30783">
        <ele>1478.164307</ele>
        <time>2012-12-31T12:22:20Z</time>
      </trkpt>
      <trkpt lat="42.8363" lon="0.30772">
        <ele>1482.009521</ele>
        <time>2012-12-31T12:22:35Z</time>
      </trkpt>
      <trkpt lat="42.8363" lon="0.30771">
        <ele>1482.009521</ele>
        <time>2012-12-31T12:22:36Z</time>
      </trkpt>
      <trkpt lat="42.8363" lon="0.30761">
        <ele>1482.970703</ele>
        <time>2012-12-31T12:22:49Z</time>
      </trkpt>
      <trkpt lat="42.8363" lon="0.3075">
        <ele>1485.374268</ele>
        <time>2012-12-31T12:23:03Z</time>
      </trkpt>
      <trkpt lat="42.83631" lon="0.30739">
        <ele>1488.258301</ele>
        <time>2012-12-31T12:23:17Z</time>
      </trkpt>
      <trkpt lat="42.83632" lon="0.3073">
        <ele>1491.14209</ele>
        <time>2012-12-31T12:23:28Z</time>
      </trkpt>
      <trkpt lat="42.83633" lon="0.30721">
        <ele>1494.026123</ele>
        <time>2012-12-31T12:23:40Z</time>
      </trkpt>
      <trkpt lat="42.83635" lon="0.30709">
        <ele>1495.94873</ele>
        <time>2012-12-31T12:23:55Z</time>
      </trkpt>
      <trkpt lat="42.83638" lon="0.30697">
        <ele>1497.390625</ele>
        <time>2012-12-31T12:24:11Z</time>
      </trkpt>
      <trkpt lat="42.83639" lon="0.30687">
        <ele>1499.313232</ele>
        <time>2012-12-31T12:24:25Z</time>
      </trkpt>
      <trkpt lat="42.83641" lon="0.30678">
        <ele>1501.716797</ele>
        <time>2012-12-31T12:24:37Z</time>
      </trkpt>
      <trkpt lat="42.8364" lon="0.30664">
        <ele>1503.158691</ele>
        <time>2012-12-31T12:24:52Z</time>
      </trkpt>
      <trkpt lat="42.83641" lon="0.30654">
        <ele>1507.003906</ele>
        <time>2012-12-31T12:25:06Z</time>
      </trkpt>
      <trkpt lat="42.83642" lon="0.3064">
        <ele>1509.407227</ele>
        <time>2012-12-31T12:25:23Z</time>
      </trkpt>
      <trkpt lat="42.83642" lon="0.30628">
        <ele>1512.771729</ele>
        <time>2012-12-31T12:25:37Z</time>
      </trkpt>
      <trkpt lat="42.83643" lon="0.30616">
        <ele>1516.617188</ele>
        <time>2012-12-31T12:25:53Z</time>
      </trkpt>
      <trkpt lat="42.83643" lon="0.30604">
        <ele>1518.059082</ele>
        <time>2012-12-31T12:26:07Z</time>
      </trkpt>
      <trkpt lat="42.83643" lon="0.30592">
        <ele>1520.462402</ele>
        <time>2012-12-31T12:26:21Z</time>
      </trkpt>
      <trkpt lat="42.83643" lon="0.30577">
        <ele>1522.38501</ele>
        <time>2012-12-31T12:26:35Z</time>
      </trkpt>
      <trkpt lat="42.83645" lon="0.30568">
        <ele>1524.307617</ele>
        <time>2012-12-31T12:26:44Z</time>
      </trkpt>
      <trkpt lat="42.83646" lon="0.30555">
        <ele>1526.710938</ele>
        <time>2012-12-31T12:27:00Z</time>
      </trkpt>
      <trkpt lat="42.83646" lon="0.30542">
        <ele>1528.633545</ele>
        <time>2012-12-31T12:27:15Z</time>
      </trkpt>
      <trkpt lat="42.83646" lon="0.30528">
        <ele>1530.556152</ele>
        <time>2012-12-31T12:27:30Z</time>
      </trkpt>
      <trkpt lat="42.83647" lon="0.30514">
        <ele>1533.440186</ele>
        <time>2012-12-31T12:27:45Z</time>
      </trkpt>
      <trkpt lat="42.83647" lon="0.30497">
        <ele>1534.882324</ele>
        <time>2012-12-31T12:28:00Z</time>
      </trkpt>
      <trkpt lat="42.83645" lon="0.30481">
        <ele>1537.2854</ele>
        <time>2012-12-31T12:28:15Z</time>
      </trkpt>
      <trkpt lat="42.83643" lon="0.30469">
        <ele>1538.246826</ele>
        <time>2012-12-31T12:28:27Z</time>
      </trkpt>
      <trkpt lat="42.83643" lon="0.30468">
        <ele>1538.727539</ele>
        <time>2012-12-31T12:28:42Z</time>
      </trkpt>
      <trkpt lat="42.83643" lon="0.30463">
        <ele>1538.727539</ele>
        <time>2012-12-31T12:28:52Z</time>
      </trkpt>
      <trkpt lat="42.83644" lon="0.3046">
        <ele>1541.130615</ele>
        <time>2012-12-31T12:29:08Z</time>
      </trkpt>
      <trkpt lat="42.83644" lon="0.3045">
        <ele>1542.572754</ele>
        <time>2012-12-31T12:29:21Z</time>
      </trkpt>
      <trkpt lat="42.83646" lon="0.30436">
        <ele>1544.014648</ele>
        <time>2012-12-31T12:29:36Z</time>
      </trkpt>
      <trkpt lat="42.83645" lon="0.3042">
        <ele>1545.937256</ele>
        <time>2012-12-31T12:29:51Z</time>
      </trkpt>
      <trkpt lat="42.83646" lon="0.30404">
        <ele>1547.859863</ele>
        <time>2012-12-31T12:30:07Z</time>
      </trkpt>
      <trkpt lat="42.83645" lon="0.30386">
        <ele>1551.224609</ele>
        <time>2012-12-31T12:30:23Z</time>
      </trkpt>
      <trkpt lat="42.83644" lon="0.30365">
        <ele>1553.147217</ele>
        <time>2012-12-31T12:30:42Z</time>
      </trkpt>
      <trkpt lat="42.83644" lon="0.30343">
        <ele>1554.108643</ele>
        <time>2012-12-31T12:31:01Z</time>
      </trkpt>
      <trkpt lat="42.83645" lon="0.30325">
        <ele>1556.992432</ele>
        <time>2012-12-31T12:31:19Z</time>
      </trkpt>
      <trkpt lat="42.83649" lon="0.30303">
        <ele>1556.031006</ele>
        <time>2012-12-31T12:31:39Z</time>
      </trkpt>
      <trkpt lat="42.83654" lon="0.30283">
        <ele>1557.473145</ele>
        <time>2012-12-31T12:31:58Z</time>
      </trkpt>
      <trkpt lat="42.83658" lon="0.30264">
        <ele>1560.356934</ele>
        <time>2012-12-31T12:32:17Z</time>
      </trkpt>
      <trkpt lat="42.83663" lon="0.30247">
        <ele>1563.721436</ele>
        <time>2012-12-31T12:32:34Z</time>
      </trkpt>
      <trkpt lat="42.83668" lon="0.30233">
        <ele>1565.163818</ele>
        <time>2012-12-31T12:32:52Z</time>
      </trkpt>
      <trkpt lat="42.83671" lon="0.30231">
        <ele>1566.605713</ele>
        <time>2012-12-31T12:33:05Z</time>
      </trkpt>
      <trkpt lat="42.8367" lon="0.30233">
        <ele>1566.605713</ele>
        <time>2012-12-31T12:33:29Z</time>
      </trkpt>
      <trkpt lat="42.83674" lon="0.30221">
        <ele>1567.086426</ele>
        <time>2012-12-31T12:33:52Z</time>
      </trkpt>
      <trkpt lat="42.83683" lon="0.30201">
        <ele>1568.52832</ele>
        <time>2012-12-31T12:34:11Z</time>
      </trkpt>
      <trkpt lat="42.83692" lon="0.30183">
        <ele>1569.489746</ele>
        <time>2012-12-31T12:34:29Z</time>
      </trkpt>
      <trkpt lat="42.83692" lon="0.30185">
        <ele>1569.009033</ele>
        <time>2012-12-31T12:34:44Z</time>
      </trkpt>
      <trkpt lat="42.8369" lon="0.3019">
        <ele>1568.52832</ele>
        <time>2012-12-31T12:35:11Z</time>
      </trkpt>
      <trkpt lat="42.8369" lon="0.30191">
        <ele>1568.52832</ele>
        <time>2012-12-31T12:35:29Z</time>
      </trkpt>
      <trkpt lat="42.83691" lon="0.30184">
        <ele>1568.52832</ele>
        <time>2012-12-31T12:35:59Z</time>
      </trkpt>
      <trkpt lat="42.837" lon="0.30168">
        <ele>1569.970215</ele>
        <time>2012-12-31T12:36:15Z</time>
      </trkpt>
      <trkpt lat="42.83709" lon="0.30149">
        <ele>1571.892822</ele>
        <time>2012-12-31T12:36:33Z</time>
      </trkpt>
      <trkpt lat="42.83722" lon="0.30128">
        <ele>1572.854248</ele>
        <time>2012-12-31T12:36:54Z</time>
      </trkpt>
      <trkpt lat="42.83734" lon="0.30111">
        <ele>1576.21875</ele>
        <time>2012-12-31T12:37:14Z</time>
      </trkpt>
      <trkpt lat="42.83742" lon="0.30098">
        <ele>1577.180176</ele>
        <time>2012-12-31T12:37:30Z</time>
      </trkpt>
      <trkpt lat="42.83743" lon="0.30095">
        <ele>1578.141357</ele>
        <time>2012-12-31T12:37:36Z</time>
      </trkpt>
      <trkpt lat="42.83745" lon="0.30089">
        <ele>1578.141357</ele>
        <time>2012-12-31T12:37:46Z</time>
      </trkpt>
      <trkpt lat="42.83747" lon="0.30077">
        <ele>1580.064209</ele>
        <time>2012-12-31T12:38:02Z</time>
      </trkpt>
      <trkpt lat="42.83747" lon="0.30078">
        <ele>1581.986816</ele>
        <time>2012-12-31T12:38:29Z</time>
      </trkpt>
      <trkpt lat="42.83747" lon="0.30078">
        <ele>1576.699463</ele>
        <time>2012-12-31T12:38:30Z</time>
      </trkpt>
      <trkpt lat="42.83748" lon="0.30078">
        <ele>1581.025635</ele>
        <time>2012-12-31T12:38:31Z</time>
      </trkpt>
      <trkpt lat="42.83748" lon="0.30078">
        <ele>1581.025635</ele>
        <time>2012-12-31T12:38:35Z</time>
      </trkpt>
      <trkpt lat="42.83748" lon="0.30078">
        <ele>1579.583252</ele>
        <time>2012-12-31T12:39:18Z</time>
      </trkpt>
      <trkpt lat="42.83748" lon="0.30072">
        <ele>1581.025635</ele>
        <time>2012-12-31T12:39:41Z</time>
      </trkpt>
      <trkpt lat="42.83751" lon="0.30059">
        <ele>1581.506104</ele>
        <time>2012-12-31T12:39:55Z</time>
      </trkpt>
      <trkpt lat="42.83751" lon="0.30057">
        <ele>1581.506104</ele>
        <time>2012-12-31T12:39:57Z</time>
      </trkpt>
      <trkpt lat="42.83754" lon="0.30043">
        <ele>1583.428711</ele>
        <time>2012-12-31T12:40:14Z</time>
      </trkpt>
      <trkpt lat="42.83758" lon="0.30029">
        <ele>1585.351318</ele>
        <time>2012-12-31T12:40:29Z</time>
      </trkpt>
      <trkpt lat="42.83762" lon="0.30007">
        <ele>1587.754639</ele>
        <time>2012-12-31T12:40:49Z</time>
      </trkpt>
      <trkpt lat="42.83763" lon="0.29989">
        <ele>1588.716064</ele>
        <time>2012-12-31T12:41:04Z</time>
      </trkpt>
      <trkpt lat="42.83764" lon="0.29973">
        <ele>1592.080566</ele>
        <time>2012-12-31T12:41:18Z</time>
      </trkpt>
      <trkpt lat="42.83766" lon="0.29956">
        <ele>1593.041748</ele>
        <time>2012-12-31T12:41:34Z</time>
      </trkpt>
      <trkpt lat="42.83766" lon="0.29935">
        <ele>1596.887207</ele>
        <time>2012-12-31T12:41:52Z</time>
      </trkpt>
      <trkpt lat="42.83767" lon="0.29927">
        <ele>1599.290527</ele>
        <time>2012-12-31T12:42:00Z</time>
      </trkpt>
      <trkpt lat="42.83769" lon="0.29911">
        <ele>1601.213135</ele>
        <time>2012-12-31T12:42:16Z</time>
      </trkpt>
      <trkpt lat="42.8377" lon="0.29892">
        <ele>1604.097168</ele>
        <time>2012-12-31T12:42:32Z</time>
      </trkpt>
      <trkpt lat="42.83779" lon="0.29875">
        <ele>1606.500244</ele>
        <time>2012-12-31T12:42:49Z</time>
      </trkpt>
      <trkpt lat="42.83783" lon="0.29865">
        <ele>1607.46167</ele>
        <time>2012-12-31T12:43:04Z</time>
      </trkpt>
      <trkpt lat="42.83784" lon="0.29862">
        <ele>1611.787598</ele>
        <time>2012-12-31T12:43:08Z</time>
      </trkpt>
      <trkpt lat="42.83787" lon="0.29849">
        <ele>1611.787598</ele>
        <time>2012-12-31T12:43:22Z</time>
      </trkpt>
      <trkpt lat="42.8379" lon="0.29838">
        <ele>1612.268311</ele>
        <time>2012-12-31T12:43:37Z</time>
      </trkpt>
      <trkpt lat="42.8379" lon="0.29837">
        <ele>1612.268311</ele>
        <time>2012-12-31T12:43:39Z</time>
      </trkpt>
      <trkpt lat="42.83792" lon="0.29835">
        <ele>1613.710205</ele>
        <time>2012-12-31T12:43:41Z</time>
      </trkpt>
      <trkpt lat="42.83796" lon="0.2983">
        <ele>1613.710205</ele>
        <time>2012-12-31T12:43:48Z</time>
      </trkpt>
      <trkpt lat="42.83798" lon="0.29832">
        <ele>1613.710205</ele>
        <time>2012-12-31T12:43:51Z</time>
      </trkpt>
      <trkpt lat="42.83806" lon="0.29855">
        <ele>1613.710205</ele>
        <time>2012-12-31T12:44:09Z</time>
      </trkpt>
      <trkpt lat="42.83808" lon="0.29865">
        <ele>1614.190918</ele>
        <time>2012-12-31T12:44:16Z</time>
      </trkpt>
      <trkpt lat="42.83808" lon="0.29869">
        <ele>1614.671631</ele>
        <time>2012-12-31T12:44:19Z</time>
      </trkpt>
      <trkpt lat="42.83816" lon="0.29885">
        <ele>1615.633057</ele>
        <time>2012-12-31T12:44:33Z</time>
      </trkpt>
      <trkpt lat="42.83818" lon="0.29887">
        <ele>1614.671631</ele>
        <time>2012-12-31T12:44:47Z</time>
      </trkpt>
      <trkpt lat="42.83818" lon="0.29885">
        <ele>1615.152344</ele>
        <time>2012-12-31T12:44:52Z</time>
      </trkpt>
      <trkpt lat="42.83817" lon="0.29883">
        <ele>1615.152344</ele>
        <time>2012-12-31T12:45:06Z</time>
      </trkpt>
      <trkpt lat="42.83817" lon="0.29883">
        <ele>1612.268311</ele>
        <time>2012-12-31T12:45:07Z</time>
      </trkpt>
      <trkpt lat="42.83817" lon="0.29883">
        <ele>1613.710205</ele>
        <time>2012-12-31T12:45:08Z</time>
      </trkpt>
      <trkpt lat="42.83817" lon="0.29883">
        <ele>1617.074951</ele>
        <time>2012-12-31T12:45:09Z</time>
      </trkpt>
      <trkpt lat="42.83817" lon="0.29883">
        <ele>1617.55542</ele>
        <time>2012-12-31T12:45:10Z</time>
      </trkpt>
      <trkpt lat="42.83817" lon="0.29883">
        <ele>1614.190918</ele>
        <time>2012-12-31T12:45:12Z</time>
      </trkpt>
      <trkpt lat="42.83817" lon="0.29883">
        <ele>1614.671631</ele>
        <time>2012-12-31T12:45:13Z</time>
      </trkpt>
      <trkpt lat="42.83817" lon="0.29883">
        <ele>1616.113525</ele>
        <time>2012-12-31T12:45:16Z</time>
      </trkpt>
      <trkpt lat="42.83817" lon="0.29883">
        <ele>1612.749023</ele>
        <time>2012-12-31T12:45:18Z</time>
      </trkpt>
      <trkpt lat="42.83817" lon="0.29883">
        <ele>1616.594238</ele>
        <time>2012-12-31T12:45:19Z</time>
      </trkpt>
      <trkpt lat="42.83817" lon="0.29884">
        <ele>1617.074951</ele>
        <time>2012-12-31T12:45:53Z</time>
      </trkpt>
      <trkpt lat="42.83817" lon="0.29883">
        <ele>1615.152344</ele>
        <time>2012-12-31T12:46:09Z</time>
      </trkpt>
      <trkpt lat="42.83817" lon="0.29882">
        <ele>1613.710205</ele>
        <time>2012-12-31T12:46:28Z</time>
      </trkpt>
      <trkpt lat="42.83817" lon="0.29882">
        <ele>1616.594238</ele>
        <time>2012-12-31T12:46:36Z</time>
      </trkpt>
      <trkpt lat="42.83817" lon="0.29882">
        <ele>1614.190918</ele>
        <time>2012-12-31T12:46:52Z</time>
      </trkpt>
      <trkpt lat="42.83817" lon="0.29881">
        <ele>1614.671631</ele>
        <time>2012-12-31T12:47:02Z</time>
      </trkpt>
      <trkpt lat="42.83816" lon="0.29859">
        <ele>1614.190918</ele>
        <time>2012-12-31T12:47:20Z</time>
      </trkpt>
      <trkpt lat="42.83815" lon="0.29854">
        <ele>1614.190918</ele>
        <time>2012-12-31T12:47:24Z</time>
      </trkpt>
      <trkpt lat="42.83813" lon="0.29823">
        <ele>1615.152344</ele>
        <time>2012-12-31T12:47:46Z</time>
      </trkpt>
      <trkpt lat="42.83814" lon="0.29815">
        <ele>1617.074951</ele>
        <time>2012-12-31T12:47:52Z</time>
      </trkpt>
      <trkpt lat="42.83814" lon="0.29793">
        <ele>1618.036133</ele>
        <time>2012-12-31T12:48:11Z</time>
      </trkpt>
      <trkpt lat="42.83814" lon="0.29778">
        <ele>1621.400635</ele>
        <time>2012-12-31T12:48:25Z</time>
      </trkpt>
      <trkpt lat="42.83813" lon="0.29758">
        <ele>1624.765381</ele>
        <time>2012-12-31T12:48:42Z</time>
      </trkpt>
      <trkpt lat="42.83813" lon="0.29754">
        <ele>1624.765381</ele>
        <time>2012-12-31T12:48:45Z</time>
      </trkpt>
      <trkpt lat="42.83811" lon="0.29736">
        <ele>1628.130127</ele>
        <time>2012-12-31T12:49:01Z</time>
      </trkpt>
      <trkpt lat="42.83805" lon="0.29712">
        <ele>1629.091309</ele>
        <time>2012-12-31T12:49:20Z</time>
      </trkpt>
      <trkpt lat="42.83805" lon="0.29709">
        <ele>1630.052734</ele>
        <time>2012-12-31T12:49:22Z</time>
      </trkpt>
      <trkpt lat="42.83802" lon="0.29699">
        <ele>1631.494629</ele>
        <time>2012-12-31T12:49:30Z</time>
      </trkpt>
      <trkpt lat="42.83798" lon="0.29671">
        <ele>1633.897949</ele>
        <time>2012-12-31T12:49:52Z</time>
      </trkpt>
      <trkpt lat="42.83797" lon="0.29645">
        <ele>1635.339844</ele>
        <time>2012-12-31T12:50:12Z</time>
      </trkpt>
      <trkpt lat="42.83797" lon="0.29622">
        <ele>1638.70459</ele>
        <time>2012-12-31T12:50:30Z</time>
      </trkpt>
      <trkpt lat="42.83801" lon="0.296">
        <ele>1638.223877</ele>
        <time>2012-12-31T12:50:47Z</time>
      </trkpt>
      <trkpt lat="42.83808" lon="0.29576">
        <ele>1638.223877</ele>
        <time>2012-12-31T12:51:05Z</time>
      </trkpt>
      <trkpt lat="42.83815" lon="0.29555">
        <ele>1637.743164</ele>
        <time>2012-12-31T12:51:22Z</time>
      </trkpt>
      <trkpt lat="42.8382" lon="0.29535">
        <ele>1639.665771</ele>
        <time>2012-12-31T12:51:39Z</time>
      </trkpt>
      <trkpt lat="42.83827" lon="0.29508">
        <ele>1640.626953</ele>
        <time>2012-12-31T12:51:59Z</time>
      </trkpt>
      <trkpt lat="42.83833" lon="0.29488">
        <ele>1642.549805</ele>
        <time>2012-12-31T12:52:14Z</time>
      </trkpt>
      <trkpt lat="42.8384" lon="0.29457">
        <ele>1643.030273</ele>
        <time>2012-12-31T12:52:37Z</time>
      </trkpt>
      <trkpt lat="42.83836" lon="0.29432">
        <ele>1645.433838</ele>
        <time>2012-12-31T12:52:57Z</time>
      </trkpt>
      <trkpt lat="42.83831" lon="0.29405">
        <ele>1648.79834</ele>
        <time>2012-12-31T12:53:18Z</time>
      </trkpt>
      <trkpt lat="42.83828" lon="0.29382">
        <ele>1650.240479</ele>
        <time>2012-12-31T12:53:37Z</time>
      </trkpt>
      <trkpt lat="42.83826" lon="0.29357">
        <ele>1653.60498</ele>
        <time>2012-12-31T12:53:56Z</time>
      </trkpt>
      <trkpt lat="42.83821" lon="0.29335">
        <ele>1654.566162</ele>
        <time>2012-12-31T12:54:14Z</time>
      </trkpt>
      <trkpt lat="42.83821" lon="0.29335">
        <ele>1655.527588</ele>
        <time>2012-12-31T12:54:26Z</time>
      </trkpt>
      <trkpt lat="42.8382" lon="0.29334">
        <ele>1655.046875</ele>
        <time>2012-12-31T12:54:52Z</time>
      </trkpt>
      <trkpt lat="42.83817" lon="0.29318">
        <ele>1656.48877</ele>
        <time>2012-12-31T12:55:28Z</time>
      </trkpt>
      <trkpt lat="42.83813" lon="0.29308">
        <ele>1657.930908</ele>
        <time>2012-12-31T12:55:37Z</time>
      </trkpt>
      <trkpt lat="42.83807" lon="0.29288">
        <ele>1661.295654</ele>
        <time>2012-12-31T12:55:54Z</time>
      </trkpt>
      <trkpt lat="42.83805" lon="0.29281">
        <ele>1661.776367</ele>
        <time>2012-12-31T12:56:00Z</time>
      </trkpt>
      <trkpt lat="42.83799" lon="0.29257">
        <ele>1662.737549</ele>
        <time>2012-12-31T12:56:19Z</time>
      </trkpt>
      <trkpt lat="42.83792" lon="0.29234">
        <ele>1663.69873</ele>
        <time>2012-12-31T12:56:38Z</time>
      </trkpt>
      <trkpt lat="42.83786" lon="0.29212">
        <ele>1667.063477</ele>
        <time>2012-12-31T12:56:57Z</time>
      </trkpt>
      <trkpt lat="42.83783" lon="0.29197">
        <ele>1668.024658</ele>
        <time>2012-12-31T12:57:10Z</time>
      </trkpt>
      <trkpt lat="42.83781" lon="0.29189">
        <ele>1669.466797</ele>
        <time>2012-12-31T12:57:17Z</time>
      </trkpt>
      <trkpt lat="42.83772" lon="0.2917">
        <ele>1671.38916</ele>
        <time>2012-12-31T12:57:36Z</time>
      </trkpt>
      <trkpt lat="42.83764" lon="0.29158">
        <ele>1672.350586</ele>
        <time>2012-12-31T12:57:50Z</time>
      </trkpt>
      <trkpt lat="42.83748" lon="0.29146">
        <ele>1673.79248</ele>
        <time>2012-12-31T12:58:09Z</time>
      </trkpt>
      <trkpt lat="42.83737" lon="0.29137">
        <ele>1676.196045</ele>
        <time>2012-12-31T12:58:24Z</time>
      </trkpt>
      <trkpt lat="42.83731" lon="0.29134">
        <ele>1672.831299</ele>
        <time>2012-12-31T12:58:31Z</time>
      </trkpt>
      <trkpt lat="42.83728" lon="0.29133">
        <ele>1676.676758</ele>
        <time>2012-12-31T12:58:34Z</time>
      </trkpt>
      <trkpt lat="42.83712" lon="0.29123">
        <ele>1674.753906</ele>
        <time>2012-12-31T12:58:52Z</time>
      </trkpt>
      <trkpt lat="42.83709" lon="0.29121">
        <ele>1673.79248</ele>
        <time>2012-12-31T12:58:55Z</time>
      </trkpt>
      <trkpt lat="42.83691" lon="0.29118">
        <ele>1672.831299</ele>
        <time>2012-12-31T12:59:13Z</time>
      </trkpt>
      <trkpt lat="42.83684" lon="0.29124">
        <ele>1673.79248</ele>
        <time>2012-12-31T12:59:24Z</time>
      </trkpt>
      <trkpt lat="42.83681" lon="0.29126">
        <ele>1671.38916</ele>
        <time>2012-12-31T12:59:30Z</time>
      </trkpt>
      <trkpt lat="42.83677" lon="0.29121">
        <ele>1670.427979</ele>
        <time>2012-12-31T12:59:46Z</time>
      </trkpt>
      <trkpt lat="42.83679" lon="0.2912">
        <ele>1669.466797</ele>
        <time>2012-12-31T13:00:11Z</time>
      </trkpt>
      <trkpt lat="42.83676" lon="0.2911">
        <ele>1668.024658</ele>
        <time>2012-12-31T13:00:44Z</time>
      </trkpt>
      <trkpt lat="42.83675" lon="0.29104">
        <ele>1668.024658</ele>
        <time>2012-12-31T13:00:49Z</time>
      </trkpt>
      <trkpt lat="42.8367" lon="0.29088">
        <ele>1667.543945</ele>
        <time>2012-12-31T13:01:06Z</time>
      </trkpt>
      <trkpt lat="42.83668" lon="0.29087">
        <ele>1665.140869</ele>
        <time>2012-12-31T13:01:26Z</time>
      </trkpt>
      <trkpt lat="42.83668" lon="0.29087">
        <ele>1666.102051</ele>
        <time>2012-12-31T13:01:27Z</time>
      </trkpt>
      <trkpt lat="42.83666" lon="0.29085">
        <ele>1667.063477</ele>
        <time>2012-12-31T13:01:33Z</time>
      </trkpt>
      <trkpt lat="42.83666" lon="0.29086">
        <ele>1664.660156</ele>
        <time>2012-12-31T13:01:40Z</time>
      </trkpt>
      <trkpt lat="42.83666" lon="0.29086">
        <ele>1667.063477</ele>
        <time>2012-12-31T13:02:02Z</time>
      </trkpt>
      <trkpt lat="42.83667" lon="0.29086">
        <ele>1666.582764</ele>
        <time>2012-12-31T13:02:56Z</time>
      </trkpt>
      <trkpt lat="42.83667" lon="0.29086">
        <ele>1663.218262</ele>
        <time>2012-12-31T13:03:13Z</time>
      </trkpt>
      <trkpt lat="42.83667" lon="0.29086">
        <ele>1667.543945</ele>
        <time>2012-12-31T13:03:14Z</time>
      </trkpt>
      <trkpt lat="42.83662" lon="0.29081">
        <ele>1666.102051</ele>
        <time>2012-12-31T13:03:35Z</time>
      </trkpt>
      <trkpt lat="42.83659" lon="0.29079">
        <ele>1665.621582</ele>
        <time>2012-12-31T13:03:46Z</time>
      </trkpt>
      <trkpt lat="42.83653" lon="0.29071">
        <ele>1662.256836</ele>
        <time>2012-12-31T13:03:59Z</time>
      </trkpt>
      <trkpt lat="42.83646" lon="0.29068">
        <ele>1659.853271</ele>
        <time>2012-12-31T13:04:14Z</time>
      </trkpt>
      <trkpt lat="42.83642" lon="0.29071">
        <ele>1656.48877</ele>
        <time>2012-12-31T13:04:26Z</time>
      </trkpt>
      <trkpt lat="42.83641" lon="0.29076">
        <ele>1654.566162</ele>
        <time>2012-12-31T13:04:34Z</time>
      </trkpt>
      <trkpt lat="42.83644" lon="0.29088">
        <ele>1652.643555</ele>
        <time>2012-12-31T13:04:48Z</time>
      </trkpt>
      <trkpt lat="42.83646" lon="0.29106">
        <ele>1649.759766</ele>
        <time>2012-12-31T13:05:07Z</time>
      </trkpt>
      <trkpt lat="42.83646" lon="0.29115">
        <ele>1648.317627</ele>
        <time>2012-12-31T13:05:22Z</time>
      </trkpt>
      <trkpt lat="42.83644" lon="0.29122">
        <ele>1646.395264</ele>
        <time>2012-12-31T13:05:37Z</time>
      </trkpt>
      <trkpt lat="42.83644" lon="0.29123">
        <ele>1642.069092</ele>
        <time>2012-12-31T13:05:45Z</time>
      </trkpt>
      <trkpt lat="42.83644" lon="0.29123">
        <ele>1646.875732</ele>
        <time>2012-12-31T13:05:46Z</time>
      </trkpt>
      <trkpt lat="42.83644" lon="0.29123">
        <ele>1650.720947</ele>
        <time>2012-12-31T13:05:50Z</time>
      </trkpt>
      <trkpt lat="42.83644" lon="0.29123">
        <ele>1646.875732</ele>
        <time>2012-12-31T13:05:51Z</time>
      </trkpt>
      <trkpt lat="42.83642" lon="0.29127">
        <ele>1645.914551</ele>
        <time>2012-12-31T13:06:07Z</time>
      </trkpt>
      <trkpt lat="42.83641" lon="0.29133">
        <ele>1643.991699</ele>
        <time>2012-12-31T13:06:19Z</time>
      </trkpt>
      <trkpt lat="42.83639" lon="0.29143">
        <ele>1641.588379</ele>
        <time>2012-12-31T13:06:35Z</time>
      </trkpt>
      <trkpt lat="42.83643" lon="0.29158">
        <ele>1643.030273</ele>
        <time>2012-12-31T13:06:54Z</time>
      </trkpt>
      <trkpt lat="42.83643" lon="0.29177">
        <ele>1645.914551</ele>
        <time>2012-12-31T13:07:13Z</time>
      </trkpt>
      <trkpt lat="42.83644" lon="0.29182">
        <ele>1645.433838</ele>
        <time>2012-12-31T13:07:17Z</time>
      </trkpt>
      <trkpt lat="42.83645" lon="0.292">
        <ele>1643.510986</ele>
        <time>2012-12-31T13:07:33Z</time>
      </trkpt>
      <trkpt lat="42.83645" lon="0.29201">
        <ele>1643.510986</ele>
        <time>2012-12-31T13:07:34Z</time>
      </trkpt>
      <trkpt lat="42.83646" lon="0.29222">
        <ele>1644.472412</ele>
        <time>2012-12-31T13:07:51Z</time>
      </trkpt>
      <trkpt lat="42.83646" lon="0.29235">
        <ele>1641.107666</ele>
        <time>2012-12-31T13:08:04Z</time>
      </trkpt>
      <trkpt lat="42.83644" lon="0.29243">
        <ele>1639.185059</ele>
        <time>2012-12-31T13:08:11Z</time>
      </trkpt>
      <trkpt lat="42.83644" lon="0.29245">
        <ele>1638.223877</ele>
        <time>2012-12-31T13:08:13Z</time>
      </trkpt>
      <trkpt lat="42.83643" lon="0.29267">
        <ele>1636.781738</ele>
        <time>2012-12-31T13:08:31Z</time>
      </trkpt>
      <trkpt lat="42.83642" lon="0.29289">
        <ele>1635.820557</ele>
        <time>2012-12-31T13:08:48Z</time>
      </trkpt>
      <trkpt lat="42.83641" lon="0.29314">
        <ele>1634.859375</ele>
        <time>2012-12-31T13:09:08Z</time>
      </trkpt>
      <trkpt lat="42.8364" lon="0.29327">
        <ele>1631.975342</ele>
        <time>2012-12-31T13:09:19Z</time>
      </trkpt>
      <trkpt lat="42.83642" lon="0.29345">
        <ele>1632.456055</ele>
        <time>2012-12-31T13:09:35Z</time>
      </trkpt>
      <trkpt lat="42.83641" lon="0.29347">
        <ele>1628.130127</ele>
        <time>2012-12-31T13:09:37Z</time>
      </trkpt>
      <trkpt lat="42.8364" lon="0.29348">
        <ele>1626.687988</ele>
        <time>2012-12-31T13:09:39Z</time>
      </trkpt>
      <trkpt lat="42.8364" lon="0.2935">
        <ele>1628.61084</ele>
        <time>2012-12-31T13:09:41Z</time>
      </trkpt>
      <trkpt lat="42.83639" lon="0.29352">
        <ele>1626.687988</ele>
        <time>2012-12-31T13:09:43Z</time>
      </trkpt>
      <trkpt lat="42.83635" lon="0.29367">
        <ele>1623.803955</ele>
        <time>2012-12-31T13:09:56Z</time>
      </trkpt>
      <trkpt lat="42.83633" lon="0.29377">
        <ele>1620.439453</ele>
        <time>2012-12-31T13:10:04Z</time>
      </trkpt>
      <trkpt lat="42.83633" lon="0.29379">
        <ele>1623.323486</ele>
        <time>2012-12-31T13:10:07Z</time>
      </trkpt>
      <trkpt lat="42.83632" lon="0.29382">
        <ele>1621.400635</ele>
        <time>2012-12-31T13:10:10Z</time>
      </trkpt>
      <trkpt lat="42.83631" lon="0.29387">
        <ele>1621.400635</ele>
        <time>2012-12-31T13:10:14Z</time>
      </trkpt>
      <trkpt lat="42.83627" lon="0.29399">
        <ele>1618.516846</ele>
        <time>2012-12-31T13:10:26Z</time>
      </trkpt>
      <trkpt lat="42.83625" lon="0.2941">
        <ele>1616.594238</ele>
        <time>2012-12-31T13:10:36Z</time>
      </trkpt>
      <trkpt lat="42.83624" lon="0.29417">
        <ele>1615.152344</ele>
        <time>2012-12-31T13:10:42Z</time>
      </trkpt>
      <trkpt lat="42.83623" lon="0.29423">
        <ele>1614.671631</ele>
        <time>2012-12-31T13:10:47Z</time>
      </trkpt>
      <trkpt lat="42.83618" lon="0.29431">
        <ele>1610.826172</ele>
        <time>2012-12-31T13:10:57Z</time>
      </trkpt>
      <trkpt lat="42.83615" lon="0.29439">
        <ele>1608.903564</ele>
        <time>2012-12-31T13:11:06Z</time>
      </trkpt>
      <trkpt lat="42.83613" lon="0.29444">
        <ele>1606.500244</ele>
        <time>2012-12-31T13:11:12Z</time>
      </trkpt>
      <trkpt lat="42.8361" lon="0.29452">
        <ele>1604.577637</ele>
        <time>2012-12-31T13:11:21Z</time>
      </trkpt>
      <trkpt lat="42.83608" lon="0.29463">
        <ele>1602.174316</ele>
        <time>2012-12-31T13:11:34Z</time>
      </trkpt>
      <trkpt lat="42.83611" lon="0.29476">
        <ele>1599.290527</ele>
        <time>2012-12-31T13:11:47Z</time>
      </trkpt>
      <trkpt lat="42.83619" lon="0.29493">
        <ele>1596.406738</ele>
        <time>2012-12-31T13:12:03Z</time>
      </trkpt>
      <trkpt lat="42.83624" lon="0.2951">
        <ele>1593.041748</ele>
        <time>2012-12-31T13:12:18Z</time>
      </trkpt>
      <trkpt lat="42.83629" lon="0.29528">
        <ele>1591.599854</ele>
        <time>2012-12-31T13:12:35Z</time>
      </trkpt>
      <trkpt lat="42.83632" lon="0.29537">
        <ele>1588.235352</ele>
        <time>2012-12-31T13:12:44Z</time>
      </trkpt>
      <trkpt lat="42.83637" lon="0.29551">
        <ele>1585.351318</ele>
        <time>2012-12-31T13:12:58Z</time>
      </trkpt>
      <trkpt lat="42.83644" lon="0.29568">
        <ele>1580.064209</ele>
        <time>2012-12-31T13:13:14Z</time>
      </trkpt>
      <trkpt lat="42.83645" lon="0.2957">
        <ele>1584.390137</ele>
        <time>2012-12-31T13:13:16Z</time>
      </trkpt>
      <trkpt lat="42.83645" lon="0.29571">
        <ele>1584.390137</ele>
        <time>2012-12-31T13:13:17Z</time>
      </trkpt>
      <trkpt lat="42.83645" lon="0.29573">
        <ele>1581.986816</ele>
        <time>2012-12-31T13:13:19Z</time>
      </trkpt>
      <trkpt lat="42.83654" lon="0.29592">
        <ele>1579.583252</ele>
        <time>2012-12-31T13:13:37Z</time>
      </trkpt>
      <trkpt lat="42.83658" lon="0.29605">
        <ele>1576.699463</ele>
        <time>2012-12-31T13:13:49Z</time>
      </trkpt>
      <trkpt lat="42.83665" lon="0.2962">
        <ele>1576.21875</ele>
        <time>2012-12-31T13:14:04Z</time>
      </trkpt>
      <trkpt lat="42.83665" lon="0.29631">
        <ele>1572.373535</ele>
        <time>2012-12-31T13:14:14Z</time>
      </trkpt>
      <trkpt lat="42.83665" lon="0.29632">
        <ele>1572.854248</ele>
        <time>2012-12-31T13:14:15Z</time>
      </trkpt>
      <trkpt lat="42.83663" lon="0.29644">
        <ele>1569.489746</ele>
        <time>2012-12-31T13:14:27Z</time>
      </trkpt>
      <trkpt lat="42.83661" lon="0.29655">
        <ele>1566.605713</ele>
        <time>2012-12-31T13:14:38Z</time>
      </trkpt>
      <trkpt lat="42.8366" lon="0.29667">
        <ele>1565.163818</ele>
        <time>2012-12-31T13:14:49Z</time>
      </trkpt>
      <trkpt lat="42.83658" lon="0.29683">
        <ele>1563.240967</ele>
        <time>2012-12-31T13:15:06Z</time>
      </trkpt>
      <trkpt lat="42.83658" lon="0.297">
        <ele>1560.356934</ele>
        <time>2012-12-31T13:15:24Z</time>
      </trkpt>
      <trkpt lat="42.83655" lon="0.29715">
        <ele>1556.992432</ele>
        <time>2012-12-31T13:15:38Z</time>
      </trkpt>
      <trkpt lat="42.83656" lon="0.29727">
        <ele>1554.589111</ele>
        <time>2012-12-31T13:15:49Z</time>
      </trkpt>
      <trkpt lat="42.83656" lon="0.29735">
        <ele>1551.224609</ele>
        <time>2012-12-31T13:16:00Z</time>
      </trkpt>
      <trkpt lat="42.83655" lon="0.2974">
        <ele>1550.743896</ele>
        <time>2012-12-31T13:16:04Z</time>
      </trkpt>
      <trkpt lat="42.83656" lon="0.29752">
        <ele>1547.37915</ele>
        <time>2012-12-31T13:16:17Z</time>
      </trkpt>
      <trkpt lat="42.83654" lon="0.29766">
        <ele>1543.533936</ele>
        <time>2012-12-31T13:16:32Z</time>
      </trkpt>
      <trkpt lat="42.83649" lon="0.29783">
        <ele>1541.130615</ele>
        <time>2012-12-31T13:16:47Z</time>
      </trkpt>
      <trkpt lat="42.83644" lon="0.29805">
        <ele>1538.246826</ele>
        <time>2012-12-31T13:17:01Z</time>
      </trkpt>
      <trkpt lat="42.83641" lon="0.29823">
        <ele>1536.324219</ele>
        <time>2012-12-31T13:17:16Z</time>
      </trkpt>
      <trkpt lat="42.8364" lon="0.29833">
        <ele>1531.998047</ele>
        <time>2012-12-31T13:17:24Z</time>
      </trkpt>
      <trkpt lat="42.83636" lon="0.29846">
        <ele>1531.036865</ele>
        <time>2012-12-31T13:17:35Z</time>
      </trkpt>
      <trkpt lat="42.83635" lon="0.29851">
        <ele>1529.114014</ele>
        <time>2012-12-31T13:17:38Z</time>
      </trkpt>
      <trkpt lat="42.83631" lon="0.2987">
        <ele>1526.230225</ele>
        <time>2012-12-31T13:17:52Z</time>
      </trkpt>
      <trkpt lat="42.83629" lon="0.29875">
        <ele>1525.268799</ele>
        <time>2012-12-31T13:17:57Z</time>
      </trkpt>
      <trkpt lat="42.83628" lon="0.29877">
        <ele>1525.268799</ele>
        <time>2012-12-31T13:18:00Z</time>
      </trkpt>
      <trkpt lat="42.83627" lon="0.29885">
        <ele>1523.826904</ele>
        <time>2012-12-31T13:18:06Z</time>
      </trkpt>
      <trkpt lat="42.83618" lon="0.29908">
        <ele>1522.38501</ele>
        <time>2012-12-31T13:18:24Z</time>
      </trkpt>
      <trkpt lat="42.83617" lon="0.29913">
        <ele>1520.943115</ele>
        <time>2012-12-31T13:18:28Z</time>
      </trkpt>
      <trkpt lat="42.83616" lon="0.29926">
        <ele>1517.578369</ele>
        <time>2012-12-31T13:18:39Z</time>
      </trkpt>
      <trkpt lat="42.83616" lon="0.29927">
        <ele>1517.578369</ele>
        <time>2012-12-31T13:18:40Z</time>
      </trkpt>
      <trkpt lat="42.83614" lon="0.29942">
        <ele>1514.213623</ele>
        <time>2012-12-31T13:18:52Z</time>
      </trkpt>
      <trkpt lat="42.83613" lon="0.29945">
        <ele>1512.291016</ele>
        <time>2012-12-31T13:18:55Z</time>
      </trkpt>
      <trkpt lat="42.83605" lon="0.29966">
        <ele>1509.407227</ele>
        <time>2012-12-31T13:19:11Z</time>
      </trkpt>
      <trkpt lat="42.83605" lon="0.29969">
        <ele>1507.484619</ele>
        <time>2012-12-31T13:19:15Z</time>
      </trkpt>
      <trkpt lat="42.83601" lon="0.29967">
        <ele>1507.484619</ele>
        <time>2012-12-31T13:19:22Z</time>
      </trkpt>
      <trkpt lat="42.83599" lon="0.29962">
        <ele>1506.04248</ele>
        <time>2012-12-31T13:19:26Z</time>
      </trkpt>
      <trkpt lat="42.83596" lon="0.29959">
        <ele>1504.600586</ele>
        <time>2012-12-31T13:19:31Z</time>
      </trkpt>
      <trkpt lat="42.83587" lon="0.29949">
        <ele>1501.236084</ele>
        <time>2012-12-31T13:19:47Z</time>
      </trkpt>
      <trkpt lat="42.83579" lon="0.29935">
        <ele>1499.313232</ele>
        <time>2012-12-31T13:20:01Z</time>
      </trkpt>
      <trkpt lat="42.83579" lon="0.29934">
        <ele>1498.83252</ele>
        <time>2012-12-31T13:20:02Z</time>
      </trkpt>
      <trkpt lat="42.83575" lon="0.29931">
        <ele>1498.351807</ele>
        <time>2012-12-31T13:20:06Z</time>
      </trkpt>
      <trkpt lat="42.83576" lon="0.29918">
        <ele>1494.987305</ele>
        <time>2012-12-31T13:20:16Z</time>
      </trkpt>
      <trkpt lat="42.83575" lon="0.29913">
        <ele>1494.026123</ele>
        <time>2012-12-31T13:20:21Z</time>
      </trkpt>
      <trkpt lat="42.83576" lon="0.29911">
        <ele>1492.584229</ele>
        <time>2012-12-31T13:20:24Z</time>
      </trkpt>
      <trkpt lat="42.83576" lon="0.29908">
        <ele>1493.064697</ele>
        <time>2012-12-31T13:20:41Z</time>
      </trkpt>
      <trkpt lat="42.83575" lon="0.29896">
        <ele>1491.622803</ele>
        <time>2012-12-31T13:20:54Z</time>
      </trkpt>
      <trkpt lat="42.83575" lon="0.29891">
        <ele>1489.219482</ele>
        <time>2012-12-31T13:20:58Z</time>
      </trkpt>
      <trkpt lat="42.83573" lon="0.29886">
        <ele>1484.893799</ele>
        <time>2012-12-31T13:21:03Z</time>
      </trkpt>
      <trkpt lat="42.83573" lon="0.29885">
        <ele>1487.777588</ele>
        <time>2012-12-31T13:21:04Z</time>
      </trkpt>
      <trkpt lat="42.83573" lon="0.29884">
        <ele>1490.661377</ele>
        <time>2012-12-31T13:21:05Z</time>
      </trkpt>
      <trkpt lat="42.83573" lon="0.29883">
        <ele>1488.739014</ele>
        <time>2012-12-31T13:21:06Z</time>
      </trkpt>
      <trkpt lat="42.83573" lon="0.29881">
        <ele>1487.777588</ele>
        <time>2012-12-31T13:21:08Z</time>
      </trkpt>
      <trkpt lat="42.83569" lon="0.29871">
        <ele>1485.374268</ele>
        <time>2012-12-31T13:21:18Z</time>
      </trkpt>
      <trkpt lat="42.83565" lon="0.29859">
        <ele>1482.009521</ele>
        <time>2012-12-31T13:21:28Z</time>
      </trkpt>
      <trkpt lat="42.83561" lon="0.29843">
        <ele>1481.04834</ele>
        <time>2012-12-31T13:21:43Z</time>
      </trkpt>
      <trkpt lat="42.8356" lon="0.29836">
        <ele>1479.606201</ele>
        <time>2012-12-31T13:21:56Z</time>
      </trkpt>
      <trkpt lat="42.83561" lon="0.29841">
        <ele>1481.528809</ele>
        <time>2012-12-31T13:22:08Z</time>
      </trkpt>
      <trkpt lat="42.83561" lon="0.29833">
        <ele>1482.009521</ele>
        <time>2012-12-31T13:22:15Z</time>
      </trkpt>
      <trkpt lat="42.83557" lon="0.29815">
        <ele>1482.970703</ele>
        <time>2012-12-31T13:22:32Z</time>
      </trkpt>
      <trkpt lat="42.83554" lon="0.29806">
        <ele>1483.451416</ele>
        <time>2012-12-31T13:22:46Z</time>
      </trkpt>
      <trkpt lat="42.83548" lon="0.29796">
        <ele>1483.451416</ele>
        <time>2012-12-31T13:23:02Z</time>
      </trkpt>
      <trkpt lat="42.83537" lon="0.29785">
        <ele>1483.932129</ele>
        <time>2012-12-31T13:23:19Z</time>
      </trkpt>
      <trkpt lat="42.83526" lon="0.29772">
        <ele>1484.413086</ele>
        <time>2012-12-31T13:23:35Z</time>
      </trkpt>
      <trkpt lat="42.83513" lon="0.29759">
        <ele>1483.451416</ele>
        <time>2012-12-31T13:23:52Z</time>
      </trkpt>
      <trkpt lat="42.83496" lon="0.29744">
        <ele>1482.490234</ele>
        <time>2012-12-31T13:24:12Z</time>
      </trkpt>
      <trkpt lat="42.8348" lon="0.29738">
        <ele>1480.567627</ele>
        <time>2012-12-31T13:24:30Z</time>
      </trkpt>
      <trkpt lat="42.83472" lon="0.29739">
        <ele>1478.164307</ele>
        <time>2012-12-31T13:24:43Z</time>
      </trkpt>
      <trkpt lat="42.83463" lon="0.29744">
        <ele>1474.799805</ele>
        <time>2012-12-31T13:24:55Z</time>
      </trkpt>
      <trkpt lat="42.83456" lon="0.29752">
        <ele>1471.915771</ele>
        <time>2012-12-31T13:25:10Z</time>
      </trkpt>
      <trkpt lat="42.83453" lon="0.29758">
        <ele>1469.031982</ele>
        <time>2012-12-31T13:25:18Z</time>
      </trkpt>
      <trkpt lat="42.83448" lon="0.29765">
        <ele>1467.109131</ele>
        <time>2012-12-31T13:25:27Z</time>
      </trkpt>
      <trkpt lat="42.83445" lon="0.29771">
        <ele>1466.628418</ele>
        <time>2012-12-31T13:25:34Z</time>
      </trkpt>
      <trkpt lat="42.83444" lon="0.29786">
        <ele>1462.783203</ele>
        <time>2012-12-31T13:25:48Z</time>
      </trkpt>
      <trkpt lat="42.8344" lon="0.2979">
        <ele>1458.937988</ele>
        <time>2012-12-31T13:25:56Z</time>
      </trkpt>
      <trkpt lat="42.83439" lon="0.29789">
        <ele>1462.30249</ele>
        <time>2012-12-31T13:25:58Z</time>
      </trkpt>
      <trkpt lat="42.83438" lon="0.29788">
        <ele>1460.379883</ele>
        <time>2012-12-31T13:25:59Z</time>
      </trkpt>
      <trkpt lat="42.83434" lon="0.29784">
        <ele>1458.457275</ele>
        <time>2012-12-31T13:26:05Z</time>
      </trkpt>
      <trkpt lat="42.83426" lon="0.29778">
        <ele>1455.092773</ele>
        <time>2012-12-31T13:26:17Z</time>
      </trkpt>
      <trkpt lat="42.83417" lon="0.2977">
        <ele>1452.20874</ele>
        <time>2012-12-31T13:26:29Z</time>
      </trkpt>
      <trkpt lat="42.83406" lon="0.29764">
        <ele>1448.363281</ele>
        <time>2012-12-31T13:26:43Z</time>
      </trkpt>
      <trkpt lat="42.83396" lon="0.29764">
        <ele>1444.998779</ele>
        <time>2012-12-31T13:26:55Z</time>
      </trkpt>
      <trkpt lat="42.83395" lon="0.29764">
        <ele>1444.998779</ele>
        <time>2012-12-31T13:26:56Z</time>
      </trkpt>
      <trkpt lat="42.83392" lon="0.29764">
        <ele>1443.076172</ele>
        <time>2012-12-31T13:27:02Z</time>
      </trkpt>
      <trkpt lat="42.83381" lon="0.29761">
        <ele>1440.192383</ele>
        <time>2012-12-31T13:27:17Z</time>
      </trkpt>
      <trkpt lat="42.83376" lon="0.2976">
        <ele>1438.750488</ele>
        <time>2012-12-31T13:27:34Z</time>
      </trkpt>
      <trkpt lat="42.83363" lon="0.29757">
        <ele>1435.866211</ele>
        <time>2012-12-31T13:27:48Z</time>
      </trkpt>
      <trkpt lat="42.83358" lon="0.29754">
        <ele>1435.385498</ele>
        <time>2012-12-31T13:27:54Z</time>
      </trkpt>
      <trkpt lat="42.83351" lon="0.29747">
        <ele>1433.462891</ele>
        <time>2012-12-31T13:28:05Z</time>
      </trkpt>
      <trkpt lat="42.83342" lon="0.29743">
        <ele>1430.098389</ele>
        <time>2012-12-31T13:28:15Z</time>
      </trkpt>
      <trkpt lat="42.83339" lon="0.29742">
        <ele>1426.733887</ele>
        <time>2012-12-31T13:28:19Z</time>
      </trkpt>
      <trkpt lat="42.8333" lon="0.29734">
        <ele>1423.849854</ele>
        <time>2012-12-31T13:28:36Z</time>
      </trkpt>
      <trkpt lat="42.83326" lon="0.29732">
        <ele>1420.485352</ele>
        <time>2012-12-31T13:28:42Z</time>
      </trkpt>
      <trkpt lat="42.83318" lon="0.29725">
        <ele>1417.601074</ele>
        <time>2012-12-31T13:28:55Z</time>
      </trkpt>
      <trkpt lat="42.83309" lon="0.29712">
        <ele>1414.717285</ele>
        <time>2012-12-31T13:29:09Z</time>
      </trkpt>
      <trkpt lat="42.83302" lon="0.29708">
        <ele>1411.833496</ele>
        <time>2012-12-31T13:29:17Z</time>
      </trkpt>
      <trkpt lat="42.833" lon="0.29707">
        <ele>1411.352783</ele>
        <time>2012-12-31T13:29:19Z</time>
      </trkpt>
      <trkpt lat="42.83297" lon="0.29703">
        <ele>1408.949463</ele>
        <time>2012-12-31T13:29:24Z</time>
      </trkpt>
      <trkpt lat="42.83289" lon="0.29695">
        <ele>1405.104248</ele>
        <time>2012-12-31T13:29:38Z</time>
      </trkpt>
      <trkpt lat="42.83289" lon="0.29694">
        <ele>1405.104248</ele>
        <time>2012-12-31T13:29:39Z</time>
      </trkpt>
      <trkpt lat="42.83282" lon="0.29684">
        <ele>1402.219971</ele>
        <time>2012-12-31T13:29:54Z</time>
      </trkpt>
      <trkpt lat="42.83276" lon="0.29672">
        <ele>1398.855469</ele>
        <time>2012-12-31T13:30:08Z</time>
      </trkpt>
      <trkpt lat="42.83273" lon="0.29663">
        <ele>1395.490967</ele>
        <time>2012-12-31T13:30:17Z</time>
      </trkpt>
      <trkpt lat="42.8327" lon="0.29647">
        <ele>1392.126465</ele>
        <time>2012-12-31T13:30:31Z</time>
      </trkpt>
      <trkpt lat="42.83268" lon="0.29637">
        <ele>1390.684326</ele>
        <time>2012-12-31T13:30:40Z</time>
      </trkpt>
      <trkpt lat="42.83266" lon="0.29631">
        <ele>1388.761963</ele>
        <time>2012-12-31T13:30:56Z</time>
      </trkpt>
      <trkpt lat="42.83265" lon="0.29621">
        <ele>1386.838867</ele>
        <time>2012-12-31T13:31:08Z</time>
      </trkpt>
      <trkpt lat="42.83261" lon="0.29602">
        <ele>1382.993652</ele>
        <time>2012-12-31T13:31:20Z</time>
      </trkpt>
      <trkpt lat="42.83258" lon="0.29586">
        <ele>1379.62915</ele>
        <time>2012-12-31T13:31:29Z</time>
      </trkpt>
      <trkpt lat="42.83255" lon="0.29574">
        <ele>1378.187256</ele>
        <time>2012-12-31T13:31:37Z</time>
      </trkpt>
      <trkpt lat="42.83252" lon="0.29562">
        <ele>1377.226074</ele>
        <time>2012-12-31T13:31:45Z</time>
      </trkpt>
      <trkpt lat="42.83248" lon="0.29547">
        <ele>1373.380859</ele>
        <time>2012-12-31T13:31:55Z</time>
      </trkpt>
      <trkpt lat="42.83247" lon="0.29542">
        <ele>1373.861328</ele>
        <time>2012-12-31T13:31:58Z</time>
      </trkpt>
      <trkpt lat="42.83245" lon="0.29521">
        <ele>1371.938477</ele>
        <time>2012-12-31T13:32:10Z</time>
      </trkpt>
      <trkpt lat="42.83244" lon="0.29511">
        <ele>1371.457764</ele>
        <time>2012-12-31T13:32:17Z</time>
      </trkpt>
      <trkpt lat="42.8324" lon="0.29494">
        <ele>1367.13208</ele>
        <time>2012-12-31T13:32:29Z</time>
      </trkpt>
      <trkpt lat="42.83239" lon="0.29486">
        <ele>1367.13208</ele>
        <time>2012-12-31T13:32:34Z</time>
      </trkpt>
      <trkpt lat="42.83237" lon="0.29476">
        <ele>1365.690186</ele>
        <time>2012-12-31T13:32:41Z</time>
      </trkpt>
      <trkpt lat="42.83237" lon="0.29468">
        <ele>1366.170654</ele>
        <time>2012-12-31T13:32:46Z</time>
      </trkpt>
      <trkpt lat="42.83235" lon="0.29453">
        <ele>1362.806152</ele>
        <time>2012-12-31T13:32:58Z</time>
      </trkpt>
      <trkpt lat="42.83236" lon="0.29444">
        <ele>1361.364258</ele>
        <time>2012-12-31T13:33:04Z</time>
      </trkpt>
      <trkpt lat="42.83231" lon="0.29434">
        <ele>1360.402832</ele>
        <time>2012-12-31T13:33:13Z</time>
      </trkpt>
      <trkpt lat="42.83226" lon="0.29431">
        <ele>1359.922119</ele>
        <time>2012-12-31T13:33:17Z</time>
      </trkpt>
      <trkpt lat="42.83221" lon="0.29431">
        <ele>1359.44165</ele>
        <time>2012-12-31T13:33:20Z</time>
      </trkpt>
      <trkpt lat="42.83208" lon="0.29431">
        <ele>1357.999756</ele>
        <time>2012-12-31T13:33:32Z</time>
      </trkpt>
      <trkpt lat="42.83205" lon="0.2943">
        <ele>1357.519043</ele>
        <time>2012-12-31T13:33:34Z</time>
      </trkpt>
      <trkpt lat="42.83202" lon="0.29429">
        <ele>1357.999756</ele>
        <time>2012-12-31T13:33:37Z</time>
      </trkpt>
      <trkpt lat="42.83189" lon="0.29427">
        <ele>1355.115479</ele>
        <time>2012-12-31T13:33:49Z</time>
      </trkpt>
      <trkpt lat="42.83179" lon="0.29423">
        <ele>1353.192871</ele>
        <time>2012-12-31T13:34:00Z</time>
      </trkpt>
      <trkpt lat="42.83171" lon="0.29419">
        <ele>1350.309082</ele>
        <time>2012-12-31T13:34:09Z</time>
      </trkpt>
      <trkpt lat="42.8316" lon="0.29418">
        <ele>1347.425049</ele>
        <time>2012-12-31T13:34:21Z</time>
      </trkpt>
      <trkpt lat="42.8315" lon="0.29416">
        <ele>1345.983154</ele>
        <time>2012-12-31T13:34:30Z</time>
      </trkpt>
      <trkpt lat="42.8314" lon="0.29416">
        <ele>1342.618652</ele>
        <time>2012-12-31T13:34:38Z</time>
      </trkpt>
      <trkpt lat="42.83134" lon="0.29416">
        <ele>1340.215332</ele>
        <time>2012-12-31T13:34:45Z</time>
      </trkpt>
      <trkpt lat="42.83133" lon="0.29417">
        <ele>1339.253662</ele>
        <time>2012-12-31T13:34:47Z</time>
      </trkpt>
      <trkpt lat="42.83126" lon="0.29422">
        <ele>1337.811768</ele>
        <time>2012-12-31T13:34:54Z</time>
      </trkpt>
      <trkpt lat="42.83113" lon="0.29424">
        <ele>1333.966553</ele>
        <time>2012-12-31T13:35:05Z</time>
      </trkpt>
      <trkpt lat="42.83099" lon="0.29424">
        <ele>1333.48584</ele>
        <time>2012-12-31T13:35:16Z</time>
      </trkpt>
      <trkpt lat="42.83094" lon="0.29423">
        <ele>1333.005127</ele>
        <time>2012-12-31T13:35:20Z</time>
      </trkpt>
      <trkpt lat="42.8308" lon="0.29418">
        <ele>1329.640625</ele>
        <time>2012-12-31T13:35:35Z</time>
      </trkpt>
      <trkpt lat="42.83066" lon="0.2942">
        <ele>1326.756836</ele>
        <time>2012-12-31T13:35:51Z</time>
      </trkpt>
      <trkpt lat="42.83063" lon="0.29425">
        <ele>1325.79541</ele>
        <time>2012-12-31T13:35:56Z</time>
      </trkpt>
      <trkpt lat="42.83052" lon="0.29426">
        <ele>1323.872559</ele>
        <time>2012-12-31T13:36:09Z</time>
      </trkpt>
      <trkpt lat="42.83048" lon="0.29425">
        <ele>1322.911377</ele>
        <time>2012-12-31T13:36:13Z</time>
      </trkpt>
      <trkpt lat="42.83044" lon="0.29429">
        <ele>1322.430664</ele>
        <time>2012-12-31T13:36:17Z</time>
      </trkpt>
      <trkpt lat="42.83055" lon="0.29438">
        <ele>1320.98877</ele>
        <time>2012-12-31T13:36:28Z</time>
      </trkpt>
      <trkpt lat="42.83067" lon="0.2945">
        <ele>1319.066162</ele>
        <time>2012-12-31T13:36:43Z</time>
      </trkpt>
      <trkpt lat="42.83072" lon="0.29453">
        <ele>1316.182129</ele>
        <time>2012-12-31T13:36:51Z</time>
      </trkpt>
      <trkpt lat="42.83079" lon="0.29461">
        <ele>1314.259521</ele>
        <time>2012-12-31T13:37:04Z</time>
      </trkpt>
      <trkpt lat="42.83087" lon="0.29475">
        <ele>1310.89502</ele>
        <time>2012-12-31T13:37:20Z</time>
      </trkpt>
      <trkpt lat="42.83093" lon="0.29483">
        <ele>1307.530273</ele>
        <time>2012-12-31T13:37:32Z</time>
      </trkpt>
      <trkpt lat="42.83094" lon="0.29485">
        <ele>1308.01123</ele>
        <time>2012-12-31T13:37:34Z</time>
      </trkpt>
      <trkpt lat="42.83098" lon="0.29497">
        <ele>1307.049561</ele>
        <time>2012-12-31T13:37:43Z</time>
      </trkpt>
      <trkpt lat="42.83096" lon="0.29513">
        <ele>1305.607666</ele>
        <time>2012-12-31T13:37:56Z</time>
      </trkpt>
      <trkpt lat="42.83092" lon="0.29537">
        <ele>1302.24292</ele>
        <time>2012-12-31T13:38:12Z</time>
      </trkpt>
      <trkpt lat="42.83091" lon="0.29551">
        <ele>1299.839844</ele>
        <time>2012-12-31T13:38:27Z</time>
      </trkpt>
      <trkpt lat="42.83092" lon="0.29572">
        <ele>1298.397705</ele>
        <time>2012-12-31T13:38:41Z</time>
      </trkpt>
      <trkpt lat="42.83092" lon="0.29578">
        <ele>1297.436523</ele>
        <time>2012-12-31T13:38:48Z</time>
      </trkpt>
      <trkpt lat="42.83092" lon="0.2958">
        <ele>1299.359131</ele>
        <time>2012-12-31T13:38:53Z</time>
      </trkpt>
      <trkpt lat="42.83092" lon="0.29584">
        <ele>1299.359131</ele>
        <time>2012-12-31T13:39:00Z</time>
      </trkpt>
      <trkpt lat="42.83092" lon="0.29585">
        <ele>1297.436523</ele>
        <time>2012-12-31T13:39:02Z</time>
      </trkpt>
      <trkpt lat="42.83095" lon="0.29605">
        <ele>1296.475342</ele>
        <time>2012-12-31T13:39:18Z</time>
      </trkpt>
      <trkpt lat="42.83097" lon="0.29626">
        <ele>1295.994629</ele>
        <time>2012-12-31T13:39:34Z</time>
      </trkpt>
      <trkpt lat="42.831" lon="0.29649">
        <ele>1293.591309</ele>
        <time>2012-12-31T13:39:50Z</time>
      </trkpt>
      <trkpt lat="42.83099" lon="0.29653">
        <ele>1293.591309</ele>
        <time>2012-12-31T13:40:03Z</time>
      </trkpt>
      <trkpt lat="42.831" lon="0.29656">
        <ele>1293.110596</ele>
        <time>2012-12-31T13:40:05Z</time>
      </trkpt>
      <trkpt lat="42.83099" lon="0.29661">
        <ele>1291.668457</ele>
        <time>2012-12-31T13:40:17Z</time>
      </trkpt>
      <trkpt lat="42.83096" lon="0.29663">
        <ele>1292.630127</ele>
        <time>2012-12-31T13:40:34Z</time>
      </trkpt>
      <trkpt lat="42.83094" lon="0.29668">
        <ele>1290.707031</ele>
        <time>2012-12-31T13:40:52Z</time>
      </trkpt>
      <trkpt lat="42.83094" lon="0.29673">
        <ele>1290.226562</ele>
        <time>2012-12-31T13:41:00Z</time>
      </trkpt>
      <trkpt lat="42.83094" lon="0.29679">
        <ele>1290.707031</ele>
        <time>2012-12-31T13:41:12Z</time>
      </trkpt>
      <trkpt lat="42.83094" lon="0.29681">
        <ele>1289.74585</ele>
        <time>2012-12-31T13:41:15Z</time>
      </trkpt>
      <trkpt lat="42.83093" lon="0.29681">
        <ele>1289.74585</ele>
        <time>2012-12-31T13:41:16Z</time>
      </trkpt>
      <trkpt lat="42.83098" lon="0.29687">
        <ele>1289.265137</ele>
        <time>2012-12-31T13:41:29Z</time>
      </trkpt>
      <trkpt lat="42.83098" lon="0.29685">
        <ele>1289.265137</ele>
        <time>2012-12-31T13:41:49Z</time>
      </trkpt>
      <trkpt lat="42.83098" lon="0.29684">
        <ele>1288.784668</ele>
        <time>2012-12-31T13:42:09Z</time>
      </trkpt>
      <trkpt lat="42.83097" lon="0.29687">
        <ele>1290.226562</ele>
        <time>2012-12-31T13:42:28Z</time>
      </trkpt>
      <trkpt lat="42.83095" lon="0.29685">
        <ele>1290.226562</ele>
        <time>2012-12-31T13:42:39Z</time>
      </trkpt>
      <trkpt lat="42.83088" lon="0.29687">
        <ele>1289.74585</ele>
        <time>2012-12-31T13:42:46Z</time>
      </trkpt>
      <trkpt lat="42.83086" lon="0.29696">
        <ele>1288.784668</ele>
        <time>2012-12-31T13:42:59Z</time>
      </trkpt>
      <trkpt lat="42.83086" lon="0.29698">
        <ele>1289.74585</ele>
        <time>2012-12-31T13:43:01Z</time>
      </trkpt>
      <trkpt lat="42.83085" lon="0.29706">
        <ele>1288.784668</ele>
        <time>2012-12-31T13:43:10Z</time>
      </trkpt>
      <trkpt lat="42.83084" lon="0.29709">
        <ele>1288.303955</ele>
        <time>2012-12-31T13:43:34Z</time>
      </trkpt>
      <trkpt lat="42.83085" lon="0.29734">
        <ele>1287.342529</ele>
        <time>2012-12-31T13:43:49Z</time>
      </trkpt>
      <trkpt lat="42.83083" lon="0.29757">
        <ele>1284.939453</ele>
        <time>2012-12-31T13:44:03Z</time>
      </trkpt>
      <trkpt lat="42.83081" lon="0.29781">
        <ele>1283.497314</ele>
        <time>2012-12-31T13:44:18Z</time>
      </trkpt>
      <trkpt lat="42.8308" lon="0.29787">
        <ele>1283.016602</ele>
        <time>2012-12-31T13:44:22Z</time>
      </trkpt>
      <trkpt lat="42.8308" lon="0.29808">
        <ele>1280.132812</ele>
        <time>2012-12-31T13:44:35Z</time>
      </trkpt>
      <trkpt lat="42.8308" lon="0.29836">
        <ele>1279.6521</ele>
        <time>2012-12-31T13:44:51Z</time>
      </trkpt>
      <trkpt lat="42.8308" lon="0.29852">
        <ele>1278.210205</ele>
        <time>2012-12-31T13:45:00Z</time>
      </trkpt>
      <trkpt lat="42.8308" lon="0.29876">
        <ele>1274.845459</ele>
        <time>2012-12-31T13:45:14Z</time>
      </trkpt>
      <trkpt lat="42.8308" lon="0.29882">
        <ele>1277.729492</ele>
        <time>2012-12-31T13:45:18Z</time>
      </trkpt>
      <trkpt lat="42.8308" lon="0.29884">
        <ele>1275.806641</ele>
        <time>2012-12-31T13:45:19Z</time>
      </trkpt>
      <trkpt lat="42.8308" lon="0.29885">
        <ele>1272.442139</ele>
        <time>2012-12-31T13:45:20Z</time>
      </trkpt>
      <trkpt lat="42.8308" lon="0.29887">
        <ele>1276.768311</ele>
        <time>2012-12-31T13:45:21Z</time>
      </trkpt>
      <trkpt lat="42.8308" lon="0.2989">
        <ele>1274.364746</ele>
        <time>2012-12-31T13:45:23Z</time>
      </trkpt>
      <trkpt lat="42.83082" lon="0.29915">
        <ele>1273.403564</ele>
        <time>2012-12-31T13:45:37Z</time>
      </trkpt>
      <trkpt lat="42.83084" lon="0.2994">
        <ele>1270.519531</ele>
        <time>2012-12-31T13:45:52Z</time>
      </trkpt>
      <trkpt lat="42.83086" lon="0.29958">
        <ele>1268.596924</ele>
        <time>2012-12-31T13:46:03Z</time>
      </trkpt>
      <trkpt lat="42.83089" lon="0.29984">
        <ele>1265.713135</ele>
        <time>2012-12-31T13:46:21Z</time>
      </trkpt>
      <trkpt lat="42.8309" lon="0.29985">
        <ele>1266.193604</ele>
        <time>2012-12-31T13:46:22Z</time>
      </trkpt>
      <trkpt lat="42.83089" lon="0.29988">
        <ele>1265.713135</ele>
        <time>2012-12-31T13:46:24Z</time>
      </trkpt>
      <trkpt lat="42.83086" lon="0.29987">
        <ele>1265.232422</ele>
        <time>2012-12-31T13:46:39Z</time>
      </trkpt>
      <trkpt lat="42.83086" lon="0.29987">
        <ele>1265.713135</ele>
        <time>2012-12-31T13:46:44Z</time>
      </trkpt>
      <trkpt lat="42.83079" lon="0.29969">
        <ele>1262.829102</ele>
        <time>2012-12-31T13:46:58Z</time>
      </trkpt>
      <trkpt lat="42.83072" lon="0.29953">
        <ele>1261.387207</ele>
        <time>2012-12-31T13:47:08Z</time>
      </trkpt>
      <trkpt lat="42.83068" lon="0.29942">
        <ele>1259.464355</ele>
        <time>2012-12-31T13:47:20Z</time>
      </trkpt>
      <trkpt lat="42.83063" lon="0.29929">
        <ele>1258.983643</ele>
        <time>2012-12-31T13:47:29Z</time>
      </trkpt>
      <trkpt lat="42.83057" lon="0.29909">
        <ele>1261.387207</ele>
        <time>2012-12-31T13:47:43Z</time>
      </trkpt>
      <trkpt lat="42.83055" lon="0.29893">
        <ele>1260.906494</ele>
        <time>2012-12-31T13:47:54Z</time>
      </trkpt>
      <trkpt lat="42.83054" lon="0.29894">
        <ele>1258.983643</ele>
        <time>2012-12-31T13:47:59Z</time>
      </trkpt>
      <trkpt lat="42.83052" lon="0.29903">
        <ele>1256.580322</ele>
        <time>2012-12-31T13:48:09Z</time>
      </trkpt>
      <trkpt lat="42.83049" lon="0.2991">
        <ele>1255.138428</ele>
        <time>2012-12-31T13:48:18Z</time>
      </trkpt>
      <trkpt lat="42.83045" lon="0.29919">
        <ele>1252.735107</ele>
        <time>2012-12-31T13:48:27Z</time>
      </trkpt>
      <trkpt lat="42.83046" lon="0.29929">
        <ele>1248.889893</ele>
        <time>2012-12-31T13:48:37Z</time>
      </trkpt>
      <trkpt lat="42.83046" lon="0.29937">
        <ele>1246.006104</ele>
        <time>2012-12-31T13:48:48Z</time>
      </trkpt>
      <trkpt lat="42.83047" lon="0.29942">
        <ele>1244.563965</ele>
        <time>2012-12-31T13:49:03Z</time>
      </trkpt>
      <trkpt lat="42.83045" lon="0.29949">
        <ele>1241.199219</ele>
        <time>2012-12-31T13:49:15Z</time>
      </trkpt>
      <trkpt lat="42.83045" lon="0.2995">
        <ele>1241.199219</ele>
        <time>2012-12-31T13:49:16Z</time>
      </trkpt>
      <trkpt lat="42.83043" lon="0.29951">
        <ele>1240.238037</ele>
        <time>2012-12-31T13:49:20Z</time>
      </trkpt>
      <trkpt lat="42.83041" lon="0.29954">
        <ele>1237.354004</ele>
        <time>2012-12-31T13:49:28Z</time>
      </trkpt>
      <trkpt lat="42.83041" lon="0.29954">
        <ele>1240.718506</ele>
        <time>2012-12-31T13:49:29Z</time>
      </trkpt>
      <trkpt lat="42.8304" lon="0.29958">
        <ele>1237.834717</ele>
        <time>2012-12-31T13:49:36Z</time>
      </trkpt>
      <trkpt lat="42.83039" lon="0.29971">
        <ele>1234.470215</ele>
        <time>2012-12-31T13:49:49Z</time>
      </trkpt>
      <trkpt lat="42.83038" lon="0.29972">
        <ele>1233.989502</ele>
        <time>2012-12-31T13:49:51Z</time>
      </trkpt>
      <trkpt lat="42.83038" lon="0.29972">
        <ele>1234.470215</ele>
        <time>2012-12-31T13:49:52Z</time>
      </trkpt>
      <trkpt lat="42.83039" lon="0.29981">
        <ele>1234.470215</ele>
        <time>2012-12-31T13:50:04Z</time>
      </trkpt>
      <trkpt lat="42.83037" lon="0.29984">
        <ele>1233.508789</ele>
        <time>2012-12-31T13:50:17Z</time>
      </trkpt>
      <trkpt lat="42.83037" lon="0.2999">
        <ele>1233.989502</ele>
        <time>2012-12-31T13:50:49Z</time>
      </trkpt>
      <trkpt lat="42.83042" lon="0.29996">
        <ele>1235.912109</ele>
        <time>2012-12-31T13:51:03Z</time>
      </trkpt>
      <trkpt lat="42.83038" lon="0.29986">
        <ele>1233.028076</ele>
        <time>2012-12-31T13:51:23Z</time>
      </trkpt>
      <trkpt lat="42.83037" lon="0.29986">
        <ele>1234.470215</ele>
        <time>2012-12-31T13:51:42Z</time>
      </trkpt>
      <trkpt lat="42.83045" lon="0.29982">
        <ele>1233.508789</ele>
        <time>2012-12-31T13:52:01Z</time>
      </trkpt>
      <trkpt lat="42.83038" lon="0.29983">
        <ele>1232.547607</ele>
        <time>2012-12-31T13:52:36Z</time>
      </trkpt>
      <trkpt lat="42.83038" lon="0.29983">
        <ele>1233.508789</ele>
        <time>2012-12-31T13:52:40Z</time>
      </trkpt>
      <trkpt lat="42.83035" lon="0.29987">
        <ele>1234.470215</ele>
        <time>2012-12-31T13:52:51Z</time>
      </trkpt>
      <trkpt lat="42.8304" lon="0.29996">
        <ele>1234.950928</ele>
        <time>2012-12-31T13:53:05Z</time>
      </trkpt>
      <trkpt lat="42.83041" lon="0.29997">
        <ele>1230.144287</ele>
        <time>2012-12-31T13:53:08Z</time>
      </trkpt>
      <trkpt lat="42.83041" lon="0.29998">
        <ele>1233.028076</ele>
        <time>2012-12-31T13:53:09Z</time>
      </trkpt>
      <trkpt lat="42.83041" lon="0.29999">
        <ele>1238.31543</ele>
        <time>2012-12-31T13:53:10Z</time>
      </trkpt>
      <trkpt lat="42.83041" lon="0.3">
        <ele>1238.31543</ele>
        <time>2012-12-31T13:53:11Z</time>
      </trkpt>
      <trkpt lat="42.83042" lon="0.30001">
        <ele>1231.105713</ele>
        <time>2012-12-31T13:53:12Z</time>
      </trkpt>
      <trkpt lat="42.83042" lon="0.30002">
        <ele>1237.834717</ele>
        <time>2012-12-31T13:53:13Z</time>
      </trkpt>
      <trkpt lat="42.83042" lon="0.30003">
        <ele>1234.470215</ele>
        <time>2012-12-31T13:53:14Z</time>
      </trkpt>
      <trkpt lat="42.83044" lon="0.30006">
        <ele>1230.625</ele>
        <time>2012-12-31T13:53:17Z</time>
      </trkpt>
      <trkpt lat="42.83044" lon="0.30007">
        <ele>1231.586182</ele>
        <time>2012-12-31T13:53:18Z</time>
      </trkpt>
      <trkpt lat="42.83045" lon="0.30008">
        <ele>1235.912109</ele>
        <time>2012-12-31T13:53:19Z</time>
      </trkpt>
      <trkpt lat="42.83045" lon="0.30009">
        <ele>1231.586182</ele>
        <time>2012-12-31T13:53:20Z</time>
      </trkpt>
      <trkpt lat="42.83045" lon="0.3001">
        <ele>1235.431396</ele>
        <time>2012-12-31T13:53:21Z</time>
      </trkpt>
      <trkpt lat="42.83046" lon="0.30015">
        <ele>1230.625</ele>
        <time>2012-12-31T13:53:25Z</time>
      </trkpt>
      <trkpt lat="42.83046" lon="0.30016">
        <ele>1231.105713</ele>
        <time>2012-12-31T13:53:26Z</time>
      </trkpt>
      <trkpt lat="42.83046" lon="0.30018">
        <ele>1235.912109</ele>
        <time>2012-12-31T13:53:27Z</time>
      </trkpt>
      <trkpt lat="42.83047" lon="0.3002">
        <ele>1233.508789</ele>
        <time>2012-12-31T13:53:28Z</time>
      </trkpt>
      <trkpt lat="42.83046" lon="0.30021">
        <ele>1233.028076</ele>
        <time>2012-12-31T13:53:30Z</time>
      </trkpt>
      <trkpt lat="42.83048" lon="0.30032">
        <ele>1231.586182</ele>
        <time>2012-12-31T13:53:42Z</time>
      </trkpt>
      <trkpt lat="42.83048" lon="0.30028">
        <ele>1231.586182</ele>
        <time>2012-12-31T13:54:03Z</time>
      </trkpt>
      <trkpt lat="42.83045" lon="0.30009">
        <ele>1233.028076</ele>
        <time>2012-12-31T13:54:15Z</time>
      </trkpt>
      <trkpt lat="42.83044" lon="0.29996">
        <ele>1235.431396</ele>
        <time>2012-12-31T13:54:26Z</time>
      </trkpt>
      <trkpt lat="42.83037" lon="0.29978">
        <ele>1233.989502</ele>
        <time>2012-12-31T13:54:38Z</time>
      </trkpt>
      <trkpt lat="42.8303" lon="0.29957">
        <ele>1228.702393</ele>
        <time>2012-12-31T13:54:51Z</time>
      </trkpt>
      <trkpt lat="42.83025" lon="0.29952">
        <ele>1232.066895</ele>
        <time>2012-12-31T13:54:55Z</time>
      </trkpt>
      <trkpt lat="42.83013" lon="0.29927">
        <ele>1228.22168</ele>
        <time>2012-12-31T13:55:11Z</time>
      </trkpt>
      <trkpt lat="42.83008" lon="0.29913">
        <ele>1226.779541</ele>
        <time>2012-12-31T13:55:22Z</time>
      </trkpt>
      <trkpt lat="42.83006" lon="0.29909">
        <ele>1226.779541</ele>
        <time>2012-12-31T13:55:36Z</time>
      </trkpt>
      <trkpt lat="42.83009" lon="0.29915">
        <ele>1223.895508</ele>
        <time>2012-12-31T13:55:41Z</time>
      </trkpt>
      <trkpt lat="42.8301" lon="0.29918">
        <ele>1229.182861</ele>
        <time>2012-12-31T13:55:43Z</time>
      </trkpt>
      <trkpt lat="42.83011" lon="0.29919">
        <ele>1226.779541</ele>
        <time>2012-12-31T13:55:44Z</time>
      </trkpt>
      <trkpt lat="42.83021" lon="0.29938">
        <ele>1229.182861</ele>
        <time>2012-12-31T13:55:59Z</time>
      </trkpt>
      <trkpt lat="42.8303" lon="0.29958">
        <ele>1232.547607</ele>
        <time>2012-12-31T13:56:14Z</time>
      </trkpt>
      <trkpt lat="42.83032" lon="0.29961">
        <ele>1232.066895</ele>
        <time>2012-12-31T13:56:16Z</time>
      </trkpt>
      <trkpt lat="42.83034" lon="0.29968">
        <ele>1233.989502</ele>
        <time>2012-12-31T13:56:21Z</time>
      </trkpt>
      <trkpt lat="42.83035" lon="0.29982">
        <ele>1231.105713</ele>
        <time>2012-12-31T13:56:35Z</time>
      </trkpt>
      <trkpt lat="42.83035" lon="0.29993">
        <ele>1227.740723</ele>
        <time>2012-12-31T13:56:46Z</time>
      </trkpt>
      <trkpt lat="42.83033" lon="0.30006">
        <ele>1224.376221</ele>
        <time>2012-12-31T13:57:03Z</time>
      </trkpt>
      <trkpt lat="42.83033" lon="0.30009">
        <ele>1217.166504</ele>
        <time>2012-12-31T13:57:06Z</time>
      </trkpt>
      <trkpt lat="42.83033" lon="0.30009">
        <ele>1223.415039</ele>
        <time>2012-12-31T13:57:07Z</time>
      </trkpt>
      <trkpt lat="42.8303" lon="0.30017">
        <ele>1221.9729</ele>
        <time>2012-12-31T13:57:19Z</time>
      </trkpt>
      <trkpt lat="42.83028" lon="0.30029">
        <ele>1218.127686</ele>
        <time>2012-12-31T13:57:29Z</time>
      </trkpt>
      <trkpt lat="42.83028" lon="0.3003">
        <ele>1218.127686</ele>
        <time>2012-12-31T13:57:30Z</time>
      </trkpt>
      <trkpt lat="42.83027" lon="0.30038">
        <ele>1217.166504</ele>
        <time>2012-12-31T13:57:44Z</time>
      </trkpt>
      <trkpt lat="42.83027" lon="0.30039">
        <ele>1217.166504</ele>
        <time>2012-12-31T13:57:46Z</time>
      </trkpt>
      <trkpt lat="42.83025" lon="0.3005">
        <ele>1215.724609</ele>
        <time>2012-12-31T13:58:02Z</time>
      </trkpt>
      <trkpt lat="42.83024" lon="0.30059">
        <ele>1213.801758</ele>
        <time>2012-12-31T13:58:23Z</time>
      </trkpt>
      <trkpt lat="42.83023" lon="0.30072">
        <ele>1210.917725</ele>
        <time>2012-12-31T13:58:39Z</time>
      </trkpt>
      <trkpt lat="42.83021" lon="0.30078">
        <ele>1209.47583</ele>
        <time>2012-12-31T13:58:53Z</time>
      </trkpt>
      <trkpt lat="42.8302" lon="0.30082">
        <ele>1206.111084</ele>
        <time>2012-12-31T13:59:04Z</time>
      </trkpt>
      <trkpt lat="42.83018" lon="0.30091">
        <ele>1202.746582</ele>
        <time>2012-12-31T13:59:16Z</time>
      </trkpt>
      <trkpt lat="42.83017" lon="0.30097">
        <ele>1200.343506</ele>
        <time>2012-12-31T13:59:27Z</time>
      </trkpt>
      <trkpt lat="42.83014" lon="0.30109">
        <ele>1198.420654</ele>
        <time>2012-12-31T13:59:40Z</time>
      </trkpt>
      <trkpt lat="42.83012" lon="0.30117">
        <ele>1196.498291</ele>
        <time>2012-12-31T13:59:48Z</time>
      </trkpt>
      <trkpt lat="42.83009" lon="0.30126">
        <ele>1193.133301</ele>
        <time>2012-12-31T13:59:59Z</time>
      </trkpt>
      <trkpt lat="42.83006" lon="0.30137">
        <ele>1190.249512</ele>
        <time>2012-12-31T14:00:12Z</time>
      </trkpt>
      <trkpt lat="42.83004" lon="0.30146">
        <ele>1186.404297</ele>
        <time>2012-12-31T14:00:25Z</time>
      </trkpt>
      <trkpt lat="42.83004" lon="0.30147">
        <ele>1186.404297</ele>
        <time>2012-12-31T14:00:26Z</time>
      </trkpt>
      <trkpt lat="42.83003" lon="0.30158">
        <ele>1183.520264</ele>
        <time>2012-12-31T14:00:38Z</time>
      </trkpt>
      <trkpt lat="42.83" lon="0.30167">
        <ele>1180.636475</ele>
        <time>2012-12-31T14:00:51Z</time>
      </trkpt>
      <trkpt lat="42.82997" lon="0.30168">
        <ele>1178.713623</ele>
        <time>2012-12-31T14:01:07Z</time>
      </trkpt>
      <trkpt lat="42.82997" lon="0.30171">
        <ele>1177.271729</ele>
        <time>2012-12-31T14:01:10Z</time>
      </trkpt>
      <trkpt lat="42.82999" lon="0.3018">
        <ele>1176.310303</ele>
        <time>2012-12-31T14:01:22Z</time>
      </trkpt>
      <trkpt lat="42.83" lon="0.30184">
        <ele>1175.348877</ele>
        <time>2012-12-31T14:01:32Z</time>
      </trkpt>
      <trkpt lat="42.83001" lon="0.3019">
        <ele>1174.387695</ele>
        <time>2012-12-31T14:01:47Z</time>
      </trkpt>
      <trkpt lat="42.82998" lon="0.30196">
        <ele>1172.465088</ele>
        <time>2012-12-31T14:01:55Z</time>
      </trkpt>
      <trkpt lat="42.82995" lon="0.30199">
        <ele>1171.984375</ele>
        <time>2012-12-31T14:02:09Z</time>
      </trkpt>
      <trkpt lat="42.82997" lon="0.30205">
        <ele>1172.945801</ele>
        <time>2012-12-31T14:02:29Z</time>
      </trkpt>
      <trkpt lat="42.82992" lon="0.30222">
        <ele>1170.061768</ele>
        <time>2012-12-31T14:02:43Z</time>
      </trkpt>
      <trkpt lat="42.82992" lon="0.30226">
        <ele>1169.100586</ele>
        <time>2012-12-31T14:02:46Z</time>
      </trkpt>
      <trkpt lat="42.82988" lon="0.30232">
        <ele>1168.619873</ele>
        <time>2012-12-31T14:03:03Z</time>
      </trkpt>
      <trkpt lat="42.82989" lon="0.30229">
        <ele>1168.619873</ele>
        <time>2012-12-31T14:03:07Z</time>
      </trkpt>
      <trkpt lat="42.82985" lon="0.30213">
        <ele>1165.255371</ele>
        <time>2012-12-31T14:03:20Z</time>
      </trkpt>
      <trkpt lat="42.82984" lon="0.30209">
        <ele>1165.736084</ele>
        <time>2012-12-31T14:03:35Z</time>
      </trkpt>
      <trkpt lat="42.82981" lon="0.30198">
        <ele>1164.774658</ele>
        <time>2012-12-31T14:03:48Z</time>
      </trkpt>
      <trkpt lat="42.82975" lon="0.30186">
        <ele>1162.851807</ele>
        <time>2012-12-31T14:04:00Z</time>
      </trkpt>
      <trkpt lat="42.82969" lon="0.30185">
        <ele>1160.929199</ele>
        <time>2012-12-31T14:04:09Z</time>
      </trkpt>
      <trkpt lat="42.82967" lon="0.30185">
        <ele>1158.04541</ele>
        <time>2012-12-31T14:04:12Z</time>
      </trkpt>
      <trkpt lat="42.82964" lon="0.30185">
        <ele>1156.603271</ele>
        <time>2012-12-31T14:04:16Z</time>
      </trkpt>
      <trkpt lat="42.82966" lon="0.30188">
        <ele>1157.564697</ele>
        <time>2012-12-31T14:04:22Z</time>
      </trkpt>
      <trkpt lat="42.82972" lon="0.30202">
        <ele>1156.122559</ele>
        <time>2012-12-31T14:04:35Z</time>
      </trkpt>
      <trkpt lat="42.82969" lon="0.30225">
        <ele>1155.161377</ele>
        <time>2012-12-31T14:04:51Z</time>
      </trkpt>
      <trkpt lat="42.82966" lon="0.30232">
        <ele>1148.912842</ele>
        <time>2012-12-31T14:04:57Z</time>
      </trkpt>
      <trkpt lat="42.82966" lon="0.30233">
        <ele>1153.23877</ele>
        <time>2012-12-31T14:04:58Z</time>
      </trkpt>
      <trkpt lat="42.82966" lon="0.30234">
        <ele>1156.603271</ele>
        <time>2012-12-31T14:04:59Z</time>
      </trkpt>
      <trkpt lat="42.82965" lon="0.30236">
        <ele>1152.758057</ele>
        <time>2012-12-31T14:05:01Z</time>
      </trkpt>
      <trkpt lat="42.82965" lon="0.30237">
        <ele>1152.758057</ele>
        <time>2012-12-31T14:05:02Z</time>
      </trkpt>
      <trkpt lat="42.82959" lon="0.30251">
        <ele>1149.393555</ele>
        <time>2012-12-31T14:05:16Z</time>
      </trkpt>
      <trkpt lat="42.82956" lon="0.30255">
        <ele>1146.509521</ele>
        <time>2012-12-31T14:05:28Z</time>
      </trkpt>
      <trkpt lat="42.82952" lon="0.30269">
        <ele>1144.58667</ele>
        <time>2012-12-31T14:05:42Z</time>
      </trkpt>
      <trkpt lat="42.82956" lon="0.30281">
        <ele>1146.509521</ele>
        <time>2012-12-31T14:05:55Z</time>
      </trkpt>
      <trkpt lat="42.82957" lon="0.30284">
        <ele>1146.509521</ele>
        <time>2012-12-31T14:05:58Z</time>
      </trkpt>
      <trkpt lat="42.82956" lon="0.30286">
        <ele>1146.509521</ele>
        <time>2012-12-31T14:06:08Z</time>
      </trkpt>
      <trkpt lat="42.82952" lon="0.30276">
        <ele>1146.028809</ele>
        <time>2012-12-31T14:06:21Z</time>
      </trkpt>
      <trkpt lat="42.82952" lon="0.30277">
        <ele>1145.067383</ele>
        <time>2012-12-31T14:06:22Z</time>
      </trkpt>
      <trkpt lat="42.82949" lon="0.30284">
        <ele>1142.664307</ele>
        <time>2012-12-31T14:06:31Z</time>
      </trkpt>
      <trkpt lat="42.82948" lon="0.30286">
        <ele>1142.183594</ele>
        <time>2012-12-31T14:06:33Z</time>
      </trkpt>
      <trkpt lat="42.82946" lon="0.3029">
        <ele>1140.741455</ele>
        <time>2012-12-31T14:06:38Z</time>
      </trkpt>
      <trkpt lat="42.82944" lon="0.30295">
        <ele>1138.819092</ele>
        <time>2012-12-31T14:06:53Z</time>
      </trkpt>
      <trkpt lat="42.82944" lon="0.30302">
        <ele>1135.935059</ele>
        <time>2012-12-31T14:07:04Z</time>
      </trkpt>
      <trkpt lat="42.82944" lon="0.30308">
        <ele>1134.973877</ele>
        <time>2012-12-31T14:07:16Z</time>
      </trkpt>
      <trkpt lat="42.82941" lon="0.30312">
        <ele>1132.570557</ele>
        <time>2012-12-31T14:07:29Z</time>
      </trkpt>
      <trkpt lat="42.82938" lon="0.30313">
        <ele>1132.089844</ele>
        <time>2012-12-31T14:07:40Z</time>
      </trkpt>
      <trkpt lat="42.82939" lon="0.3031">
        <ele>1133.531738</ele>
        <time>2012-12-31T14:07:55Z</time>
      </trkpt>
      <trkpt lat="42.82937" lon="0.30319">
        <ele>1130.166992</ele>
        <time>2012-12-31T14:08:16Z</time>
      </trkpt>
      <trkpt lat="42.82944" lon="0.30324">
        <ele>1127.283203</ele>
        <time>2012-12-31T14:08:27Z</time>
      </trkpt>
      <trkpt lat="42.8295" lon="0.30332">
        <ele>1125.360352</ele>
        <time>2012-12-31T14:08:38Z</time>
      </trkpt>
      <trkpt lat="42.8295" lon="0.3034">
        <ele>1121.99585</ele>
        <time>2012-12-31T14:08:46Z</time>
      </trkpt>
      <trkpt lat="42.82945" lon="0.30347">
        <ele>1119.592773</ele>
        <time>2012-12-31T14:08:58Z</time>
      </trkpt>
      <trkpt lat="42.82941" lon="0.30346">
        <ele>1116.228027</ele>
        <time>2012-12-31T14:09:07Z</time>
      </trkpt>
      <trkpt lat="42.82939" lon="0.30346">
        <ele>1113.343994</ele>
        <time>2012-12-31T14:09:18Z</time>
      </trkpt>
      <trkpt lat="42.82935" lon="0.3035">
        <ele>1111.421387</ele>
        <time>2012-12-31T14:09:24Z</time>
      </trkpt>
      <trkpt lat="42.82927" lon="0.30352">
        <ele>1109.979248</ele>
        <time>2012-12-31T14:09:36Z</time>
      </trkpt>
      <trkpt lat="42.82923" lon="0.30353">
        <ele>1108.537354</ele>
        <time>2012-12-31T14:09:48Z</time>
      </trkpt>
      <trkpt lat="42.82921" lon="0.30357">
        <ele>1108.056885</ele>
        <time>2012-12-31T14:10:06Z</time>
      </trkpt>
      <trkpt lat="42.82914" lon="0.30355">
        <ele>1105.172852</ele>
        <time>2012-12-31T14:10:19Z</time>
      </trkpt>
      <trkpt lat="42.82912" lon="0.30354">
        <ele>1104.692139</ele>
        <time>2012-12-31T14:10:21Z</time>
      </trkpt>
      <trkpt lat="42.82907" lon="0.30354">
        <ele>1105.172852</ele>
        <time>2012-12-31T14:10:24Z</time>
      </trkpt>
      <trkpt lat="42.82903" lon="0.30357">
        <ele>1104.21167</ele>
        <time>2012-12-31T14:10:27Z</time>
      </trkpt>
      <trkpt lat="42.82893" lon="0.30354">
        <ele>1103.250244</ele>
        <time>2012-12-31T14:10:38Z</time>
      </trkpt>
      <trkpt lat="42.82893" lon="0.30352">
        <ele>1102.769531</ele>
        <time>2012-12-31T14:10:49Z</time>
      </trkpt>
      <trkpt lat="42.82896" lon="0.30354">
        <ele>1096.520996</ele>
        <time>2012-12-31T14:10:53Z</time>
      </trkpt>
      <trkpt lat="42.82895" lon="0.30355">
        <ele>1100.846924</ele>
        <time>2012-12-31T14:10:54Z</time>
      </trkpt>
      <trkpt lat="42.82896" lon="0.30355">
        <ele>1104.692139</ele>
        <time>2012-12-31T14:10:55Z</time>
      </trkpt>
      <trkpt lat="42.82897" lon="0.30355">
        <ele>1097.962891</ele>
        <time>2012-12-31T14:10:56Z</time>
      </trkpt>
      <trkpt lat="42.82898" lon="0.30355">
        <ele>1104.692139</ele>
        <time>2012-12-31T14:10:57Z</time>
      </trkpt>
      <trkpt lat="42.82899" lon="0.30355">
        <ele>1100.366455</ele>
        <time>2012-12-31T14:10:58Z</time>
      </trkpt>
      <trkpt lat="42.82902" lon="0.30364">
        <ele>1098.924072</ele>
        <time>2012-12-31T14:11:08Z</time>
      </trkpt>
      <trkpt lat="42.82904" lon="0.30365">
        <ele>1098.443359</ele>
        <time>2012-12-31T14:11:36Z</time>
      </trkpt>
      <trkpt lat="42.8291" lon="0.30375">
        <ele>1098.924072</ele>
        <time>2012-12-31T14:12:52Z</time>
      </trkpt>
      <trkpt lat="42.8291" lon="0.30376">
        <ele>1095.55957</ele>
        <time>2012-12-31T14:12:54Z</time>
      </trkpt>
      <trkpt lat="42.8291" lon="0.30376">
        <ele>1098.924072</ele>
        <time>2012-12-31T14:12:55Z</time>
      </trkpt>
      <trkpt lat="42.82905" lon="0.30373">
        <ele>1099.885498</ele>
        <time>2012-12-31T14:13:20Z</time>
      </trkpt>
      <trkpt lat="42.82902" lon="0.3036">
        <ele>1099.404785</ele>
        <time>2012-12-31T14:13:45Z</time>
      </trkpt>
      <trkpt lat="42.82904" lon="0.30366">
        <ele>1100.366455</ele>
        <time>2012-12-31T14:14:30Z</time>
      </trkpt>
      <trkpt lat="42.82892" lon="0.30378">
        <ele>1100.846924</ele>
        <time>2012-12-31T14:14:52Z</time>
      </trkpt>
      <trkpt lat="42.82899" lon="0.30371">
        <ele>1101.327637</ele>
        <time>2012-12-31T14:15:39Z</time>
      </trkpt>
      <trkpt lat="42.82899" lon="0.30372">
        <ele>1100.366455</ele>
        <time>2012-12-31T14:15:41Z</time>
      </trkpt>
      <trkpt lat="42.82898" lon="0.30377">
        <ele>1100.366455</ele>
        <time>2012-12-31T14:16:05Z</time>
      </trkpt>
      <trkpt lat="42.82897" lon="0.30388">
        <ele>1098.443359</ele>
        <time>2012-12-31T14:16:16Z</time>
      </trkpt>
      <trkpt lat="42.82896" lon="0.30391">
        <ele>1098.924072</ele>
        <time>2012-12-31T14:16:18Z</time>
      </trkpt>
      <trkpt lat="42.82893" lon="0.30397">
        <ele>1098.443359</ele>
        <time>2012-12-31T14:16:21Z</time>
      </trkpt>
      <trkpt lat="42.82892" lon="0.30398">
        <ele>1098.924072</ele>
        <time>2012-12-31T14:16:23Z</time>
      </trkpt>
      <trkpt lat="42.82891" lon="0.30408">
        <ele>1096.040283</ele>
        <time>2012-12-31T14:16:31Z</time>
      </trkpt>
      <trkpt lat="42.82889" lon="0.3041">
        <ele>1096.520996</ele>
        <time>2012-12-31T14:16:33Z</time>
      </trkpt>
      <trkpt lat="42.82886" lon="0.30405">
        <ele>1094.598145</ele>
        <time>2012-12-31T14:16:41Z</time>
      </trkpt>
      <trkpt lat="42.82888" lon="0.304">
        <ele>1094.117676</ele>
        <time>2012-12-31T14:16:45Z</time>
      </trkpt>
      <trkpt lat="42.82888" lon="0.30394">
        <ele>1094.117676</ele>
        <time>2012-12-31T14:16:48Z</time>
      </trkpt>
      <trkpt lat="42.82888" lon="0.30386">
        <ele>1093.636963</ele>
        <time>2012-12-31T14:16:52Z</time>
      </trkpt>
      <trkpt lat="42.82882" lon="0.30379">
        <ele>1092.195068</ele>
        <time>2012-12-31T14:17:00Z</time>
      </trkpt>
      <trkpt lat="42.82871" lon="0.30379">
        <ele>1089.791748</ele>
        <time>2012-12-31T14:17:07Z</time>
      </trkpt>
      <trkpt lat="42.82868" lon="0.30377">
        <ele>1089.311035</ele>
        <time>2012-12-31T14:17:09Z</time>
      </trkpt>
      <trkpt lat="42.82866" lon="0.30373">
        <ele>1089.311035</ele>
        <time>2012-12-31T14:17:11Z</time>
      </trkpt>
      <trkpt lat="42.82866" lon="0.30365">
        <ele>1088.349854</ele>
        <time>2012-12-31T14:17:15Z</time>
      </trkpt>
      <trkpt lat="42.82866" lon="0.30357">
        <ele>1088.349854</ele>
        <time>2012-12-31T14:17:19Z</time>
      </trkpt>
      <trkpt lat="42.8286" lon="0.30338">
        <ele>1086.907715</ele>
        <time>2012-12-31T14:17:30Z</time>
      </trkpt>
      <trkpt lat="42.82859" lon="0.30335">
        <ele>1085.946533</ele>
        <time>2012-12-31T14:17:32Z</time>
      </trkpt>
      <trkpt lat="42.82857" lon="0.30311">
        <ele>1084.504639</ele>
        <time>2012-12-31T14:17:45Z</time>
      </trkpt>
      <trkpt lat="42.82855" lon="0.3031">
        <ele>1084.023926</ele>
        <time>2012-12-31T14:17:49Z</time>
      </trkpt>
      <trkpt lat="42.8285" lon="0.30315">
        <ele>1083.542969</ele>
        <time>2012-12-31T14:17:53Z</time>
      </trkpt>
      <trkpt lat="42.82849" lon="0.30319">
        <ele>1082.101074</ele>
        <time>2012-12-31T14:17:56Z</time>
      </trkpt>
      <trkpt lat="42.82848" lon="0.30323">
        <ele>1082.101074</ele>
        <time>2012-12-31T14:17:59Z</time>
      </trkpt>
      <trkpt lat="42.82849" lon="0.30327">
        <ele>1081.139893</ele>
        <time>2012-12-31T14:18:02Z</time>
      </trkpt>
      <trkpt lat="42.82849" lon="0.30334">
        <ele>1081.139893</ele>
        <time>2012-12-31T14:18:06Z</time>
      </trkpt>
      <trkpt lat="42.82844" lon="0.30348">
        <ele>1080.65918</ele>
        <time>2012-12-31T14:18:16Z</time>
      </trkpt>
      <trkpt lat="42.8284" lon="0.30353">
        <ele>1078.736572</ele>
        <time>2012-12-31T14:18:20Z</time>
      </trkpt>
      <trkpt lat="42.82838" lon="0.30354">
        <ele>1077.294678</ele>
        <time>2012-12-31T14:18:22Z</time>
      </trkpt>
      <trkpt lat="42.82828" lon="0.3037">
        <ele>1076.333252</ele>
        <time>2012-12-31T14:18:35Z</time>
      </trkpt>
      <trkpt lat="42.82827" lon="0.30371">
        <ele>1075.852539</ele>
        <time>2012-12-31T14:18:36Z</time>
      </trkpt>
      <trkpt lat="42.82822" lon="0.30375">
        <ele>1075.852539</ele>
        <time>2012-12-31T14:18:41Z</time>
      </trkpt>
      <trkpt lat="42.82816" lon="0.30385">
        <ele>1073.449463</ele>
        <time>2012-12-31T14:18:53Z</time>
      </trkpt>
      <trkpt lat="42.82812" lon="0.30398">
        <ele>1071.046143</ele>
        <time>2012-12-31T14:19:04Z</time>
      </trkpt>
      <trkpt lat="42.82809" lon="0.30407">
        <ele>1070.084717</ele>
        <time>2012-12-31T14:19:11Z</time>
      </trkpt>
      <trkpt lat="42.82808" lon="0.30413">
        <ele>1069.123535</ele>
        <time>2012-12-31T14:19:15Z</time>
      </trkpt>
      <trkpt lat="42.82806" lon="0.30419">
        <ele>1069.123535</ele>
        <time>2012-12-31T14:19:19Z</time>
      </trkpt>
      <trkpt lat="42.82804" lon="0.30427">
        <ele>1068.162109</ele>
        <time>2012-12-31T14:19:23Z</time>
      </trkpt>
      <trkpt lat="42.82805" lon="0.30432">
        <ele>1066.719971</ele>
        <time>2012-12-31T14:19:26Z</time>
      </trkpt>
      <trkpt lat="42.82805" lon="0.30434">
        <ele>1066.239258</ele>
        <time>2012-12-31T14:19:28Z</time>
      </trkpt>
      <trkpt lat="42.82802" lon="0.30459">
        <ele>1064.797363</ele>
        <time>2012-12-31T14:19:40Z</time>
      </trkpt>
      <trkpt lat="42.82802" lon="0.3046">
        <ele>1065.758789</ele>
        <time>2012-12-31T14:19:41Z</time>
      </trkpt>
      <trkpt lat="42.82799" lon="0.30476">
        <ele>1065.278076</ele>
        <time>2012-12-31T14:19:51Z</time>
      </trkpt>
      <trkpt lat="42.82803" lon="0.30503">
        <ele>1062.394043</ele>
        <time>2012-12-31T14:20:07Z</time>
      </trkpt>
      <trkpt lat="42.82803" lon="0.30509">
        <ele>1062.394043</ele>
        <time>2012-12-31T14:20:10Z</time>
      </trkpt>
      <trkpt lat="42.82804" lon="0.30519">
        <ele>1061.913574</ele>
        <time>2012-12-31T14:20:16Z</time>
      </trkpt>
      <trkpt lat="42.82806" lon="0.30526">
        <ele>1060.952148</ele>
        <time>2012-12-31T14:20:21Z</time>
      </trkpt>
      <trkpt lat="42.82804" lon="0.30541">
        <ele>1059.029541</ele>
        <time>2012-12-31T14:20:30Z</time>
      </trkpt>
      <trkpt lat="42.82802" lon="0.30565">
        <ele>1057.587646</ele>
        <time>2012-12-31T14:20:44Z</time>
      </trkpt>
      <trkpt lat="42.82802" lon="0.30568">
        <ele>1057.106934</ele>
        <time>2012-12-31T14:20:46Z</time>
      </trkpt>
      <trkpt lat="42.82803" lon="0.3058">
        <ele>1054.223145</ele>
        <time>2012-12-31T14:20:53Z</time>
      </trkpt>
      <trkpt lat="42.828" lon="0.3059">
        <ele>1051.81958</ele>
        <time>2012-12-31T14:20:59Z</time>
      </trkpt>
      <trkpt lat="42.82799" lon="0.30594">
        <ele>1050.858154</ele>
        <time>2012-12-31T14:21:02Z</time>
      </trkpt>
      <trkpt lat="42.82801" lon="0.30605">
        <ele>1051.338867</ele>
        <time>2012-12-31T14:21:08Z</time>
      </trkpt>
      <trkpt lat="42.82801" lon="0.3061">
        <ele>1050.377686</ele>
        <time>2012-12-31T14:21:11Z</time>
      </trkpt>
      <trkpt lat="42.82799" lon="0.30617">
        <ele>1049.41626</ele>
        <time>2012-12-31T14:21:16Z</time>
      </trkpt>
      <trkpt lat="42.82797" lon="0.30638">
        <ele>1047.012939</ele>
        <time>2012-12-31T14:21:29Z</time>
      </trkpt>
      <trkpt lat="42.82797" lon="0.30639">
        <ele>1047.493652</ele>
        <time>2012-12-31T14:21:30Z</time>
      </trkpt>
      <trkpt lat="42.82793" lon="0.30657">
        <ele>1045.571045</ele>
        <time>2012-12-31T14:21:40Z</time>
      </trkpt>
      <trkpt lat="42.82792" lon="0.30661">
        <ele>1045.090332</ele>
        <time>2012-12-31T14:21:42Z</time>
      </trkpt>
      <trkpt lat="42.82788" lon="0.30674">
        <ele>1043.167725</ele>
        <time>2012-12-31T14:21:50Z</time>
      </trkpt>
      <trkpt lat="42.82787" lon="0.30679">
        <ele>1042.206543</ele>
        <time>2012-12-31T14:21:53Z</time>
      </trkpt>
      <trkpt lat="42.82784" lon="0.30704">
        <ele>1039.32251</ele>
        <time>2012-12-31T14:22:08Z</time>
      </trkpt>
      <trkpt lat="42.82783" lon="0.3071">
        <ele>1038.361328</ele>
        <time>2012-12-31T14:22:12Z</time>
      </trkpt>
      <trkpt lat="42.82777" lon="0.3073">
        <ele>1035.957764</ele>
        <time>2012-12-31T14:22:24Z</time>
      </trkpt>
      <trkpt lat="42.82773" lon="0.30744">
        <ele>1034.996582</ele>
        <time>2012-12-31T14:22:33Z</time>
      </trkpt>
      <trkpt lat="42.82771" lon="0.3075">
        <ele>1034.035156</ele>
        <time>2012-12-31T14:22:36Z</time>
      </trkpt>
      <trkpt lat="42.82763" lon="0.30767">
        <ele>1032.593262</ele>
        <time>2012-12-31T14:22:47Z</time>
      </trkpt>
      <trkpt lat="42.82762" lon="0.30769">
        <ele>1033.07373</ele>
        <time>2012-12-31T14:22:48Z</time>
      </trkpt>
      <trkpt lat="42.82759" lon="0.30775">
        <ele>1032.112549</ele>
        <time>2012-12-31T14:22:52Z</time>
      </trkpt>
      <trkpt lat="42.82757" lon="0.30782">
        <ele>1030.670654</ele>
        <time>2012-12-31T14:22:57Z</time>
      </trkpt>
      <trkpt lat="42.82757" lon="0.308">
        <ele>1028.748047</ele>
        <time>2012-12-31T14:23:07Z</time>
      </trkpt>
      <trkpt lat="42.82755" lon="0.30813">
        <ele>1027.306152</ele>
        <time>2012-12-31T14:23:14Z</time>
      </trkpt>
      <trkpt lat="42.82754" lon="0.30819">
        <ele>1027.306152</ele>
        <time>2012-12-31T14:23:17Z</time>
      </trkpt>
      <trkpt lat="42.82746" lon="0.30841">
        <ele>1025.864014</ele>
        <time>2012-12-31T14:23:30Z</time>
      </trkpt>
      <trkpt lat="42.82744" lon="0.30849">
        <ele>1024.422119</ele>
        <time>2012-12-31T14:23:35Z</time>
      </trkpt>
      <trkpt lat="42.82741" lon="0.30863">
        <ele>1022.499512</ele>
        <time>2012-12-31T14:23:44Z</time>
      </trkpt>
      <trkpt lat="42.82738" lon="0.30874">
        <ele>1021.538086</ele>
        <time>2012-12-31T14:23:51Z</time>
      </trkpt>
      <trkpt lat="42.82733" lon="0.30881">
        <ele>1020.096191</ele>
        <time>2012-12-31T14:23:55Z</time>
      </trkpt>
      <trkpt lat="42.82722" lon="0.30897">
        <ele>1019.615479</ele>
        <time>2012-12-31T14:24:05Z</time>
      </trkpt>
      <trkpt lat="42.82717" lon="0.30905">
        <ele>1018.17334</ele>
        <time>2012-12-31T14:24:11Z</time>
      </trkpt>
      <trkpt lat="42.82712" lon="0.30916">
        <ele>1016.250732</ele>
        <time>2012-12-31T14:24:18Z</time>
      </trkpt>
      <trkpt lat="42.82711" lon="0.30921">
        <ele>1015.770264</ele>
        <time>2012-12-31T14:24:22Z</time>
      </trkpt>
      <trkpt lat="42.82707" lon="0.30929">
        <ele>1013.847412</ele>
        <time>2012-12-31T14:24:28Z</time>
      </trkpt>
      <trkpt lat="42.82704" lon="0.30932">
        <ele>1013.847412</ele>
        <time>2012-12-31T14:24:30Z</time>
      </trkpt>
      <trkpt lat="42.82703" lon="0.30936">
        <ele>1013.366943</ele>
        <time>2012-12-31T14:24:32Z</time>
      </trkpt>
      <trkpt lat="42.82696" lon="0.30953">
        <ele>1010.963623</ele>
        <time>2012-12-31T14:24:42Z</time>
      </trkpt>
      <trkpt lat="42.82694" lon="0.30962">
        <ele>1010.963623</ele>
        <time>2012-12-31T14:24:49Z</time>
      </trkpt>
      <trkpt lat="42.82688" lon="0.30972">
        <ele>1010.963623</ele>
        <time>2012-12-31T14:24:55Z</time>
      </trkpt>
      <trkpt lat="42.82686" lon="0.30977">
        <ele>1010.48291</ele>
        <time>2012-12-31T14:24:59Z</time>
      </trkpt>
      <trkpt lat="42.82676" lon="0.30998">
        <ele>1008.560303</ele>
        <time>2012-12-31T14:25:13Z</time>
      </trkpt>
      <trkpt lat="42.82675" lon="0.31001">
        <ele>1008.079834</ele>
        <time>2012-12-31T14:25:15Z</time>
      </trkpt>
      <trkpt lat="42.82664" lon="0.31018">
        <ele>1005.676514</ele>
        <time>2012-12-31T14:25:26Z</time>
      </trkpt>
      <trkpt lat="42.82647" lon="0.31039">
        <ele>1004.234619</ele>
        <time>2012-12-31T14:25:40Z</time>
      </trkpt>
      <trkpt lat="42.82645" lon="0.31038">
        <ele>1004.234619</ele>
        <time>2012-12-31T14:25:42Z</time>
      </trkpt>
      <trkpt lat="42.82634" lon="0.31047">
        <ele>1001.831055</ele>
        <time>2012-12-31T14:25:54Z</time>
      </trkpt>
      <trkpt lat="42.82632" lon="0.3105">
        <ele>1001.350342</ele>
        <time>2012-12-31T14:25:56Z</time>
      </trkpt>
      <trkpt lat="42.82618" lon="0.3106">
        <ele>999.427734</ele>
        <time>2012-12-31T14:26:07Z</time>
      </trkpt>
      <trkpt lat="42.82613" lon="0.3107">
        <ele>998.466309</ele>
        <time>2012-12-31T14:26:18Z</time>
      </trkpt>
      <trkpt lat="42.82616" lon="0.3107">
        <ele>997.98584</ele>
        <time>2012-12-31T14:26:21Z</time>
      </trkpt>
      <trkpt lat="42.82618" lon="0.3107">
        <ele>997.505127</ele>
        <time>2012-12-31T14:26:23Z</time>
      </trkpt>
      <trkpt lat="42.82625" lon="0.31067">
        <ele>997.024414</ele>
        <time>2012-12-31T14:26:33Z</time>
      </trkpt>
      <trkpt lat="42.8263" lon="0.31062">
        <ele>996.543945</ele>
        <time>2012-12-31T14:26:40Z</time>
      </trkpt>
      <trkpt lat="42.82645" lon="0.31054">
        <ele>994.621094</ele>
        <time>2012-12-31T14:26:52Z</time>
      </trkpt>
      <trkpt lat="42.82662" lon="0.31045">
        <ele>991.737305</ele>
        <time>2012-12-31T14:27:04Z</time>
      </trkpt>
      <trkpt lat="42.82678" lon="0.31033">
        <ele>990.775879</ele>
        <time>2012-12-31T14:27:16Z</time>
      </trkpt>
      <trkpt lat="42.8268" lon="0.31028">
        <ele>990.29541</ele>
        <time>2012-12-31T14:27:19Z</time>
      </trkpt>
      <trkpt lat="42.82688" lon="0.3102">
        <ele>989.814697</ele>
        <time>2012-12-31T14:27:25Z</time>
      </trkpt>
      <trkpt lat="42.82695" lon="0.31013">
        <ele>988.853516</ele>
        <time>2012-12-31T14:27:30Z</time>
      </trkpt>
      <trkpt lat="42.82707" lon="0.30998">
        <ele>987.411133</ele>
        <time>2012-12-31T14:27:42Z</time>
      </trkpt>
      <trkpt lat="42.8272" lon="0.30989">
        <ele>985.488525</ele>
        <time>2012-12-31T14:27:53Z</time>
      </trkpt>
      <trkpt lat="42.82724" lon="0.30985">
        <ele>985.008057</ele>
        <time>2012-12-31T14:27:56Z</time>
      </trkpt>
      <trkpt lat="42.82739" lon="0.30969">
        <ele>985.008057</ele>
        <time>2012-12-31T14:28:09Z</time>
      </trkpt>
      <trkpt lat="42.82742" lon="0.30975">
        <ele>984.527344</ele>
        <time>2012-12-31T14:28:14Z</time>
      </trkpt>
      <trkpt lat="42.82741" lon="0.30981">
        <ele>983.085205</ele>
        <time>2012-12-31T14:28:18Z</time>
      </trkpt>
      <trkpt lat="42.82737" lon="0.30989">
        <ele>982.604736</ele>
        <time>2012-12-31T14:28:23Z</time>
      </trkpt>
      <trkpt lat="42.82726" lon="0.31006">
        <ele>981.162842</ele>
        <time>2012-12-31T14:28:34Z</time>
      </trkpt>
      <trkpt lat="42.82725" lon="0.3101">
        <ele>980.201416</ele>
        <time>2012-12-31T14:28:37Z</time>
      </trkpt>
      <trkpt lat="42.82722" lon="0.31019">
        <ele>978.759521</ele>
        <time>2012-12-31T14:28:42Z</time>
      </trkpt>
      <trkpt lat="42.82715" lon="0.31041">
        <ele>976.836914</ele>
        <time>2012-12-31T14:28:53Z</time>
      </trkpt>
      <trkpt lat="42.8271" lon="0.31062">
        <ele>975.394775</ele>
        <time>2012-12-31T14:29:06Z</time>
      </trkpt>
      <trkpt lat="42.82699" lon="0.31081">
        <ele>973.472412</ele>
        <time>2012-12-31T14:29:18Z</time>
      </trkpt>
      <trkpt lat="42.82692" lon="0.31094">
        <ele>971.549316</ele>
        <time>2012-12-31T14:29:29Z</time>
      </trkpt>
      <trkpt lat="42.82691" lon="0.31098">
        <ele>971.549316</ele>
        <time>2012-12-31T14:29:31Z</time>
      </trkpt>
      <trkpt lat="42.82667" lon="0.31118">
        <ele>971.068848</ele>
        <time>2012-12-31T14:29:48Z</time>
      </trkpt>
      <trkpt lat="42.82665" lon="0.31118">
        <ele>971.068848</ele>
        <time>2012-12-31T14:29:49Z</time>
      </trkpt>
      <trkpt lat="42.8265" lon="0.31123">
        <ele>971.068848</ele>
        <time>2012-12-31T14:29:59Z</time>
      </trkpt>
      <trkpt lat="42.82631" lon="0.31134">
        <ele>969.14624</ele>
        <time>2012-12-31T14:30:14Z</time>
      </trkpt>
      <trkpt lat="42.82617" lon="0.31146">
        <ele>967.223633</ele>
        <time>2012-12-31T14:30:25Z</time>
      </trkpt>
      <trkpt lat="42.82606" lon="0.31155">
        <ele>966.262207</ele>
        <time>2012-12-31T14:30:35Z</time>
      </trkpt>
      <trkpt lat="42.82602" lon="0.31157">
        <ele>965.301025</ele>
        <time>2012-12-31T14:30:40Z</time>
      </trkpt>
      <trkpt lat="42.82586" lon="0.31164">
        <ele>964.3396</ele>
        <time>2012-12-31T14:30:52Z</time>
      </trkpt>
      <trkpt lat="42.82577" lon="0.31168">
        <ele>963.858887</ele>
        <time>2012-12-31T14:31:01Z</time>
      </trkpt>
      <trkpt lat="42.82571" lon="0.31169">
        <ele>963.858887</ele>
        <time>2012-12-31T14:31:04Z</time>
      </trkpt>
      <trkpt lat="42.82557" lon="0.31172">
        <ele>960.975098</ele>
        <time>2012-12-31T14:31:15Z</time>
      </trkpt>
      <trkpt lat="42.82559" lon="0.31176">
        <ele>960.013672</ele>
        <time>2012-12-31T14:31:25Z</time>
      </trkpt>
      <trkpt lat="42.8257" lon="0.31182">
        <ele>958.571777</ele>
        <time>2012-12-31T14:31:40Z</time>
      </trkpt>
      <trkpt lat="42.82582" lon="0.31181">
        <ele>956.64917</ele>
        <time>2012-12-31T14:31:51Z</time>
      </trkpt>
      <trkpt lat="42.82591" lon="0.3118">
        <ele>955.687744</ele>
        <time>2012-12-31T14:31:57Z</time>
      </trkpt>
      <trkpt lat="42.82604" lon="0.31173">
        <ele>955.207031</ele>
        <time>2012-12-31T14:32:06Z</time>
      </trkpt>
      <trkpt lat="42.82608" lon="0.31173">
        <ele>954.24585</ele>
        <time>2012-12-31T14:32:08Z</time>
      </trkpt>
      <trkpt lat="42.82625" lon="0.31165">
        <ele>952.322998</ele>
        <time>2012-12-31T14:32:19Z</time>
      </trkpt>
      <trkpt lat="42.82633" lon="0.31161">
        <ele>950.881104</ele>
        <time>2012-12-31T14:32:23Z</time>
      </trkpt>
      <trkpt lat="42.82646" lon="0.3116">
        <ele>949.439209</ele>
        <time>2012-12-31T14:32:34Z</time>
      </trkpt>
      <trkpt lat="42.82653" lon="0.31163">
        <ele>948.477783</ele>
        <time>2012-12-31T14:32:39Z</time>
      </trkpt>
      <trkpt lat="42.82672" lon="0.31165">
        <ele>946.074707</ele>
        <time>2012-12-31T14:32:52Z</time>
      </trkpt>
      <trkpt lat="42.82673" lon="0.31166">
        <ele>945.593994</ele>
        <time>2012-12-31T14:32:53Z</time>
      </trkpt>
      <trkpt lat="42.82686" lon="0.31168">
        <ele>944.1521</ele>
        <time>2012-12-31T14:33:05Z</time>
      </trkpt>
      <trkpt lat="42.82692" lon="0.31168">
        <ele>944.632568</ele>
        <time>2012-12-31T14:33:09Z</time>
      </trkpt>
      <trkpt lat="42.82705" lon="0.31172">
        <ele>944.632568</ele>
        <time>2012-12-31T14:33:16Z</time>
      </trkpt>
      <trkpt lat="42.82711" lon="0.3117">
        <ele>944.632568</ele>
        <time>2012-12-31T14:33:20Z</time>
      </trkpt>
      <trkpt lat="42.82716" lon="0.31169">
        <ele>944.632568</ele>
        <time>2012-12-31T14:33:23Z</time>
      </trkpt>
      <trkpt lat="42.82729" lon="0.31169">
        <ele>942.710205</ele>
        <time>2012-12-31T14:33:32Z</time>
      </trkpt>
      <trkpt lat="42.82738" lon="0.3117">
        <ele>941.748779</ele>
        <time>2012-12-31T14:33:41Z</time>
      </trkpt>
      <trkpt lat="42.82739" lon="0.31174">
        <ele>941.748779</ele>
        <time>2012-12-31T14:33:44Z</time>
      </trkpt>
      <trkpt lat="42.82741" lon="0.31183">
        <ele>938.864746</ele>
        <time>2012-12-31T14:33:52Z</time>
      </trkpt>
      <trkpt lat="42.82739" lon="0.31187">
        <ele>937.90332</ele>
        <time>2012-12-31T14:33:55Z</time>
      </trkpt>
      <trkpt lat="42.82738" lon="0.3119">
        <ele>938.384033</ele>
        <time>2012-12-31T14:33:58Z</time>
      </trkpt>
      <trkpt lat="42.82725" lon="0.31199">
        <ele>935.980713</ele>
        <time>2012-12-31T14:34:10Z</time>
      </trkpt>
      <trkpt lat="42.82715" lon="0.31208">
        <ele>933.09668</ele>
        <time>2012-12-31T14:34:22Z</time>
      </trkpt>
      <trkpt lat="42.827" lon="0.31215">
        <ele>931.174316</ele>
        <time>2012-12-31T14:34:34Z</time>
      </trkpt>
      <trkpt lat="42.8269" lon="0.31218">
        <ele>928.770996</ele>
        <time>2012-12-31T14:34:44Z</time>
      </trkpt>
      <trkpt lat="42.82687" lon="0.31222">
        <ele>928.290283</ele>
        <time>2012-12-31T14:34:46Z</time>
      </trkpt>
      <trkpt lat="42.82675" lon="0.3123">
        <ele>925.886963</ele>
        <time>2012-12-31T14:34:55Z</time>
      </trkpt>
      <trkpt lat="42.82666" lon="0.31235">
        <ele>924.925781</ele>
        <time>2012-12-31T14:35:01Z</time>
      </trkpt>
      <trkpt lat="42.82648" lon="0.31243">
        <ele>924.445068</ele>
        <time>2012-12-31T14:35:14Z</time>
      </trkpt>
      <trkpt lat="42.82636" lon="0.31246">
        <ele>921.080322</ele>
        <time>2012-12-31T14:35:26Z</time>
      </trkpt>
      <trkpt lat="42.82621" lon="0.3125">
        <ele>920.118896</ele>
        <time>2012-12-31T14:35:36Z</time>
      </trkpt>
      <trkpt lat="42.82605" lon="0.31255">
        <ele>918.196289</ele>
        <time>2012-12-31T14:35:48Z</time>
      </trkpt>
      <trkpt lat="42.82596" lon="0.31259">
        <ele>917.715576</ele>
        <time>2012-12-31T14:35:57Z</time>
      </trkpt>
      <trkpt lat="42.82578" lon="0.31262">
        <ele>915.793213</ele>
        <time>2012-12-31T14:36:10Z</time>
      </trkpt>
      <trkpt lat="42.82562" lon="0.31267">
        <ele>914.831787</ele>
        <time>2012-12-31T14:36:22Z</time>
      </trkpt>
      <trkpt lat="42.82546" lon="0.3127">
        <ele>912.90918</ele>
        <time>2012-12-31T14:36:33Z</time>
      </trkpt>
      <trkpt lat="42.82541" lon="0.31272">
        <ele>911.947998</ele>
        <time>2012-12-31T14:36:37Z</time>
      </trkpt>
      <trkpt lat="42.82522" lon="0.31275">
        <ele>909.544678</ele>
        <time>2012-12-31T14:36:50Z</time>
      </trkpt>
      <trkpt lat="42.8252" lon="0.31275">
        <ele>909.063965</ele>
        <time>2012-12-31T14:36:52Z</time>
      </trkpt>
      <trkpt lat="42.82517" lon="0.31277">
        <ele>908.583252</ele>
        <time>2012-12-31T14:36:55Z</time>
      </trkpt>
      <trkpt lat="42.82507" lon="0.31277">
        <ele>908.102783</ele>
        <time>2012-12-31T14:37:01Z</time>
      </trkpt>
      <trkpt lat="42.82494" lon="0.31276">
        <ele>905.218506</ele>
        <time>2012-12-31T14:37:12Z</time>
      </trkpt>
      <trkpt lat="42.8248" lon="0.31273">
        <ele>902.815186</ele>
        <time>2012-12-31T14:37:24Z</time>
      </trkpt>
      <trkpt lat="42.82466" lon="0.3127">
        <ele>900.892578</ele>
        <time>2012-12-31T14:37:34Z</time>
      </trkpt>
      <trkpt lat="42.82452" lon="0.31273">
        <ele>898.489258</ele>
        <time>2012-12-31T14:37:46Z</time>
      </trkpt>
      <trkpt lat="42.82452" lon="0.31273">
        <ele>898.489258</ele>
        <time>2012-12-31T14:37:47Z</time>
      </trkpt>
      <trkpt lat="42.82439" lon="0.31271">
        <ele>895.605469</ele>
        <time>2012-12-31T14:37:58Z</time>
      </trkpt>
      <trkpt lat="42.82426" lon="0.31271">
        <ele>893.682861</ele>
        <time>2012-12-31T14:38:08Z</time>
      </trkpt>
      <trkpt lat="42.82414" lon="0.31271">
        <ele>891.279297</ele>
        <time>2012-12-31T14:38:18Z</time>
      </trkpt>
      <trkpt lat="42.824" lon="0.31264">
        <ele>890.318115</ele>
        <time>2012-12-31T14:38:29Z</time>
      </trkpt>
      <trkpt lat="42.82399" lon="0.31263">
        <ele>890.318115</ele>
        <time>2012-12-31T14:38:30Z</time>
      </trkpt>
      <trkpt lat="42.82393" lon="0.31258">
        <ele>890.318115</ele>
        <time>2012-12-31T14:38:34Z</time>
      </trkpt>
      <trkpt lat="42.82378" lon="0.31252">
        <ele>889.837402</ele>
        <time>2012-12-31T14:38:46Z</time>
      </trkpt>
      <trkpt lat="42.8237" lon="0.31254">
        <ele>886.4729</ele>
        <time>2012-12-31T14:38:54Z</time>
      </trkpt>
      <trkpt lat="42.82369" lon="0.31254">
        <ele>886.4729</ele>
        <time>2012-12-31T14:38:55Z</time>
      </trkpt>
      <trkpt lat="42.82364" lon="0.31266">
        <ele>883.108154</ele>
        <time>2012-12-31T14:39:07Z</time>
      </trkpt>
      <trkpt lat="42.82367" lon="0.31276">
        <ele>881.66626</ele>
        <time>2012-12-31T14:39:16Z</time>
      </trkpt>
      <trkpt lat="42.82363" lon="0.3129">
        <ele>879.262939</ele>
        <time>2012-12-31T14:39:26Z</time>
      </trkpt>
      <trkpt lat="42.8236" lon="0.313">
        <ele>875.898193</ele>
        <time>2012-12-31T14:39:36Z</time>
      </trkpt>
      <trkpt lat="42.8236" lon="0.313">
        <ele>875.898193</ele>
        <time>2012-12-31T14:39:37Z</time>
      </trkpt>
      <trkpt lat="42.82361" lon="0.31307">
        <ele>873.014404</ele>
        <time>2012-12-31T14:39:46Z</time>
      </trkpt>
      <trkpt lat="42.82361" lon="0.31311">
        <ele>872.052979</ele>
        <time>2012-12-31T14:39:49Z</time>
      </trkpt>
      <trkpt lat="42.82358" lon="0.31321">
        <ele>868.688477</ele>
        <time>2012-12-31T14:40:01Z</time>
      </trkpt>
      <trkpt lat="42.82354" lon="0.31321">
        <ele>867.246582</ele>
        <time>2012-12-31T14:40:05Z</time>
      </trkpt>
      <trkpt lat="42.82353" lon="0.31335">
        <ele>864.362549</ele>
        <time>2012-12-31T14:40:18Z</time>
      </trkpt>
      <trkpt lat="42.82352" lon="0.31337">
        <ele>864.362549</ele>
        <time>2012-12-31T14:40:19Z</time>
      </trkpt>
      <trkpt lat="42.82352" lon="0.3134">
        <ele>862.439941</ele>
        <time>2012-12-31T14:40:22Z</time>
      </trkpt>
      <trkpt lat="42.82351" lon="0.31355">
        <ele>860.517334</ele>
        <time>2012-12-31T14:40:30Z</time>
      </trkpt>
      <trkpt lat="42.82354" lon="0.31366">
        <ele>857.152588</ele>
        <time>2012-12-31T14:40:41Z</time>
      </trkpt>
      <trkpt lat="42.8236" lon="0.31376">
        <ele>854.749268</ele>
        <time>2012-12-31T14:40:53Z</time>
      </trkpt>
      <trkpt lat="42.82365" lon="0.31385">
        <ele>851.865479</ele>
        <time>2012-12-31T14:41:03Z</time>
      </trkpt>
      <trkpt lat="42.82375" lon="0.31393">
        <ele>849.942871</ele>
        <time>2012-12-31T14:41:15Z</time>
      </trkpt>
      <trkpt lat="42.82374" lon="0.31395">
        <ele>849.942871</ele>
        <time>2012-12-31T14:41:17Z</time>
      </trkpt>
      <trkpt lat="42.82369" lon="0.314">
        <ele>848.981445</ele>
        <time>2012-12-31T14:41:28Z</time>
      </trkpt>
      <trkpt lat="42.82367" lon="0.31405">
        <ele>847.058838</ele>
        <time>2012-12-31T14:41:36Z</time>
      </trkpt>
      <trkpt lat="42.82365" lon="0.31413">
        <ele>845.616943</ele>
        <time>2012-12-31T14:41:42Z</time>
      </trkpt>
      <trkpt lat="42.82359" lon="0.31431">
        <ele>844.175049</ele>
        <time>2012-12-31T14:41:53Z</time>
      </trkpt>
      <trkpt lat="42.82357" lon="0.31438">
        <ele>843.694092</ele>
        <time>2012-12-31T14:41:57Z</time>
      </trkpt>
      <trkpt lat="42.8235" lon="0.31456">
        <ele>841.290771</ele>
        <time>2012-12-31T14:42:09Z</time>
      </trkpt>
      <trkpt lat="42.8235" lon="0.3146">
        <ele>840.32959</ele>
        <time>2012-12-31T14:42:11Z</time>
      </trkpt>
      <trkpt lat="42.82349" lon="0.31466">
        <ele>839.848877</ele>
        <time>2012-12-31T14:42:15Z</time>
      </trkpt>
      <trkpt lat="42.82347" lon="0.31469">
        <ele>839.368164</ele>
        <time>2012-12-31T14:42:17Z</time>
      </trkpt>
      <trkpt lat="42.82347" lon="0.31476">
        <ele>837.92627</ele>
        <time>2012-12-31T14:42:22Z</time>
      </trkpt>
      <trkpt lat="42.82346" lon="0.31479">
        <ele>836.964844</ele>
        <time>2012-12-31T14:42:25Z</time>
      </trkpt>
      <trkpt lat="42.82349" lon="0.31496">
        <ele>836.964844</ele>
        <time>2012-12-31T14:42:36Z</time>
      </trkpt>
      <trkpt lat="42.8235" lon="0.31501">
        <ele>836.003662</ele>
        <time>2012-12-31T14:42:39Z</time>
      </trkpt>
      <trkpt lat="42.8235" lon="0.31505">
        <ele>836.003662</ele>
        <time>2012-12-31T14:42:41Z</time>
      </trkpt>
      <trkpt lat="42.82351" lon="0.31508">
        <ele>835.04248</ele>
        <time>2012-12-31T14:42:44Z</time>
      </trkpt>
      <trkpt lat="42.82351" lon="0.31518">
        <ele>833.119629</ele>
        <time>2012-12-31T14:42:50Z</time>
      </trkpt>
      <trkpt lat="42.82348" lon="0.31538">
        <ele>831.197266</ele>
        <time>2012-12-31T14:43:01Z</time>
      </trkpt>
      <trkpt lat="42.82349" lon="0.31551">
        <ele>831.677734</ele>
        <time>2012-12-31T14:43:08Z</time>
      </trkpt>
      <trkpt lat="42.82346" lon="0.31553">
        <ele>830.23584</ele>
        <time>2012-12-31T14:43:20Z</time>
      </trkpt>
      <trkpt lat="42.82346" lon="0.3156">
        <ele>829.755127</ele>
        <time>2012-12-31T14:43:37Z</time>
      </trkpt>
      <trkpt lat="42.8235" lon="0.31572">
        <ele>828.793945</ele>
        <time>2012-12-31T14:43:48Z</time>
      </trkpt>
      <trkpt lat="42.82352" lon="0.31574">
        <ele>829.274414</ele>
        <time>2012-12-31T14:43:51Z</time>
      </trkpt>
      <trkpt lat="42.82357" lon="0.31582">
        <ele>829.274414</ele>
        <time>2012-12-31T14:43:57Z</time>
      </trkpt>
      <trkpt lat="42.82359" lon="0.31584">
        <ele>828.793945</ele>
        <time>2012-12-31T14:44:00Z</time>
      </trkpt>
      <trkpt lat="42.82361" lon="0.31588">
        <ele>828.793945</ele>
        <time>2012-12-31T14:44:03Z</time>
      </trkpt>
      <trkpt lat="42.8236" lon="0.31602">
        <ele>829.274414</ele>
        <time>2012-12-31T14:44:11Z</time>
      </trkpt>
      <trkpt lat="42.82354" lon="0.31608">
        <ele>828.793945</ele>
        <time>2012-12-31T14:44:18Z</time>
      </trkpt>
    </trkseg>
  </trk>
</gpx>